Ship Status Report: callsign 000000

sailwx.info

Track history (hours):
 
Tides and Currents Weather Stations Pressure Air Temp Water Temp Dewpoint Dewpoint Depression Visibility Wind Speed Wind Dir Waves Ship Positions

Callsign 000000 (name unknown)

Last reported at 2017-Feb-22 06:33 UTC. Time now 2017-Feb-22 06:37 UTC.
Position N 31°30' E 121°23'.

Type: Fishing. MMSI: 200007452.

Date/timePositionNaut miles runAvg speedWind from/ knotsBaromVisibWave heightAir tempDewpointWater temp
2017-Feb-22 06:33N 31°30' E 121°23'16225.2
2017-Feb-22 06:29N 31°41' E 121°11'6174.2
2017-Feb-22 06:27N 31°38' E 121°17'515.9
2017-Feb-22 06:08N 31°41' E 121°12'1525.0
2017-Feb-22 05:32N 31°30' E 121°23'162093.7
2017-Feb-22 05:31N 31°41' E 121°11'6131.8
2017-Feb-22 05:29N 31°38' E 121°17'49503.8
2017-Feb-22 05:23N 31°58' E 120°25'4413106.3
2017-Feb-22 05:23N 31°41' E 121°12'1518.0
2017-Feb-22 04:33N 31°30' E 121°23'10197.2
2017-Feb-22 04:30N 31°38' E 121°17'11383.1
2017-Feb-22 04:28N 31°30' E 121°24'165343.3
2017-Feb-22 04:28N 31°41' E 121°11'1109.1
2017-Feb-22 04:28N 31°41' E 121°12'1516.3
2017-Feb-22 03:33N 31°30' E 121°23'16471.1
2017-Feb-22 03:31N 31°41' E 121°11'1452.0
2017-Feb-22 03:31N 31°41' E 121°12'5130.3
2017-Feb-22 03:29N 31°38' E 121°17'0 0.1
2017-Feb-22 02:33N 31°38' E 121°17'10618.6
2017-Feb-22 02:32N 31°30' E 121°23'16649.8
2017-Feb-22 02:30N 31°41' E 121°11'154.8
2017-Feb-22 02:30N 31°41' E 121°12'32228.0
2017-Feb-22 02:21N 31°21' E 121°41'730.3
2017-Feb-22 02:08N 31°19' E 121°34'14216.9
2017-Feb-22 02:04N 31°05' E 121°28'1934.9
2017-Feb-22 01:32N 31°21' E 121°41'17697.8
2017-Feb-22 01:30N 31°30' E 121°23'162338.1
2017-Feb-22 01:30N 31°16' E 121°33'327630.8
2017-Feb-22 01:30N 31°41' E 121°11'37714.7
2017-Feb-22 01:27N 31°07' E 121°28'332140.7
2017-Feb-22 01:26N 31°38' E 121°17'5138.7
2017-Feb-22 01:24N 31°41' E 121°12'1 1.1
2017-Feb-22 00:33N 31°41' E 121°11'165.7
2017-Feb-22 00:33N 31°41' E 121°12'5489.5
2017-Feb-22 00:32N 31°38' E 121°17'262712.5
2017-Feb-22 00:31N 31°21' E 121°41'1570.8
2017-Feb-22 00:19N 31°11' E 121°28'34580.6
2017-Feb-22 00:15N 31°42' E 121°10'342719.2
2017-Feb-22 00:15N 31°11' E 121°29'19783.2
2017-Feb-22 00:13N 31°30' E 121°23'1623.0
2017-Feb-21 23:32N 31°41' E 121°11'6617.5
2017-Feb-21 23:32N 31°38' E 121°17'11593.8
2017-Feb-21 23:31N 31°30' E 121°24'16774.7
2017-Feb-21 23:29N 31°21' E 121°41'121246.2
2017-Feb-21 23:29N 31°13' E 121°30'17234.3
2017-Feb-21 23:24N 31°30' E 121°23'15129.9
2017-Feb-21 23:18N 31°41' E 121°12'3142.8
2017-Feb-21 22:33N 31°21' E 121°41'101545.4
2017-Feb-21 22:33N 31°15' E 121°31'318465.1
2017-Feb-21 22:33N 31°41' E 121°12'176.5
2017-Feb-21 22:32N 31°41' E 121°11'6112.3
2017-Feb-21 22:29N 31°38' E 121°17'1093.1
2017-Feb-21 22:22N 31°30' E 121°23'0 0.0
2017-Feb-21 21:33N 31°30' E 121°23'10279.0
2017-Feb-21 21:31N 31°38' E 121°17'51556.4
2017-Feb-21 21:31N 31°41' E 121°12'316932.4
2017-Feb-21 21:31N 31°16' E 121°34'81301.9
2017-Feb-21 21:30N 31°21' E 121°41'32459.4
2017-Feb-21 21:26N 31°41' E 121°11'1 0.9
2017-Feb-21 20:32N 31°41' E 121°12'518666.4
2017-Feb-21 20:32N 31°38' E 121°17'10246.8
2017-Feb-21 20:29N 31°30' E 121°23'16404.4
2017-Feb-21 20:27N 31°41' E 121°11'1242.1
2017-Feb-21 20:09N 31°32' E 121°20'53654.9
2017-Feb-21 20:05N 31°59' E 120°27'5093.9
2017-Feb-21 19:32N 31°34' E 121°18'4395.9
2017-Feb-21 19:32N 31°38' E 121°17'572.8
2017-Feb-21 19:27N 31°41' E 121°12'154469.4
2017-Feb-21 19:27N 31°30' E 121°23'162572.5
2017-Feb-21 19:27N 31°41' E 121°11'5 5.6
2017-Feb-21 18:32N 31°38' E 121°15'2188.2
2017-Feb-21 18:32N 31°38' E 121°17'61200.0
2017-Feb-21 18:31N 31°42' E 121°11'141.0
2017-Feb-21 18:30N 31°41' E 121°12'1575.2
2017-Feb-21 18:18N 31°30' E 121°23'1519.5
2017-Feb-21 17:32N 31°41' E 121°12'5585.0
2017-Feb-21 17:32N 31°38' E 121°17'661.1
2017-Feb-21 17:26N 31°42' E 121°11'16148.2
2017-Feb-21 17:19N 31°30' E 121°23'637.1
2017-Feb-21 17:09N 31°26' E 121°29'3 4.5
2017-Feb-21 16:33N 31°28' E 121°27'197650.2
2017-Feb-21 16:33N 31°42' E 121°11'6239.1
2017-Feb-21 16:32N 31°38' E 121°17'5327.3
2017-Feb-21 16:31N 31°41' E 121°12'153370.8
2017-Feb-21 16:30N 31°30' E 121°23'56216.8
2017-Feb-21 16:15N 31°59' E 120°27'4767.5
2017-Feb-21 15:33N 31°38' E 121°17'101726.1
2017-Feb-21 15:33N 31°30' E 121°23'1573.4
2017-Feb-21 15:20N 31°42' E 121°11'1 7.7
2017-Feb-21 15:13N 31°41' E 121°12'44661.9
2017-Feb-21 15:09N 31°58' E 120°25'4471.4
2017-Feb-21 14:33N 31°41' E 121°12'5262.8
2017-Feb-21 14:32N 31°38' E 121°17'656.6
2017-Feb-21 14:25N 31°42' E 121°11'6 6.8
2017-Feb-21 13:32N 31°38' E 121°17'261185.0
2017-Feb-21 13:31N 31°15' E 121°29'30933.9
2017-Feb-21 13:29N 31°41' E 121°12'110.4
2017-Feb-21 13:24N 31°42' E 121°11'1680.3
2017-Feb-21 13:12N 31°30' E 121°23'1015.2
2017-Feb-21 12:32N 31°38' E 121°17'5455.0
2017-Feb-21 12:31N 31°41' E 121°12'134.5
2017-Feb-21 12:30N 31°41' E 121°11'41460.7
2017-Feb-21 12:25N 31°59' E 120°27'568774.8
2017-Feb-21 12:24N 31°30' E 121°23'1517.3
2017-Feb-21 11:32N 31°41' E 121°12'51696.9
2017-Feb-21 11:32N 31°38' E 121°17'443.7
2017-Feb-21 11:26N 31°40' E 121°12'14389.7
2017-Feb-21 11:24N 31°30' E 121°23'16581.9
2017-Feb-21 11:22N 31°41' E 121°11'6 7.7
2017-Feb-21 10:33N 31°37' E 121°16'6337.0
2017-Feb-21 10:32N 31°41' E 121°11'1614251.9
2017-Feb-21 10:32N 31°30' E 121°23'109222.5
2017-Feb-21 10:32N 31°38' E 121°17'541.1
2017-Feb-21 10:25N 31°41' E 121°12'5 6.1
2017-Feb-21 09:33N 31°38' E 121°17'5584.4
2017-Feb-21 09:33N 31°34' E 121°20'5121.2
2017-Feb-21 09:30N 31°30' E 121°23'15244.0
2017-Feb-21 09:27N 31°41' E 121°12'115.9
2017-Feb-21 09:23N 31°41' E 121°11'1618.1
2017-Feb-21 08:32N 31°31' E 121°24'2471.7
2017-Feb-21 08:32N 31°30' E 121°23'16429.2
2017-Feb-21 08:29N 31°41' E 121°11'6111.8
2017-Feb-21 08:26N 31°38' E 121°17'5578.0
2017-Feb-21 08:26N 31°41' E 121°12'44681.2
2017-Feb-21 08:22N 31°58' E 120°25'4353.3
2017-Feb-21 07:33N 31°41' E 121°11'6252.1
2017-Feb-21 07:32N 31°38' E 121°17'5128.4
2017-Feb-21 07:30N 31°41' E 121°12'1546.6
2017-Feb-21 07:10N 31°30' E 121°23'1624.7
2017-Feb-21 06:32N 31°41' E 121°11'130.9
2017-Feb-21 06:31N 31°41' E 121°12'5159.4
2017-Feb-21 06:29N 31°38' E 121°17'1010.7
2017-Feb-21 05:32N 31°30' E 121°23'103666.9
2017-Feb-21 05:32N 31°38' E 121°17'552.6
2017-Feb-21 05:26N 31°41' E 121°12'111.5
2017-Feb-21 05:21N 31°41' E 121°11'1619.9
2017-Feb-21 04:34N 31°30' E 121°23'10322.0
2017-Feb-21 04:32N 31°38' E 121°17'5177.5
2017-Feb-21 04:30N 31°41' E 121°12'111.1
2017-Feb-21 04:25N 31°41' E 121°11'31171.1
2017-Feb-21 04:14N 31°15' E 121°30'3143.4
2017-Feb-21 03:31N 31°41' E 121°11'6378.2
2017-Feb-21 03:30N 31°37' E 121°16'10190.8
2017-Feb-21 03:27N 31°30' E 121°23'103061.9
2017-Feb-21 03:27N 31°38' E 121°17'5259.6
2017-Feb-21 03:26N 31°41' E 121°12'5 5.9
2017-Feb-21 02:33N 31°38' E 121°17'51974.0
2017-Feb-21 02:33N 31°33' E 121°20'11622.1
2017-Feb-21 02:32N 31°41' E 121°11'119.8
2017-Feb-21 02:30N 31°41' E 121°12'15110.1
2017-Feb-21 02:21N 31°30' E 121°23'20203.6
2017-Feb-21 02:16N 31°44' E 121°07'2028.6
2017-Feb-21 01:33N 31°30' E 121°23'102830.6
2017-Feb-21 01:33N 31°38' E 121°17'5926.9
2017-Feb-21 01:33N 31°41' E 121°12'0 5.0
2017-Feb-21 01:30N 31°41' E 121°12'652.9
2017-Feb-21 01:22N 31°36' E 121°17'73260.1
2017-Feb-21 01:22N 31°41' E 121°11'0 0.0
2017-Feb-21 00:33N 31°41' E 121°11'67218.9
2017-Feb-21 00:33N 31°38' E 121°17'3142.1
2017-Feb-21 00:31N 31°36' E 121°18'7223.0
2017-Feb-21 00:29N 31°30' E 121°23'15245.0
2017-Feb-21 00:26N 31°41' E 121°12'1516.5
2017-Feb-20 23:33N 31°30' E 121°23'10413.8
2017-Feb-20 23:31N 31°38' E 121°17'10379.5
2017-Feb-20 23:30N 31°30' E 121°23'16381.6
2017-Feb-20 23:27N 31°41' E 121°11'1617.5
2017-Feb-20 22:33N 31°30' E 121°23'2303.4
2017-Feb-20 22:33N 31°28' E 121°25'18742.0
2017-Feb-20 22:31N 31°41' E 121°11'6264.0
2017-Feb-20 22:30N 31°38' E 121°17'6 6.3
2017-Feb-20 21:33N 31°41' E 121°11'18470.8
2017-Feb-20 21:31N 31°28' E 121°25'2246.5
2017-Feb-20 21:31N 31°30' E 121°23'10632.5
2017-Feb-20 21:30N 31°38' E 121°17'1213.0
2017-Feb-20 20:33N 31°28' E 121°25'2464.0
2017-Feb-20 20:33N 31°30' E 121°23'16514.4
2017-Feb-20 20:31N 31°41' E 121°11'3069.0
2017-Feb-20 20:05N 31°23' E 121°38'0 0.0
2017-Feb-20 19:32N 31°23' E 121°38'13495.8
2017-Feb-20 19:31N 31°28' E 121°25'12388.9
2017-Feb-20 19:29N 31°38' E 121°17'10237.0
2017-Feb-20 19:27N 31°30' E 121°23'16170.4
2017-Feb-20 19:21N 31°41' E 121°11'1619.9
2017-Feb-20 18:33N 31°30' E 121°23'2262.9
2017-Feb-20 18:33N 31°28' E 121°25'181649.7
2017-Feb-20 18:32N 31°41' E 121°11'6288.8
2017-Feb-20 18:31N 31°38' E 121°17'243601.5
2017-Feb-20 18:31N 31°23' E 121°39'1313.1
2017-Feb-20 17:33N 31°28' E 121°25'603464.0
2017-Feb-20 17:32N 31°58' E 120°25'492019.6
2017-Feb-20 17:30N 31°38' E 121°17'61804.7
2017-Feb-20 17:30N 31°41' E 121°11'306741.3
2017-Feb-20 17:30N 31°23' E 121°39'15137.4
2017-Feb-20 17:23N 31°30' E 121°23'1618.8
2017-Feb-20 16:33N 31°41' E 121°11'164076.1
2017-Feb-20 16:33N 31°29' E 121°23'89181.9
2017-Feb-20 16:33N 31°25' E 121°31'71742.3
2017-Feb-20 16:33N 31°22' E 121°38'722995.4
2017-Feb-20 16:31N 31°58' E 120°25'571203.1
2017-Feb-20 16:29N 31°30' E 121°23'10243.1
2017-Feb-20 16:26N 31°38' E 121°17'1112.1
2017-Feb-20 15:33N 31°29' E 121°24'725838.7
2017-Feb-20 15:33N 31°25' E 121°31'186317.2
2017-Feb-20 15:33N 31°38' E 121°17'492019.6
2017-Feb-20 15:32N 31°58' E 120°25'438566.6
2017-Feb-20 15:32N 31°41' E 121°11'1694.8
2017-Feb-20 15:22N 31°30' E 121°23'0 9.7
2017-Feb-20 15:20N 31°29' E 121°23'1 1.0
2017-Feb-20 14:33N 31°30' E 121°24'102905.4
2017-Feb-20 14:33N 31°38' E 121°17'10368.3
2017-Feb-20 14:32N 31°30' E 121°22'15635.1
2017-Feb-20 14:30N 31°41' E 121°11'431542.1
2017-Feb-20 14:29N 31°58' E 120°25'57246.9
2017-Feb-20 14:15N 31°30' E 121°23'0 3.4
2017-Feb-20 14:10N 31°29' E 121°23'6 9.6
2017-Feb-20 13:33N 31°34' E 121°19'521886.2
2017-Feb-20 13:32N 31°58' E 120°25'4315420.7
2017-Feb-20 13:31N 31°41' E 121°11'16785.0
2017-Feb-20 13:30N 31°29' E 121°23'128.3
2017-Feb-20 13:29N 31°30' E 121°22'91709.9
2017-Feb-20 13:28N 31°38' E 121°17'1051.0
2017-Feb-20 13:16N 31°30' E 121°23'0 0.0
2017-Feb-20 12:33N 31°30' E 121°23'181126.7
2017-Feb-20 12:32N 31°42' E 121°09'417679.5
2017-Feb-20 12:32N 31°58' E 120°25'57203915.8
2017-Feb-20 12:32N 31°30' E 121°22'15946.8
2017-Feb-20 12:31N 31°41' E 121°11'4558.9
2017-Feb-20 12:30N 31°38' E 121°14'12512.5
2017-Feb-20 12:29N 31°29' E 121°23'1112.0
2017-Feb-20 11:33N 31°38' E 121°15'1183.9
2017-Feb-20 11:33N 31°38' E 121°14'414834.0
2017-Feb-20 11:33N 31°41' E 121°11'468105332.2
2017-Feb-20 11:33N 24°21' E 118°10'47225001.1
2017-Feb-20 11:32N 31°58' E 120°25'5767971.9
2017-Feb-20 11:32N 31°30' E 121°22'101069.9
2017-Feb-20 11:31N 31°38' E 121°17'10473.8
2017-Feb-20 11:30N 31°30' E 121°23'0 3.0
2017-Feb-20 11:24N 31°29' E 121°23'460538.0
2017-Feb-20 10:33N 24°25' E 118°04'46272298.5
2017-Feb-20 10:33N 31°33' E 121°20'94856.1
2017-Feb-20 10:33N 31°40' E 121°13'4440.8
2017-Feb-20 10:32N 31°38' E 121°17'498366.3
2017-Feb-20 10:32N 31°58' E 120°25'5714565.4
2017-Feb-20 10:32N 31°30' E 121°22'122.0
2017-Feb-20 10:29N 31°30' E 121°23'16859.1
2017-Feb-20 10:28N 31°41' E 121°11'16130.9
2017-Feb-20 10:21N 31°29' E 121°23'1012.8
2017-Feb-20 09:33N 31°38' E 121°17'12979.9
2017-Feb-20 09:33N 31°29' E 121°27'32094.6
2017-Feb-20 09:32N 31°30' E 121°23'46335457.4
2017-Feb-20 09:32N 24°24' E 117°57'46310677.1
2017-Feb-20 09:29N 31°29' E 121°23'141237.8
2017-Feb-20 09:28N 31°40' E 121°13'257.4
2017-Feb-20 09:26N 31°41' E 121°11'435139.4
2017-Feb-20 09:26N 31°58' E 120°25'5720393.8
2017-Feb-20 09:26N 31°30' E 121°22'1010.9
2017-Feb-20 08:33N 31°38' E 121°17'10546.7
2017-Feb-20 08:32N 31°29' E 121°23'5725823.5
2017-Feb-20 08:32N 31°58' E 120°25'5725863.3
2017-Feb-20 08:32N 31°30' E 121°23'463833249.9
2017-Feb-20 08:32N 24°24' E 117°57'47013858.4
2017-Feb-20 08:30N 31°41' E 121°11'15885.3
2017-Feb-20 08:29N 31°30' E 121°22'10104.2
2017-Feb-20 08:23N 31°24' E 121°33'1011.8
2017-Feb-20 07:33N 31°29' E 121°23'014.0
2017-Feb-20 07:32N 31°30' E 121°23'1311421.8
2017-Feb-20 07:32N 31°22' E 121°35'7012021.8
2017-Feb-20 07:32N 31°58' E 120°25'57277.5
2017-Feb-20 07:20N 31°30' E 121°22'15293.3
2017-Feb-20 07:17N 31°41' E 121°11'6139.8
2017-Feb-20 07:14N 31°38' E 121°17'1014.5
2017-Feb-20 06:32N 31°29' E 121°23'5751649.6
2017-Feb-20 06:32N 31°58' E 120°25'4910335.9
2017-Feb-20 06:32N 31°38' E 121°17'221829.3
2017-Feb-20 06:31N 31°22' E 121°35'131235.1
2017-Feb-20 06:30N 31°30' E 121°23'169427.1
2017-Feb-20 06:30N 31°41' E 121°11'15580.7
2017-Feb-20 06:29N 31°30' E 121°22'1333.5
2017-Feb-20 06:05N 31°40' E 121°13'1425.5
2017-Feb-20 05:33N 31°29' E 121°23'0476.6
2017-Feb-20 05:33N 31°30' E 121°23'144126.3
2017-Feb-20 05:33N 31°40' E 121°13'453047.2
2017-Feb-20 05:32N 31°58' E 120°25'579271.4
2017-Feb-20 05:32N 31°30' E 121°22'10979.8
2017-Feb-20 05:31N 31°38' E 121°17'6314.0
2017-Feb-20 05:30N 31°41' E 121°11'288467.0
2017-Feb-20 05:30N 31°22' E 121°35'7073.0
2017-Feb-20 04:32N 31°58' E 120°25'577843.8
2017-Feb-20 04:32N 31°30' E 121°22'1115.9
2017-Feb-20 04:31N 31°29' E 121°23'0939.6
2017-Feb-20 04:31N 31°30' E 121°23'131207.2
2017-Feb-20 04:31N 31°22' E 121°35'26370.1
2017-Feb-20 04:26N 31°40' E 121°13'2 7.0
2017-Feb-20 04:08N 31°41' E 121°11'610.3
2017-Feb-20 03:33N 31°38' E 121°17'4212.9
2017-Feb-20 03:32N 31°40' E 121°13'131382.9
2017-Feb-20 03:32N 31°30' E 121°22'571341.8
2017-Feb-20 03:29N 31°58' E 120°25'573501.7
2017-Feb-20 03:28N 31°29' E 121°23'131246.9
2017-Feb-20 03:27N 31°22' E 121°35'13395.5
2017-Feb-20 03:26N 31°30' E 121°23'163142.4
2017-Feb-20 03:25N 31°41' E 121°11'4348.4
2017-Feb-20 02:32N 31°58' E 120°25'707656.4
2017-Feb-20 02:32N 31°22' E 121°35'261138.4
2017-Feb-20 02:30N 31°40' E 121°13'1449498.9
2017-Feb-20 02:30N 31°30' E 121°23'10347.4
2017-Feb-20 02:28N 31°38' E 121°17'10141.3
2017-Feb-20 02:24N 31°29' E 121°23'162833.6
2017-Feb-20 02:24N 31°41' E 121°11'15784.4
2017-Feb-20 02:23N 31°30' E 121°22'1415.9
2017-Feb-20 01:32N 31°22' E 121°35'261137.3
2017-Feb-20 01:30N 31°40' E 121°13'4124.7
2017-Feb-20 01:28N 31°38' E 121°17'6193.4
2017-Feb-20 01:26N 31°41' E 121°11'16379.4
2017-Feb-20 01:24N 31°29' E 121°23'541689.2
2017-Feb-20 01:22N 31°57' E 120°28'397.0
2017-Feb-20 01:20N 31°58' E 120°25'581005.4
2017-Feb-20 01:17N 31°29' E 121°23'1 8.7
2017-Feb-20 01:11N 31°30' E 121°22'5585.6
2017-Feb-20 00:32N 31°58' E 120°27'4784338.2
2017-Feb-20 00:32N 31°38' E 121°17'10227.3
2017-Feb-20 00:30N 31°30' E 121°24'164.2
2017-Feb-20 00:29N 31°30' E 121°22'231505.0
2017-Feb-20 00:28N 31°12' E 121°39'11609.2
2017-Feb-20 00:27N 31°22' E 121°35'133078.2
2017-Feb-20 00:26N 31°29' E 121°23'16856.8
2017-Feb-20 00:25N 31°41' E 121°11'23786.8
2017-Feb-20 00:25N 31°40' E 121°13'2 2.4
2017-Feb-19 23:33N 31°41' E 121°11'432965.4
2017-Feb-19 23:32N 31°58' E 120°25'705157.3
2017-Feb-19 23:31N 31°22' E 121°35'132718.6
2017-Feb-19 23:31N 31°30' E 121°24'107119.8
2017-Feb-19 23:31N 31°38' E 121°17'10563.8
2017-Feb-19 23:30N 31°29' E 121°23'14509.3
2017-Feb-19 23:28N 31°40' E 121°13'4 4.2
2017-Feb-19 22:33N 31°38' E 121°17'102232.4
2017-Feb-19 22:33N 31°30' E 121°24'575739.9
2017-Feb-19 22:32N 31°58' E 120°25'577647.1
2017-Feb-19 22:32N 31°29' E 121°23'143301.9
2017-Feb-19 22:32N 31°40' E 121°13'1315672.5
2017-Feb-19 22:32N 31°30' E 121°22'14305.2
2017-Feb-19 22:29N 31°22' E 121°35'1187.3
2017-Feb-19 22:22N 31°12' E 121°39'38311.0
2017-Feb-19 22:14N 31°41' E 121°11'0 0.1
2017-Feb-19 21:33N 31°41' E 121°11'377914.7
2017-Feb-19 21:33N 31°06' E 120°56'386171.2
2017-Feb-19 21:33N 31°12' E 121°39'368113.5
2017-Feb-19 21:32N 31°40' E 121°13'472.6
2017-Feb-19 21:29N 31°38' E 121°17'22586.8
2017-Feb-19 21:27N 31°22' E 121°35'707893.5
2017-Feb-19 21:26N 31°58' E 120°25'5741331.5
2017-Feb-19 21:26N 31°30' E 121°24'1771.2
2017-Feb-19 21:12N 31°14' E 121°30'71107.9
2017-Feb-19 20:32N 31°58' E 120°25'571987.4
2017-Feb-19 20:31N 31°30' E 121°23'13369.2
2017-Feb-19 20:29N 31°40' E 121°13'36129882.7
2017-Feb-19 20:29N 31°12' E 121°39'382143.7
2017-Feb-19 20:27N 31°41' E 121°11'282554.1
2017-Feb-19 20:27N 31°22' E 121°35'13514.1
2017-Feb-19 20:25N 31°30' E 121°24'103264.1
2017-Feb-19 20:25N 31°38' E 121°17'1099.8
2017-Feb-19 20:19N 31°29' E 121°23'464605.3
2017-Feb-19 19:33N 24°19' E 118°08'46297735.4
2017-Feb-19 19:33N 31°22' E 121°35'13645.2
2017-Feb-19 19:31N 31°30' E 121°24'141190.1
2017-Feb-19 19:31N 31°40' E 121°13'368117.7
2017-Feb-19 19:31N 31°12' E 121°39'22811.0
2017-Feb-19 19:29N 31°29' E 121°23'1090.4
2017-Feb-19 19:22N 31°38' E 121°17'658.9
2017-Feb-19 19:16N 31°41' E 121°11'1520.2
2017-Feb-19 18:31N 31°30' E 121°23'1865.4
2017-Feb-19 18:31N 31°30' E 121°24'161004.6
2017-Feb-19 18:30N 31°41' E 121°11'61807.5
2017-Feb-19 18:29N 31°38' E 121°17'46926372.4
2017-Feb-19 18:28N 24°24' E 117°57'47315059.7
2017-Feb-19 18:26N 31°58' E 120°25'7935394.3
2017-Feb-19 18:26N 31°12' E 121°39'36475.8
2017-Feb-19 18:22N 31°40' E 121°13'2647190.1
2017-Feb-19 18:22N 31°22' E 121°35'13155.7
2017-Feb-19 18:17N 31°29' E 121°23'1014.1
2017-Feb-19 17:33N 31°38' E 121°17'494503.1
2017-Feb-19 17:33N 31°58' E 120°25'43154094.4
2017-Feb-19 17:33N 31°41' E 121°11'2825425.6
2017-Feb-19 17:32N 31°22' E 121°35'13436.4
2017-Feb-19 17:31N 31°30' E 121°23'116.7
2017-Feb-19 17:29N 31°29' E 121°23'141055.8
2017-Feb-19 17:28N 31°40' E 121°13'144092.4
2017-Feb-19 17:28N 31°30' E 121°24'22546.2
2017-Feb-19 17:25N 31°12' E 121°39'382901.9
2017-Feb-19 17:24N 31°41' E 121°11'4695503.2
2017-Feb-19 17:19N 24°24' E 117°57'453591.1
2017-Feb-19 16:33N 31°12' E 121°39'226689.3
2017-Feb-19 16:33N 31°29' E 121°23'144133.6
2017-Feb-19 16:33N 31°40' E 121°13'141583.6
2017-Feb-19 16:32N 31°30' E 121°24'101196.2
2017-Feb-19 16:32N 31°38' E 121°17'2280531.6
2017-Feb-19 16:32N 31°22' E 121°35'243043.9
2017-Feb-19 16:31N 31°38' E 121°15'53288.9
2017-Feb-19 16:31N 31°41' E 121°11'470563669.8
2017-Feb-19 16:31N 24°24' E 117°57'46339686.1
2017-Feb-19 16:31N 31°30' E 121°23'44115.5
2017-Feb-19 16:08N 31°03' E 122°04'4 7.2
2017-Feb-19 15:34N 31°05' E 121°60'465172.4
2017-Feb-19 15:33N 31°35' E 121°19'7414.5
2017-Feb-19 15:32N 31°40' E 121°13'4219.8
2017-Feb-19 15:31N 31°38' E 121°17'103478.5
2017-Feb-19 15:31N 31°30' E 121°23'131187.6
2017-Feb-19 15:30N 31°24' E 121°36'12732.6
2017-Feb-19 15:29N 31°29' E 121°23'115.8
2017-Feb-19 15:26N 31°30' E 121°24'162008.6
2017-Feb-19 15:26N 31°41' E 121°11'38855.8
2017-Feb-19 15:23N 31°12' E 121°39'4534036.4
2017-Feb-19 15:16N 24°24' E 117°57'456637.8
2017-Feb-19 14:34N 31°10' E 121°52'3238890.2
2017-Feb-19 14:33N 31°31' E 121°23'131.2
2017-Feb-19 14:31N 31°30' E 121°23'131083.5
2017-Feb-19 14:30N 31°40' E 121°13'21860.3
2017-Feb-19 14:30N 31°41' E 121°11'166252.4
2017-Feb-19 14:30N 31°30' E 121°24'10443.5
2017-Feb-19 14:28N 31°38' E 121°17'22830.8
2017-Feb-19 14:27N 31°24' E 121°36'12930.8
2017-Feb-19 14:26N 31°29' E 121°23'46343830.3
2017-Feb-19 14:25N 24°24' E 117°57'4538194.6
2017-Feb-19 14:22N 31°12' E 121°39'6 7.7
2017-Feb-19 13:34N 31°16' E 121°45'6971.7
2017-Feb-19 13:33N 31°12' E 121°39'121198.0
2017-Feb-19 13:33N 31°24' E 121°36'85510.7
2017-Feb-19 13:32N 31°28' E 121°28'564.7
2017-Feb-19 13:28N 31°30' E 121°23'153.5
2017-Feb-19 13:27N 31°29' E 121°23'1 6.0
2017-Feb-19 13:20N 31°30' E 121°24'10238.3
2017-Feb-19 13:17N 31°38' E 121°17'41773.7
2017-Feb-19 13:17N 31°40' E 121°13'46944465.3
2017-Feb-19 13:16N 24°24' E 117°57'47014211.3
2017-Feb-19 13:14N 31°41' E 121°11'3044.7
2017-Feb-19 12:34N 31°21' E 121°38'3178.7
2017-Feb-19 12:33N 31°24' E 121°36'55881.4
2017-Feb-19 12:33N 31°23' E 121°30'235800.1
2017-Feb-19 12:32N 31°40' E 121°13'1449011.1
2017-Feb-19 12:32N 31°30' E 121°24'226745.5
2017-Feb-19 12:32N 31°12' E 121°39'226176.0
2017-Feb-19 12:32N 31°29' E 121°23'10278.4
2017-Feb-19 12:30N 31°38' E 121°17'4696467.0
2017-Feb-19 12:25N 24°24' E 117°57'46342737.9
2017-Feb-19 12:25N 31°30' E 121°23'152115.4
2017-Feb-19 12:24N 31°41' E 121°11'1 4.5
2017-Feb-19 12:16N 31°42' E 121°10'2434.4
2017-Feb-19 11:33N 31°25' E 121°31'17473.9
2017-Feb-19 11:31N 31°38' E 121°18'3216414.6
2017-Feb-19 11:31N 31°12' E 121°39'361460.8
2017-Feb-19 11:30N 31°40' E 121°13'141308.8
2017-Feb-19 11:29N 31°29' E 121°23'12355.9
2017-Feb-19 11:27N 31°24' E 121°36'28790.0
2017-Feb-19 11:25N 31°41' E 121°11'161702.8
2017-Feb-19 11:24N 31°30' E 121°24'115.8
2017-Feb-19 11:22N 31°30' E 121°23'1782.8
2017-Feb-19 11:10N 31°16' E 121°33'4 6.0
2017-Feb-19 10:33N 31°15' E 121°29'1619480.5
2017-Feb-19 10:33N 31°30' E 121°24'23098.5
2017-Feb-19 10:33N 31°29' E 121°25'26362.4
2017-Feb-19 10:33N 31°29' E 121°23'141657.8
2017-Feb-19 10:33N 31°40' E 121°13'5189.1
2017-Feb-19 10:31N 31°42' E 121°08'91867.6
2017-Feb-19 10:31N 31°38' E 121°18'91569.7
2017-Feb-19 10:31N 31°30' E 121°23'13905.0
2017-Feb-19 10:30N 31°24' E 121°36'12252.7
2017-Feb-19 10:27N 31°12' E 121°39'2730.4
2017-Feb-19 09:33N 31°33' E 121°19'5278.0
2017-Feb-19 09:32N 31°30' E 121°24'1 5.4
2017-Feb-19 09:25N 31°30' E 121°23'13394.2
2017-Feb-19 09:23N 31°24' E 121°36'21917.6
2017-Feb-19 09:21N 31°38' E 121°18'32417.8
2017-Feb-19 09:17N 31°12' E 121°39'22370.0
2017-Feb-19 09:13N 31°29' E 121°23'14106.2
2017-Feb-19 09:05N 31°40' E 121°13'2 4.3
2017-Feb-19 08:33N 31°38' E 121°14'2240420.4
2017-Feb-19 08:33N 31°23' E 121°34'2716228.6
2017-Feb-19 08:33N 31°41' E 121°10'322324.4
2017-Feb-19 08:32N 31°15' E 121°31'2611522.5
2017-Feb-19 08:32N 31°38' E 121°18'91165.8
2017-Feb-19 08:32N 31°30' E 121°24'140.7
2017-Feb-19 08:31N 31°30' E 121°23'130.1
2017-Feb-19 08:30N 31°29' E 121°23'22764.7
2017-Feb-19 08:28N 31°12' E 121°39'2469.1
2017-Feb-19 08:07N 31°16' E 121°12'2035.5
2017-Feb-19 07:33N 31°24' E 121°33'101303.0
2017-Feb-19 07:33N 31°29' E 121°23'226690.7
2017-Feb-19 07:33N 31°12' E 121°39'321064.1
2017-Feb-19 07:31N 31°38' E 121°18'9528.5
2017-Feb-19 07:30N 31°30' E 121°24'1 4.9
2017-Feb-19 07:22N 31°30' E 121°23'1884.0
2017-Feb-19 07:09N 31°17' E 121°09'3 5.3
2017-Feb-19 06:33N 31°17' E 121°06'23556.0
2017-Feb-19 06:31N 31°38' E 121°18'32842.9
2017-Feb-19 06:29N 31°12' E 121°39'22379.7
2017-Feb-19 06:25N 31°30' E 121°24'176.1
2017-Feb-19 06:25N 31°30' E 121°23'110.8
2017-Feb-19 06:21N 31°29' E 121°23'981.7
2017-Feb-19 06:15N 31°23' E 121°30'913.1
2017-Feb-19 05:33N 31°30' E 121°24'020.6
2017-Feb-19 05:33N 31°30' E 121°23'121670.2
2017-Feb-19 05:32N 31°23' E 121°34'201229.9
2017-Feb-19 05:31N 31°38' E 121°18'102478.6
2017-Feb-19 05:31N 31°29' E 121°23'2350.3
2017-Feb-19 05:03N 31°19' E 120°59'2345.5
2017-Feb-19 04:33N 31°30' E 121°23'016.0
2017-Feb-19 04:31N 31°30' E 121°24'9445.8
2017-Feb-19 04:30N 31°38' E 121°18'1063.7
2017-Feb-19 04:21N 31°29' E 121°23'321.2
2017-Feb-19 04:12N 31°32' E 121°21'26408.3
2017-Feb-19 04:08N 31°12' E 121°39'2338.1
2017-Feb-19 03:32N 31°30' E 121°23'226141.8
2017-Feb-19 03:32N 31°16' E 121°03'235415.7
2017-Feb-19 03:32N 31°35' E 121°18'7205.4
2017-Feb-19 03:30N 31°30' E 121°24'165.1
2017-Feb-19 03:29N 31°29' E 121°23'102480.0
2017-Feb-19 03:29N 31°38' E 121°18'32543.2
2017-Feb-19 03:25N 31°12' E 121°39'39144.1
2017-Feb-19 03:09N 31°42' E 121°10'41706.8
2017-Feb-19 03:06N 31°58' E 120°27'0 0.0
2017-Feb-19 02:33N 31°58' E 120°27'5640273.0
2017-Feb-19 02:33N 31°29' E 121°23'205871.5
2017-Feb-19 02:33N 31°17' E 121°06'20422.2
2017-Feb-19 02:30N 31°30' E 121°24'9867.8
2017-Feb-19 02:30N 31°38' E 121°18'49962.8
2017-Feb-19 02:27N 32°01' E 120°27'5725830.0
2017-Feb-19 02:26N 31°30' E 121°23'2366.7
2017-Feb-19 02:06N 31°12' E 121°39'2748.7
2017-Feb-19 01:33N 31°17' E 121°09'18412.5
2017-Feb-19 01:31N 31°30' E 121°24'272192.7
2017-Feb-19 01:30N 31°13' E 121°48'284336.0
2017-Feb-19 01:29N 31°30' E 121°23'189.1
2017-Feb-19 01:29N 31°29' E 121°23'56679.5
2017-Feb-19 01:24N 31°58' E 120°26'48487.5
2017-Feb-19 01:18N 31°38' E 121°18'749.3
2017-Feb-19 01:09N 31°42' E 121°10'1627.0
2017-Feb-19 00:33N 31°29' E 121°23'564938.6
2017-Feb-19 00:32N 31°58' E 120°26'765066.8
2017-Feb-19 00:31N 31°04' E 121°28'1922853.5
2017-Feb-19 00:31N 31°18' E 121°43'2819947.1
2017-Feb-19 00:31N 31°17' E 121°11'22185.7
2017-Feb-19 00:24N 31°38' E 121°18'9113.4
2017-Feb-19 00:19N 31°30' E 121°24'0 9.0
2017-Feb-19 00:17N 31°30' E 121°23'1520.1
2017-Feb-18 23:33N 31°22' E 121°37'7264715.5
2017-Feb-18 23:33N 31°58' E 120°25'1384.2
2017-Feb-18 23:33N 31°58' E 120°26'566330.9
2017-Feb-18 23:33N 31°30' E 121°24'1874.8
2017-Feb-18 23:33N 31°30' E 121°22'1336.1
2017-Feb-18 23:32N 31°29' E 121°23'10294.1
2017-Feb-18 23:30N 31°38' E 121°18'978.9
2017-Feb-18 23:23N 31°30' E 121°23'2283.4
2017-Feb-18 23:08N 31°09' E 121°27'1628.1
2017-Feb-18 22:33N 31°17' E 121°11'5650577.0
2017-Feb-18 22:33N 31°58' E 120°26'555394.0
2017-Feb-18 22:32N 31°30' E 121°22'12598.6
2017-Feb-18 22:32N 31°30' E 121°23'91270.8
2017-Feb-18 22:32N 31°38' E 121°18'10379.6
2017-Feb-18 22:30N 31°29' E 121°23'135.7
2017-Feb-18 22:29N 31°30' E 121°24'16471.0
2017-Feb-18 22:27N 31°42' E 121°10'34295.1
2017-Feb-18 22:20N 31°11' E 121°28'878.5
2017-Feb-18 22:14N 31°03' E 121°28'4160.1
2017-Feb-18 21:33N 31°42' E 121°10'252403.7
2017-Feb-18 21:33N 31°17' E 121°11'177542.3
2017-Feb-18 21:32N 31°30' E 121°23'171063.6
2017-Feb-18 21:31N 31°14' E 121°30'186015.8
2017-Feb-18 21:31N 31°31' E 121°22'81558.9
2017-Feb-18 21:31N 31°38' E 121°18'9310.5
2017-Feb-18 21:29N 31°30' E 121°24'261159.1
2017-Feb-18 21:28N 31°47' E 121°01'4722391.3
2017-Feb-18 21:16N 24°24' E 117°57'44513346.4
2017-Feb-18 21:14N 31°08' E 121°28'1724.6
2017-Feb-18 20:33N 31°17' E 121°11'176064.6
2017-Feb-18 20:33N 31°30' E 121°24'031.5
2017-Feb-18 20:32N 31°30' E 121°23'176672.4
2017-Feb-18 20:32N 31°16' E 121°33'213215.0
2017-Feb-18 20:32N 31°33' E 121°20'232640.8
2017-Feb-18 20:31N 31°11' E 121°28'703212.5
2017-Feb-18 20:30N 31°58' E 120°26'486921.9
2017-Feb-18 20:30N 31°38' E 121°18'91457.2
2017-Feb-18 20:29N 31°30' E 121°22'171144.6
2017-Feb-18 20:28N 31°14' E 121°29'32144.8
2017-Feb-18 20:15N 31°42' E 121°10'117.5
2017-Feb-18 20:12N 31°42' E 121°09'14108.1
2017-Feb-18 20:04N 31°32' E 121°20'1733.4
2017-Feb-18 19:33N 31°17' E 121°11'225999.0
2017-Feb-18 19:33N 31°38' E 121°18'486415.7
2017-Feb-18 19:33N 31°58' E 120°26'448772.4
2017-Feb-18 19:32N 31°40' E 121°13'291266.0
2017-Feb-18 19:31N 31°15' E 121°29'362227.3
2017-Feb-18 19:30N 31°45' E 121°06'21436.4
2017-Feb-18 19:27N 31°30' E 121°24'021.3
2017-Feb-18 19:26N 31°30' E 121°23'1130.2
2017-Feb-18 19:26N 31°30' E 121°22'15271.5
2017-Feb-18 19:23N 31°41' E 121°10'9118.1
2017-Feb-18 19:18N 31°35' E 121°17'20160.7
2017-Feb-18 19:11N 31°20' E 121°33'22498.7
2017-Feb-18 19:08N 31°36' E 121°17'2034.6
2017-Feb-18 18:33N 31°17' E 121°11'179960.9
2017-Feb-18 18:33N 31°30' E 121°23'81362.4
2017-Feb-18 18:33N 31°36' E 121°17'21157.1
2017-Feb-18 18:33N 31°37' E 121°15'477641.3
2017-Feb-18 18:33N 31°58' E 120°26'486929.3
2017-Feb-18 18:32N 31°38' E 121°18'91688.3
2017-Feb-18 18:32N 31°30' E 121°22'10739.9
2017-Feb-18 18:31N 31°38' E 121°15'3126.0
2017-Feb-18 18:29N 31°40' E 121°12'1144.6
2017-Feb-18 18:29N 31°39' E 121°13'131038.9
2017-Feb-18 18:28N 31°30' E 121°24'46364168.3
2017-Feb-18 18:28N 24°24' E 117°57'4603470.4
2017-Feb-18 18:20N 31°23' E 121°30'126.7
2017-Feb-18 18:17N 31°22' E 121°30'1419.0
2017-Feb-18 17:33N 31°33' E 121°20'21190.7
2017-Feb-18 17:33N 31°34' E 121°18'44875.2
2017-Feb-18 17:33N 31°38' E 121°18'182639.0
2017-Feb-18 17:33N 31°24' E 121°31'174808.1
2017-Feb-18 17:33N 31°36' E 121°17'2018152.4
2017-Feb-18 17:33N 31°17' E 121°11'178991.7
2017-Feb-18 17:32N 31°27' E 121°28'94783.2
2017-Feb-18 17:32N 31°34' E 121°20'4396.3
2017-Feb-18 17:32N 31°30' E 121°22'15419.7
2017-Feb-18 17:30N 31°41' E 121°11'151901.3
2017-Feb-18 17:29N 31°30' E 121°24'1258.9
2017-Feb-18 17:17N 31°20' E 121°33'45842274.7
2017-Feb-18 17:16N 24°24' E 117°57'4535432.4
2017-Feb-18 17:11N 31°15' E 121°32'1726.8
2017-Feb-18 16:33N 31°31' E 121°25'3441.6
2017-Feb-18 16:33N 31°32' E 121°21'1138.2
2017-Feb-18 16:33N 31°32' E 121°22'91667.4
2017-Feb-18 16:32N 31°39' E 121°14'3521.3
2017-Feb-18 16:32N 31°38' E 121°18'46927653.6
2017-Feb-18 16:31N 24°24' E 117°57'46266567.0
2017-Feb-18 16:31N 31°27' E 121°28'17816.1
2017-Feb-18 16:29N 31°17' E 121°11'253306.7
2017-Feb-18 16:29N 31°12' E 121°39'238329.3
2017-Feb-18 16:29N 31°30' E 121°22'10387.5
2017-Feb-18 16:27N 31°22' E 121°30'10849.6
2017-Feb-18 16:26N 31°30' E 121°24'1104.3
2017-Feb-18 16:26N 31°29' E 121°25'1112.6
2017-Feb-18 15:33N 31°37' E 121°16'2036787.7
2017-Feb-18 15:33N 31°17' E 121°11'176760.9
2017-Feb-18 15:33N 31°28' E 121°26'31974.5
2017-Feb-18 15:33N 31°30' E 121°23'10534.1
2017-Feb-18 15:32N 31°24' E 121°32'181655.9
2017-Feb-18 15:31N 31°38' E 121°18'46964878.7
2017-Feb-18 15:31N 24°24' E 117°57'46312078.9
2017-Feb-18 15:29N 31°30' E 121°22'245.6
2017-Feb-18 15:26N 31°29' E 121°24'1 6.0
2017-Feb-18 15:19N 31°30' E 121°24'248.2
2017-Feb-18 15:16N 31°28' E 121°25'2 2.2
2017-Feb-18 14:33N 31°28' E 121°27'178672.8
2017-Feb-18 14:33N 31°39' E 121°13'1513781.9
2017-Feb-18 14:33N 31°28' E 121°26'8953.1
2017-Feb-18 14:32N 31°34' E 121°19'4480.5
2017-Feb-18 14:32N 31°38' E 121°18'46944390.7
2017-Feb-18 14:31N 24°24' E 117°57'44735774.1
2017-Feb-18 14:30N 31°17' E 121°11'16680.4
2017-Feb-18 14:29N 31°30' E 121°22'115.8
2017-Feb-18 14:25N 31°30' E 121°24'2215.8
2017-Feb-18 14:24N 31°28' E 121°25'202201.8
2017-Feb-18 14:24N 31°12' E 121°39'2327.5
2017-Feb-18 13:33N 31°30' E 121°22'93230.6
2017-Feb-18 13:33N 31°37' E 121°16'915504.5
2017-Feb-18 13:33N 31°30' E 121°22'10277.7
2017-Feb-18 13:31N 31°38' E 121°15'113827.1
2017-Feb-18 13:31N 31°30' E 121°24'22729.4
2017-Feb-18 13:31N 31°28' E 121°26'121816.3
2017-Feb-18 13:30N 31°38' E 121°18'22413.2
2017-Feb-18 13:27N 31°17' E 121°11'22387.9
2017-Feb-18 13:24N 31°39' E 121°13'15139.3
2017-Feb-18 13:17N 31°28' E 121°25'7 9.8
2017-Feb-18 12:33N 31°33' E 121°19'4465.4
2017-Feb-18 12:33N 31°30' E 121°22'968.8
2017-Feb-18 12:25N 31°38' E 121°17'12213.7
2017-Feb-18 12:22N 31°28' E 121°25'1527583.3
2017-Feb-18 12:22N 31°39' E 121°13'153062.6
2017-Feb-18 12:21N 31°28' E 121°26'2127.9
2017-Feb-18 12:20N 31°30' E 121°24'4636041.6
2017-Feb-18 12:16N 24°24' E 117°58'4694965.9
2017-Feb-18 12:10N 31°41' E 121°09'466759.2
2017-Feb-18 11:33N 24°25' E 118°03'46019026.0
2017-Feb-18 11:32N 31°28' E 121°26'101689.1
2017-Feb-18 11:31N 31°35' E 121°17'7266.2
2017-Feb-18 11:30N 31°30' E 121°22'57131.0
2017-Feb-18 11:04N 31°58' E 120°25'472918.5
2017-Feb-18 10:33N 24°22' E 118°09'461165833.8
2017-Feb-18 10:33N 31°28' E 121°26'31291.6
2017-Feb-18 10:33N 31°30' E 121°22'1142.6
2017-Feb-18 10:32N 31°30' E 121°24'9216.7
2017-Feb-18 10:30N 31°37' E 121°16'2101.7
2017-Feb-18 10:29N 31°38' E 121°17'12141.5
2017-Feb-18 10:24N 31°28' E 121°25'163857.7
2017-Feb-18 10:24N 31°40' E 121°13'31206.9
2017-Feb-18 10:14N 31°20' E 121°41'1014.1
2017-Feb-18 09:33N 31°22' E 121°30'15764.8
2017-Feb-18 09:32N 31°17' E 121°46'321864.6
2017-Feb-18 09:31N 31°38' E 121°17'9394.5
2017-Feb-18 09:30N 31°30' E 121°22'3107.6
2017-Feb-18 09:28N 31°28' E 121°26'299.1
2017-Feb-18 09:27N 31°30' E 121°24'11132.1
2017-Feb-18 09:22N 31°38' E 121°15'1012.8
2017-Feb-18 08:33N 31°30' E 121°22'134816.3
2017-Feb-18 08:33N 31°40' E 121°12'5215.5
2017-Feb-18 08:31N 31°38' E 121°18'41211.7
2017-Feb-18 08:31N 31°39' E 121°13'232708.4
2017-Feb-18 08:30N 31°24' E 121°34'111594.7
2017-Feb-18 08:30N 31°30' E 121°24'2191.5
2017-Feb-18 08:29N 31°28' E 121°26'2477.2
2017-Feb-18 08:11N 31°45' E 121°06'2133.8
2017-Feb-18 07:33N 31°30' E 121°22'151922.4
2017-Feb-18 07:33N 31°42' E 121°10'15154.7
2017-Feb-18 07:33N 31°40' E 121°11'65321.4
2017-Feb-18 07:33N 31°38' E 121°18'3591.8
2017-Feb-18 07:33N 31°35' E 121°19'104103.7
2017-Feb-18 07:32N 31°42' E 121°10'28984.5
2017-Feb-18 07:31N 31°24' E 121°34'9554.1
2017-Feb-18 07:30N 31°28' E 121°26'238.9
2017-Feb-18 07:26N 31°30' E 121°24'910.3
2017-Feb-18 06:33N 31°37' E 121°17'91535.4
2017-Feb-18 06:33N 31°30' E 121°22'2285.0
2017-Feb-18 06:32N 31°31' E 121°24'101186.0
2017-Feb-18 06:32N 31°37' E 121°16'205245.0
2017-Feb-18 06:31N 31°24' E 121°34'291356.3
2017-Feb-18 06:30N 31°43' E 121°08'103169.9
2017-Feb-18 06:30N 31°38' E 121°18'9325.3
2017-Feb-18 06:28N 31°30' E 121°24'222.0
2017-Feb-18 06:22N 31°28' E 121°26'2 2.8
2017-Feb-18 05:33N 31°30' E 121°24'3277.7
2017-Feb-18 05:33N 31°32' E 121°22'94713.5
2017-Feb-18 05:32N 31°26' E 121°30'9237.2
2017-Feb-18 05:30N 31°32' E 121°22'74840.8
2017-Feb-18 05:30N 31°37' E 121°16'21859.0
2017-Feb-18 05:29N 31°24' E 121°34'999.7
2017-Feb-18 05:23N 31°28' E 121°26'333.4
2017-Feb-18 05:17N 31°30' E 121°22'1418.7
2017-Feb-18 04:33N 31°23' E 121°36'292831.3
2017-Feb-18 04:33N 31°41' E 121°10'16853.9
2017-Feb-18 04:32N 31°31' E 121°23'1392.4
2017-Feb-18 04:31N 31°30' E 121°23'234644.5
2017-Feb-18 04:31N 31°12' E 121°39'203168.0
2017-Feb-18 04:31N 31°28' E 121°26'3147.3
2017-Feb-18 04:29N 31°30' E 121°22'159.2
2017-Feb-18 04:28N 31°30' E 121°24'11280.3
2017-Feb-18 04:26N 31°24' E 121°35'4631260.5
2017-Feb-18 04:04N 24°17' E 118°12'466903.0
2017-Feb-18 03:33N 31°33' E 121°19'224234.1
2017-Feb-18 03:33N 31°21' E 121°41'695.8
2017-Feb-18 03:29N 31°24' E 121°35'9365.3
2017-Feb-18 03:27N 31°28' E 121°26'398.4
2017-Feb-18 03:25N 31°31' E 121°23'4704367.5
2017-Feb-18 03:19N 24°14' E 118°08'46915636.6
2017-Feb-18 03:17N 31°30' E 121°24'1013.5
2017-Feb-18 02:33N 31°37' E 121°16'10589.0
2017-Feb-18 02:32N 31°30' E 121°24'252.6
2017-Feb-18 02:30N 31°28' E 121°26'171335.8
2017-Feb-18 02:29N 31°19' E 121°42'202446.7
2017-Feb-18 02:29N 31°31' E 121°23'23523.4
2017-Feb-18 02:26N 31°12' E 121°39'454233255.8
2017-Feb-18 02:26N 24°19' E 118°08'4632287.7
2017-Feb-18 02:14N 31°24' E 121°35'2638.4
2017-Feb-18 01:33N 31°41' E 121°11'141160.9
2017-Feb-18 01:32N 31°31' E 121°23'205911.7
2017-Feb-18 01:32N 31°19' E 121°42'17254.7
2017-Feb-18 01:28N 31°28' E 121°26'235.5
2017-Feb-18 01:24N 31°30' E 121°24'22113.6
2017-Feb-18 01:13N 31°12' E 121°39'20277.3
2017-Feb-18 01:08N 31°28' E 121°25'1728.9
2017-Feb-18 00:33N 31°19' E 121°42'201615.3
2017-Feb-18 00:33N 31°31' E 121°23'3178.8
2017-Feb-18 00:32N 31°28' E 121°26'286.0
2017-Feb-18 00:30N 31°30' E 121°24'22414.8
2017-Feb-18 00:27N 31°12' E 121°39'2224.5
2017-Feb-17 23:33N 31°30' E 121°24'10747.1
2017-Feb-17 23:32N 31°24' E 121°35'9423.9
2017-Feb-17 23:31N 31°28' E 121°26'240.1
2017-Feb-17 23:28N 31°30' E 121°24'1 0.6
2017-Feb-17 22:33N 31°30' E 121°24'11150.2
2017-Feb-17 22:29N 31°24' E 121°35'9492.9
2017-Feb-17 22:28N 31°28' E 121°25'2352.8
2017-Feb-17 22:27N 31°30' E 121°24'287.6
2017-Feb-17 22:26N 31°28' E 121°26'17587.6
2017-Feb-17 22:24N 31°19' E 121°42'749.6
2017-Feb-17 22:15N 31°12' E 121°39'3448.9
2017-Feb-17 21:33N 31°39' E 121°14'14384.3
2017-Feb-17 21:31N 31°28' E 121°25'171028.4
2017-Feb-17 21:30N 31°19' E 121°42'7124.0
2017-Feb-17 21:27N 31°12' E 121°39'13164.4
2017-Feb-17 21:22N 31°24' E 121°34'11121.3
2017-Feb-17 21:16N 31°30' E 121°24'216.9
2017-Feb-17 21:08N 31°28' E 121°26'711.7
2017-Feb-17 20:33N 31°33' E 121°20'71118.5
2017-Feb-17 20:33N 31°28' E 121°26'021.4
2017-Feb-17 20:32N 31°28' E 121°25'2188.2
2017-Feb-17 20:31N 31°30' E 121°24'19389.3
2017-Feb-17 20:28N 31°19' E 121°42'832.9
2017-Feb-17 20:14N 31°24' E 121°34'12202.2
2017-Feb-17 20:10N 31°12' E 121°39'711.2
2017-Feb-17 19:33N 31°19' E 121°42'3145.6
2017-Feb-17 19:32N 31°21' E 121°39'14974.7
2017-Feb-17 19:31N 31°28' E 121°26'20182.2
2017-Feb-17 19:24N 31°12' E 121°39'237376.7
2017-Feb-17 19:24N 31°30' E 121°24'11339.1
2017-Feb-17 19:22N 31°38' E 121°15'13616.6
2017-Feb-17 19:21N 31°28' E 121°25'214.8
2017-Feb-17 19:14N 31°30' E 121°24'650.7
2017-Feb-17 19:07N 31°26' E 121°29'1119.8
2017-Feb-17 18:33N 31°34' E 121°20'285513.6
2017-Feb-17 18:33N 31°12' E 121°39'2036329.6
2017-Feb-17 18:33N 31°28' E 121°25'0362.4
2017-Feb-17 18:32N 31°28' E 121°26'17786.0
2017-Feb-17 18:31N 31°19' E 121°42'278.4
2017-Feb-17 18:30N 31°20' E 121°40'17660.0
2017-Feb-17 18:28N 31°30' E 121°24'132.2
2017-Feb-17 18:27N 31°30' E 121°24'1920.8
2017-Feb-17 17:34N 31°19' E 121°42'17903.7
2017-Feb-17 17:32N 31°29' E 121°25'2129.0
2017-Feb-17 17:32N 31°30' E 121°24'17367.9
2017-Feb-17 17:29N 31°20' E 121°40'1511122.7
2017-Feb-17 17:29N 31°29' E 121°25'135.4
2017-Feb-17 17:27N 31°28' E 121°25'2104.5
2017-Feb-17 17:26N 31°30' E 121°24'2283.6
2017-Feb-17 17:10N 31°12' E 121°39'2234.7
2017-Feb-17 16:31N 31°30' E 121°24'17782.5
2017-Feb-17 16:30N 31°20' E 121°40'26809.9
2017-Feb-17 16:30N 31°19' E 121°42'18544.9
2017-Feb-17 16:28N 31°30' E 121°25'15327.1
2017-Feb-17 16:28N 31°28' E 121°25'2063.7
2017-Feb-17 16:09N 31°12' E 121°39'18673134.5
2017-Feb-17 15:33N 00°05' E 121°24'188452179.8
2017-Feb-17 15:31N 31°30' E 121°25'124.6
2017-Feb-17 15:30N 31°30' E 121°24'2515.8
2017-Feb-17 15:30N 31°28' E 121°25'158978.4
2017-Feb-17 15:30N 31°20' E 121°40'82175.6
2017-Feb-17 15:29N 31°12' E 121°39'203843.4
2017-Feb-17 15:29N 31°28' E 121°25'249.9
2017-Feb-17 15:26N 31°30' E 121°24'19817.1
2017-Feb-17 15:25N 31°19' E 121°42'18732175.6
2017-Feb-17 14:33N 00°05' E 121°24'18751349715.7
2017-Feb-17 14:33N 31°20' E 121°40'151099.4
2017-Feb-17 14:32N 31°28' E 121°25'2821.6
2017-Feb-17 14:32N 31°30' E 121°24'5810350.5
2017-Feb-17 14:32N 31°58' E 120°25'791293.4
2017-Feb-17 14:28N 31°12' E 121°39'20584.3
2017-Feb-17 14:26N 31°29' E 121°25'176072.4
2017-Feb-17 14:26N 31°19' E 121°42'18110.7
2017-Feb-17 14:16N 31°30' E 121°25'18842634.3
2017-Feb-17 13:33N 00°05' E 121°24'1883271130.2
2017-Feb-17 13:33N 31°28' E 121°25'152693.5
2017-Feb-17 13:33N 31°20' E 121°40'757068.1
2017-Feb-17 13:32N 31°58' E 120°25'765399.3
2017-Feb-17 13:31N 31°19' E 121°42'7461.5
2017-Feb-17 13:30N 31°12' E 121°39'221362.5
2017-Feb-17 13:29N 31°30' E 121°25'193.7
2017-Feb-17 13:29N 31°30' E 121°24'111.2
2017-Feb-17 13:25N 31°30' E 121°24'247.3
2017-Feb-17 13:23N 31°29' E 121°25'18832270.3
2017-Feb-17 12:33N 00°05' E 121°24'1885133028.9
2017-Feb-17 12:32N 31°30' E 121°24'586901.4
2017-Feb-17 12:32N 31°58' E 120°25'7622947.8
2017-Feb-17 12:32N 31°19' E 121°42'181415.9
2017-Feb-17 12:31N 31°30' E 121°24'2349.5
2017-Feb-17 12:31N 31°28' E 121°25'15341.0
2017-Feb-17 12:28N 31°20' E 121°40'858.4
2017-Feb-17 12:20N 31°12' E 121°39'22168.8
2017-Feb-17 12:12N 31°30' E 121°25'1 1.7
2017-Feb-17 11:33N 31°30' E 121°24'1138.2
2017-Feb-17 11:33N 31°30' E 121°25'1884119005.0
2017-Feb-17 11:32N 00°05' E 121°24'188343179.2
2017-Feb-17 11:29N 31°29' E 121°25'201090.2
2017-Feb-17 11:28N 31°12' E 121°39'20908.5
2017-Feb-17 11:27N 31°28' E 121°25'17466.8
2017-Feb-17 11:25N 31°19' E 121°42'249.4
2017-Feb-17 11:22N 31°20' E 121°40'752050.4
2017-Feb-17 11:20N 31°58' E 120°25'5972.8
2017-Feb-17 10:32N 31°30' E 121°25'18843391666.7
2017-Feb-17 10:32N 00°05' E 121°24'1875562383.4
2017-Feb-17 10:32N 31°20' E 121°40'174762.8
2017-Feb-17 10:31N 31°30' E 121°24'221037.2
2017-Feb-17 10:30N 31°12' E 121°39'202421.4
2017-Feb-17 10:30N 31°28' E 121°25'60378.2
2017-Feb-17 10:20N 31°58' E 120°25'58560.1
2017-Feb-17 10:14N 31°30' E 121°24'19845.1
2017-Feb-17 10:13N 31°19' E 121°42'18732759.6
2017-Feb-17 09:32N 00°05' E 121°24'1883123241.1
2017-Feb-17 09:31N 31°28' E 121°25'1730337.4
2017-Feb-17 09:31N 31°19' E 121°42'762647.8
2017-Feb-17 09:29N 31°58' E 120°25'7519184.9
2017-Feb-17 09:29N 31°20' E 121°40'174000.4
2017-Feb-17 09:29N 31°30' E 121°24'2189.5
2017-Feb-17 09:28N 31°28' E 121°25'8232.6
2017-Feb-17 09:26N 31°21' E 121°30'106922.7
2017-Feb-17 09:26N 31°30' E 121°25'185.2
2017-Feb-17 09:25N 31°30' E 121°24'1 1.2
2017-Feb-17 08:33N 31°30' E 121°25'181813.8
2017-Feb-17 08:32N 31°19' E 121°42'1873449627.0
2017-Feb-17 08:32N 00°05' E 121°24'188349476.4
2017-Feb-17 08:30N 31°28' E 121°25'153168.9
2017-Feb-17 08:29N 31°20' E 121°40'17540.9
2017-Feb-17 08:27N 31°30' E 121°24'129.5
2017-Feb-17 08:26N 31°30' E 121°24'18852132.9
2017-Feb-17 07:33N 00°05' E 121°24'1873224813.3
2017-Feb-17 07:33N 31°19' E 121°42'17809.7
2017-Feb-17 07:31N 31°29' E 121°25'1425841.5
2017-Feb-17 07:31N 31°22' E 121°40'321740.1
2017-Feb-17 07:30N 31°41' E 121°11'17387.6
2017-Feb-17 07:28N 31°30' E 121°25'125.3
2017-Feb-17 07:25N 31°30' E 121°24'2242.9
2017-Feb-17 07:25N 31°28' E 121°25'1322943.8
2017-Feb-17 07:25N 31°38' E 121°15'1160.3
2017-Feb-17 07:14N 31°30' E 121°24'0 0.7
2017-Feb-17 06:33N 31°30' E 121°25'9652.7
2017-Feb-17 06:32N 31°36' E 121°17'11756.4
2017-Feb-17 06:31N 31°28' E 121°25'1883138331.8
2017-Feb-17 06:30N 00°05' E 121°24'188469935.3
2017-Feb-17 06:29N 31°30' E 121°24'164442.1
2017-Feb-17 06:28N 31°22' E 121°40'175965.8
2017-Feb-17 06:28N 31°30' E 121°24'347.6
2017-Feb-17 06:25N 31°32' E 121°22'25637.5
2017-Feb-17 06:23N 31°12' E 121°39'18672271.1
2017-Feb-17 05:33N 00°05' E 121°24'1884183331.0
2017-Feb-17 05:33N 31°30' E 121°25'311170.5
2017-Feb-17 05:33N 31°32' E 121°22'2176182.4
2017-Feb-17 05:33N 31°19' E 121°42'19297.8
2017-Feb-17 05:29N 31°30' E 121°24'221191.0
2017-Feb-17 05:28N 31°12' E 121°39'101309.4
2017-Feb-17 05:27N 31°22' E 121°40'10153.0
2017-Feb-17 05:23N 31°27' E 121°29'4264.5
2017-Feb-17 05:22N 31°28' E 121°25'18832311.0
2017-Feb-17 04:33N 00°05' E 121°24'1885678443.3
2017-Feb-17 04:33N 31°30' E 121°24'172049.1
2017-Feb-17 04:33N 31°22' E 121°40'16489.9
2017-Feb-17 04:31N 31°29' E 121°25'89772.6
2017-Feb-17 04:31N 31°23' E 121°30'13193.8
2017-Feb-17 04:27N 31°12' E 121°39'20240.6
2017-Feb-17 04:22N 31°28' E 121°25'18832343.8
2017-Feb-17 03:33N 00°05' E 121°24'1885130470.8
2017-Feb-17 03:32N 31°30' E 121°24'577961.5
2017-Feb-17 03:32N 31°58' E 120°25'581041.7
2017-Feb-17 03:29N 31°29' E 121°25'22406.7
2017-Feb-17 03:25N 31°12' E 121°39'101683.5
2017-Feb-17 03:25N 31°22' E 121°40'15298.5
2017-Feb-17 03:22N 31°30' E 121°25'16360.8
2017-Feb-17 03:19N 31°15' E 121°33'16542.7
2017-Feb-17 03:18N 31°30' E 121°24'216.9
2017-Feb-17 03:12N 31°28' E 121°25'17365.5
2017-Feb-17 03:09N 31°19' E 121°42'76126.3
2017-Feb-17 02:32N 31°58' E 120°25'1914164039.1
2017-Feb-17 02:32N 00°05' E 121°24'1883968322.5
2017-Feb-17 02:32N 31°28' E 121°25'21639.9
2017-Feb-17 02:32N 31°30' E 121°24'162.9
2017-Feb-17 02:31N 31°30' E 121°24'137.7
2017-Feb-17 02:30N 31°30' E 121°25'151850.3
2017-Feb-17 02:30N 31°22' E 121°40'16946.6
2017-Feb-17 02:29N 31°29' E 121°25'837.8
2017-Feb-17 02:16N 31°25' E 121°33'1488.5
2017-Feb-17 02:06N 31°12' E 121°39'7283.2
2017-Feb-17 02:05N 31°19' E 121°42'3 6.2
2017-Feb-17 01:33N 31°22' E 121°40'7412687.8
2017-Feb-17 01:33N 31°58' E 120°25'1914160224.7
2017-Feb-17 01:32N 00°05' E 121°24'1873140508.2
2017-Feb-17 01:31N 31°19' E 121°42'1917155.5
2017-Feb-17 01:31N 31°30' E 121°24'1326.1
2017-Feb-17 01:31N 31°29' E 121°25'81479.1
2017-Feb-17 01:30N 31°25' E 121°33'8185.6
2017-Feb-17 01:28N 31°30' E 121°25'582796.9
2017-Feb-17 01:27N 31°58' E 120°25'594030.0
2017-Feb-17 01:26N 31°28' E 121°25'2 5.8
2017-Feb-17 01:08N 31°30' E 121°24'5898.5
2017-Feb-17 00:33N 31°58' E 120°25'1914156583.3
2017-Feb-17 00:32N 00°05' E 121°24'1883616205.6
2017-Feb-17 00:32N 31°28' E 121°25'171348.3
2017-Feb-17 00:31N 31°19' E 121°42'184646.4
2017-Feb-17 00:31N 31°29' E 121°25'8437.7
2017-Feb-17 00:30N 31°25' E 121°33'8449.2
2017-Feb-17 00:28N 31°30' E 121°25'049.0
2017-Feb-17 00:28N 31°30' E 121°24'1 5.1
2017-Feb-17 00:20N 31°30' E 121°24'1721.0
2017-Feb-16 23:33N 31°22' E 121°40'747617.3
2017-Feb-16 23:33N 31°58' E 120°25'6720012.8
2017-Feb-16 23:32N 31°25' E 121°33'659791.2
2017-Feb-16 23:32N 31°59' E 120°27'1914765577.1
2017-Feb-16 23:32N 00°05' E 121°24'1884102776.9
2017-Feb-16 23:31N 31°30' E 121°25'183820.1
2017-Feb-16 23:30N 31°19' E 121°42'175515.9
2017-Feb-16 23:30N 31°28' E 121°25'241.3
2017-Feb-16 23:27N 31°30' E 121°24'152.0
2017-Feb-16 23:26N 31°29' E 121°25'5866.0
2017-Feb-16 22:33N 31°58' E 120°25'260.9
2017-Feb-16 22:31N 31°59' E 120°27'7332654.1
2017-Feb-16 22:31N 31°22' E 121°40'171414.3
2017-Feb-16 22:30N 31°30' E 121°24'194898.9
2017-Feb-16 22:30N 31°19' E 121°42'17854.9
2017-Feb-16 22:29N 31°28' E 121°25'1116.4
2017-Feb-16 22:28N 31°30' E 121°25'1884753689.5
2017-Feb-16 22:28N 00°05' E 121°24'146524307.4
2017-Feb-16 22:24N 24°18' E 118°10'46457629.7
2017-Feb-16 22:24N 31°30' E 121°25'2117.1
2017-Feb-16 22:22N 31°28' E 121°27'338.6
2017-Feb-16 22:18N 31°30' E 121°24'0 2.9
2017-Feb-16 22:15N 31°30' E 121°24'1826.5
2017-Feb-16 21:33N 31°19' E 121°42'7713782.9
2017-Feb-16 21:33N 31°58' E 120°25'569236.0
2017-Feb-16 21:32N 31°30' E 121°22'558594.6
2017-Feb-16 21:32N 31°59' E 120°27'5715787.8
2017-Feb-16 21:32N 31°30' E 121°25'2774.6
2017-Feb-16 21:32N 31°28' E 121°25'202805.5
2017-Feb-16 21:31N 31°12' E 121°39'1867248900.6
2017-Feb-16 21:31N 00°05' E 121°24'1877321693.9
2017-Feb-16 21:30N 31°22' E 121°40'1719896.7
2017-Feb-16 21:30N 31°30' E 121°24'193.3
2017-Feb-16 21:30N 31°30' E 121°25'017.0
2017-Feb-16 21:29N 31°30' E 121°24'573142.4
2017-Feb-16 21:28N 31°58' E 120°27'19142110.2
2017-Feb-16 20:33N 00°05' E 121°24'18881132909.4
2017-Feb-16 20:33N 31°34' E 121°19'6560.0
2017-Feb-16 20:33N 31°30' E 121°25'574556.3
2017-Feb-16 20:32N 31°59' E 120°27'573061.4
2017-Feb-16 20:31N 31°30' E 121°25'164002.1
2017-Feb-16 20:30N 31°22' E 121°40'14452.1
2017-Feb-16 20:29N 31°28' E 121°25'171213.1
2017-Feb-16 20:28N 31°19' E 121°42'751500.5
2017-Feb-16 20:25N 31°58' E 120°27'573404.0
2017-Feb-16 20:24N 31°30' E 121°24'130.4
2017-Feb-16 20:22N 31°30' E 121°24'4649341.0
2017-Feb-16 20:19N 24°19' E 118°08'14661913.6
2017-Feb-16 19:33N 00°05' E 121°24'1891234770.1
2017-Feb-16 19:33N 31°37' E 121°16'103579.1
2017-Feb-16 19:33N 31°30' E 121°25'151.5
2017-Feb-16 19:31N 31°30' E 121°24'17116.6
2017-Feb-16 19:23N 31°22' E 121°40'7365283.3
2017-Feb-16 19:23N 31°59' E 120°27'7530019.6
2017-Feb-16 19:23N 31°19' E 121°42'184738.3
2017-Feb-16 19:23N 31°30' E 121°24'0 2.5
2017-Feb-16 19:16N 31°30' E 121°25'114.2
2017-Feb-16 19:10N 31°28' E 121°25'581108.5
2017-Feb-16 19:07N 31°58' E 120°27'73125.1
2017-Feb-16 18:32N 31°22' E 121°40'18772251921.3
2017-Feb-16 18:32N 00°05' E 121°24'1914313175.9
2017-Feb-16 18:31N 31°58' E 120°27'012.7
2017-Feb-16 18:30N 31°59' E 120°27'5714581.7
2017-Feb-16 18:30N 31°30' E 121°24'013.0
2017-Feb-16 18:29N 31°30' E 121°25'0 4.2
2017-Feb-16 18:28N 31°30' E 121°25'18218.0
2017-Feb-16 18:23N 31°19' E 121°42'19495.2
2017-Feb-16 18:20N 31°30' E 121°24'242.0
2017-Feb-16 18:17N 31°28' E 121°25'58799.6
2017-Feb-16 18:13N 31°58' E 120°27'19142813.4
2017-Feb-16 17:32N 00°05' E 121°24'1885218861.1
2017-Feb-16 17:31N 31°30' E 121°24'1922896.7
2017-Feb-16 17:31N 31°19' E 121°42'31500.4
2017-Feb-16 17:31N 31°22' E 121°40'164309.0
2017-Feb-16 17:31N 31°30' E 121°25'5712832.5
2017-Feb-16 17:31N 31°59' E 120°27'0 2.0
2017-Feb-16 17:28N 31°59' E 120°27'573022.5
2017-Feb-16 17:27N 31°30' E 121°25'0 0.1
2017-Feb-16 16:33N 31°30' E 121°25'1884121126.7
2017-Feb-16 16:32N 00°05' E 121°24'18842261097.5
2017-Feb-16 16:32N 31°30' E 121°25'15037.2
2017-Feb-16 16:32N 31°28' E 121°25'2439.8
2017-Feb-16 16:31N 31°30' E 121°24'567207.3
2017-Feb-16 16:31N 31°59' E 120°27'734751.0
2017-Feb-16 16:30N 31°22' E 121°40'2054.3
2017-Feb-16 16:08N 31°32' E 121°20'2035.1
2017-Feb-16 15:33N 31°22' E 121°40'1613993.7
2017-Feb-16 15:33N 31°30' E 121°25'188496901.4
2017-Feb-16 15:32N 00°05' E 121°24'1884116953.3
2017-Feb-16 15:31N 31°30' E 121°25'5710281.3
2017-Feb-16 15:31N 31°59' E 120°27'493298.6
2017-Feb-16 15:30N 31°35' E 121°18'7349.0
2017-Feb-16 15:28N 31°30' E 121°24'562655.5
2017-Feb-16 15:27N 31°59' E 120°27'581836.2
2017-Feb-16 15:25N 31°28' E 121°25'1 1.6
2017-Feb-16 14:32N 31°30' E 121°25'1884339165.7
2017-Feb-16 14:32N 00°05' E 121°24'1884484506.9
2017-Feb-16 14:32N 31°30' E 121°25'161399.4
2017-Feb-16 14:31N 31°22' E 121°40'1526508.7
2017-Feb-16 14:31N 31°29' E 121°25'586317.4
2017-Feb-16 14:30N 31°59' E 120°27'56640.8
2017-Feb-16 14:25N 31°30' E 121°24'1618.9
2017-Feb-16 13:33N 31°21' E 121°40'151829.2
2017-Feb-16 13:33N 31°30' E 121°25'5970329.8
2017-Feb-16 13:33N 31°58' E 120°25'585596.3
2017-Feb-16 13:32N 31°30' E 121°24'1911425.0
2017-Feb-16 13:32N 31°19' E 121°42'71076.0
2017-Feb-16 13:32N 31°12' E 121°39'186775509.1
2017-Feb-16 13:30N 00°05' E 121°24'1884260864.1
2017-Feb-16 13:30N 31°29' E 121°25'0 8.6
2017-Feb-16 13:29N 31°30' E 121°25'572505.0
2017-Feb-16 13:27N 31°59' E 120°27'0 0.7
2017-Feb-16 13:20N 31°59' E 120°27'53455.5
2017-Feb-16 13:13N 31°32' E 121°20'18872834.5
2017-Feb-16 12:33N 00°05' E 121°24'1884101243.8
2017-Feb-16 12:32N 31°30' E 121°25'18771.3
2017-Feb-16 12:31N 31°19' E 121°42'7518013.1
2017-Feb-16 12:31N 31°59' E 120°27'5610092.1
2017-Feb-16 12:30N 31°30' E 121°24'163880.1
2017-Feb-16 12:30N 31°20' E 121°39'15890.8
2017-Feb-16 12:29N 31°29' E 121°25'034.4
2017-Feb-16 12:29N 31°30' E 121°25'57372.3
2017-Feb-16 12:19N 31°59' E 120°27'19142491.0
2017-Feb-16 11:33N 00°05' E 121°24'1885521882.7
2017-Feb-16 11:33N 31°30' E 121°24'16427.9
2017-Feb-16 11:31N 31°20' E 121°39'728960.9
2017-Feb-16 11:30N 31°59' E 120°27'7510007.7
2017-Feb-16 11:30N 31°19' E 121°42'18116.9
2017-Feb-16 11:21N 31°30' E 121°25'0 2.9
2017-Feb-16 11:18N 31°30' E 121°25'18842522.6
2017-Feb-16 10:33N 00°05' E 121°24'1884218798.3
2017-Feb-16 10:33N 31°30' E 121°25'151651.7
2017-Feb-16 10:32N 31°20' E 121°39'156102.5
2017-Feb-16 10:32N 31°30' E 121°25'18621.9
2017-Feb-16 10:30N 31°19' E 121°42'7524564.3
2017-Feb-16 10:30N 31°59' E 120°27'016.7
2017-Feb-16 10:30N 31°59' E 120°27'579781.0
2017-Feb-16 10:30N 31°30' E 121°25'1181.1
2017-Feb-16 10:29N 31°30' E 121°24'1 2.7
2017-Feb-16 10:17N 31°30' E 121°24'1521.2
2017-Feb-16 09:33N 31°22' E 121°39'727610.9
2017-Feb-16 09:33N 31°59' E 120°27'1914104393.3
2017-Feb-16 09:32N 00°05' E 121°24'1884121136.7
2017-Feb-16 09:31N 31°30' E 121°25'0 5.6
2017-Feb-16 09:30N 31°30' E 121°25'141.0
2017-Feb-16 09:28N 31°30' E 121°24'19655.6
2017-Feb-16 09:26N 31°19' E 121°42'36303.5
2017-Feb-16 09:19N 31°42' E 121°09'182686.3
2017-Feb-16 09:19N 31°30' E 121°24'58914.5
2017-Feb-16 09:15N 31°58' E 120°25'73103.3
2017-Feb-16 08:32N 31°22' E 121°39'41449.9
2017-Feb-16 08:32N 31°19' E 121°42'1873240865.1
2017-Feb-16 08:32N 00°05' E 121°24'1893148164.4
2017-Feb-16 08:31N 31°39' E 121°15'12870.2
2017-Feb-16 08:30N 31°30' E 121°24'115.7
2017-Feb-16 08:27N 31°30' E 121°24'147.4
2017-Feb-16 08:26N 31°30' E 121°25'047.8
2017-Feb-16 08:26N 31°30' E 121°25'0 4.2
2017-Feb-16 08:22N 31°30' E 121°25'5 6.4
2017-Feb-16 07:33N 31°33' E 121°20'5573.9
2017-Feb-16 07:33N 31°30' E 121°25'0 3.8
2017-Feb-16 07:32N 31°30' E 121°25'151627.3
2017-Feb-16 07:31N 31°22' E 121°39'301647.6
2017-Feb-16 07:30N 31°41' E 121°12'3415116.9
2017-Feb-16 07:30N 31°19' E 121°42'191564.2
2017-Feb-16 07:29N 31°30' E 121°24'1885452309.9
2017-Feb-16 07:29N 00°05' E 121°24'19145464.1
2017-Feb-16 07:08N 31°59' E 120°27'69119.9
2017-Feb-16 06:33N 31°15' E 121°30'141720.4
2017-Feb-16 06:33N 31°29' E 121°27'106133.9
2017-Feb-16 06:33N 31°36' E 121°18'2631756.6
2017-Feb-16 06:33N 31°19' E 121°42'1873149871.7
2017-Feb-16 06:32N 00°05' E 121°24'188449878.3
2017-Feb-16 06:30N 31°30' E 121°25'0 8.6
2017-Feb-16 06:29N 31°30' E 121°25'151341.5
2017-Feb-16 06:28N 31°22' E 121°39'1544.8
2017-Feb-16 06:08N 31°30' E 121°24'120.8
2017-Feb-16 06:06N 31°30' E 121°24'1 2.1
2017-Feb-16 05:33N 31°31' E 121°24'161019.1
2017-Feb-16 05:32N 31°22' E 121°39'8800.9
2017-Feb-16 05:32N 31°24' E 121°31'8835.9
2017-Feb-16 05:31N 31°30' E 121°25'1884199520.5
2017-Feb-16 05:31N 00°05' E 121°24'1884323019.8
2017-Feb-16 05:30N 31°30' E 121°25'574458.4
2017-Feb-16 05:30N 31°59' E 120°27'754032.9
2017-Feb-16 05:28N 31°19' E 121°42'754288.3
2017-Feb-16 05:27N 31°59' E 120°27'56333.6
2017-Feb-16 05:17N 31°30' E 121°24'1926.0
2017-Feb-16 04:33N 31°19' E 121°42'7530018.4
2017-Feb-16 04:33N 31°59' E 120°27'191450662.9
2017-Feb-16 04:31N 00°05' E 121°24'187756768.6
2017-Feb-16 04:29N 31°22' E 121°39'1510632.6
2017-Feb-16 04:29N 31°30' E 121°25'0 1.7
2017-Feb-16 04:25N 31°30' E 121°25'5208.7
2017-Feb-16 04:23N 31°26' E 121°30'6391.3
2017-Feb-16 04:22N 31°30' E 121°24'57268.3
2017-Feb-16 04:09N 31°58' E 120°25'5896.0
2017-Feb-16 03:33N 31°30' E 121°25'188114.0
2017-Feb-16 03:33N 31°19' E 121°42'42150.4
2017-Feb-16 03:33N 31°22' E 121°40'724195.0
2017-Feb-16 03:32N 31°58' E 120°26'1208.8
2017-Feb-16 03:32N 31°59' E 120°27'1914127595.6
2017-Feb-16 03:31N 00°05' E 121°24'188520373.8
2017-Feb-16 03:25N 31°30' E 121°24'167.8
2017-Feb-16 03:24N 31°30' E 121°25'326.4
2017-Feb-16 03:17N 31°27' E 121°27'367.2
2017-Feb-16 03:14N 31°29' E 121°25'1522.0
2017-Feb-16 02:33N 31°22' E 121°40'15452.4
2017-Feb-16 02:31N 31°30' E 121°25'18601.4
2017-Feb-16 02:30N 31°19' E 121°42'181298.5
2017-Feb-16 02:29N 31°30' E 121°25'147.1
2017-Feb-16 02:27N 31°30' E 121°24'561922.0
2017-Feb-16 02:26N 31°59' E 120°27'19148612.7
2017-Feb-16 02:12N 00°05' E 121°24'18852888.2
2017-Feb-16 01:33N 31°30' E 121°24'62424.4
2017-Feb-16 01:33N 31°34' E 121°18'41881.0
2017-Feb-16 01:33N 31°31' E 121°22'212360.9
2017-Feb-16 01:32N 31°19' E 121°42'181442.5
2017-Feb-16 01:32N 31°30' E 121°25'575410.5
2017-Feb-16 01:31N 31°59' E 120°27'574777.1
2017-Feb-16 01:30N 31°30' E 121°25'152058.5
2017-Feb-16 01:30N 31°22' E 121°40'15112.0
2017-Feb-16 01:22N 31°29' E 121°25'21153.2
2017-Feb-16 01:14N 31°12' E 121°39'710.2
2017-Feb-16 00:33N 31°19' E 121°42'281837.2
2017-Feb-16 00:32N 31°36' E 121°17'482264.0
2017-Feb-16 00:31N 31°59' E 120°27'727615.1
2017-Feb-16 00:30N 31°22' E 121°40'161275.5
2017-Feb-16 00:30N 31°29' E 121°23'14789.0
2017-Feb-16 00:30N 31°29' E 121°25'142652.7
2017-Feb-16 00:29N 31°39' E 121°13'444760.4
2017-Feb-16 00:29N 31°59' E 120°27'57205615.2
2017-Feb-16 00:29N 31°30' E 121°25'591076.0
2017-Feb-16 00:26N 31°58' E 120°25'59721.5
2017-Feb-16 00:21N 31°30' E 121°25'1518.8
2017-Feb-15 23:33N 31°22' E 121°40'302803.0
2017-Feb-15 23:33N 31°40' E 121°11'168069.2
2017-Feb-15 23:32N 31°30' E 121°25'575013.6
2017-Feb-15 23:32N 31°59' E 120°27'562372.1
2017-Feb-15 23:30N 31°29' E 121°23'196238.6
2017-Feb-15 23:30N 31°19' E 121°42'7512865.0
2017-Feb-15 23:30N 31°59' E 120°27'77278482.5
2017-Feb-15 23:30N 31°12' E 121°39'38423.3
2017-Feb-15 23:24N 31°42' E 121°11'17274.6
2017-Feb-15 23:21N 31°30' E 121°25'1721.5
2017-Feb-15 22:33N 31°42' E 121°11'171356.5
2017-Feb-15 22:32N 31°30' E 121°25'151269.5
2017-Feb-15 22:32N 31°22' E 121°39'7236967.2
2017-Feb-15 22:32N 31°59' E 120°27'574028.7
2017-Feb-15 22:31N 31°30' E 121°25'1821702.9
2017-Feb-15 22:31N 31°19' E 121°42'191347.8
2017-Feb-15 22:30N 31°30' E 121°24'1567.4
2017-Feb-15 22:30N 31°29' E 121°25'21310.7
2017-Feb-15 22:26N 31°12' E 121°39'77625.8
2017-Feb-15 22:18N 31°59' E 120°27'57979.6
2017-Feb-15 22:15N 31°30' E 121°24'1 1.0
2017-Feb-15 21:33N 31°30' E 121°23'1923000.1
2017-Feb-15 21:33N 31°19' E 121°42'188292.0
2017-Feb-15 21:33N 31°30' E 121°24'017.3
2017-Feb-15 21:32N 31°30' E 121°25'5734192.5
2017-Feb-15 21:31N 31°59' E 120°27'414746.5
2017-Feb-15 21:31N 31°42' E 121°11'172526.9
2017-Feb-15 21:31N 31°30' E 121°25'010.7
2017-Feb-15 21:28N 31°30' E 121°24'012.9
2017-Feb-15 21:26N 31°30' E 121°25'22833.5
2017-Feb-15 21:24N 31°45' E 121°06'36915.4
2017-Feb-15 21:22N 31°22' E 121°39'2935.8
2017-Feb-15 20:33N 31°40' E 121°13'13688.8
2017-Feb-15 20:32N 31°30' E 121°23'1161.6
2017-Feb-15 20:32N 31°30' E 121°24'154550.9
2017-Feb-15 20:32N 31°22' E 121°39'7219907.1
2017-Feb-15 20:31N 31°59' E 120°27'0 8.5
2017-Feb-15 20:31N 31°59' E 120°27'5734182.3
2017-Feb-15 20:31N 31°30' E 121°25'184672.5
2017-Feb-15 20:31N 31°19' E 121°42'181090.5
2017-Feb-15 20:30N 31°30' E 121°25'171411.4
2017-Feb-15 20:29N 31°42' E 121°11'17953.7
2017-Feb-15 20:28N 31°29' E 121°25'6 6.1
2017-Feb-15 19:32N 31°34' E 121°20'61377.6
2017-Feb-15 19:32N 31°30' E 121°25'034.6
2017-Feb-15 19:32N 31°30' E 121°25'5718644.0
2017-Feb-15 19:31N 31°59' E 120°27'56201447.4
2017-Feb-15 19:31N 31°30' E 121°23'1116.1
2017-Feb-15 19:31N 31°30' E 121°25'0553.0
2017-Feb-15 19:31N 31°30' E 121°24'159098.1
2017-Feb-15 19:31N 31°22' E 121°39'4431.2
2017-Feb-15 19:30N 31°19' E 121°42'35232.8
2017-Feb-15 19:21N 31°42' E 121°11'381281.5
2017-Feb-15 19:19N 31°12' E 121°39'77342.1
2017-Feb-15 19:06N 31°59' E 120°27'75125.0
2017-Feb-15 18:30N 31°19' E 121°42'42171.8
2017-Feb-15 18:30N 31°22' E 121°39'158950.2
2017-Feb-15 18:30N 31°30' E 121°25'572628.4
2017-Feb-15 18:28N 31°59' E 120°27'588731.9
2017-Feb-15 18:28N 31°28' E 121°25'294.9
2017-Feb-15 18:26N 31°30' E 121°23'123.3
2017-Feb-15 18:24N 31°30' E 121°25'0 8.6
2017-Feb-15 18:22N 31°30' E 121°25'171319.2
2017-Feb-15 18:21N 31°42' E 121°11'17209.1
2017-Feb-15 18:16N 31°30' E 121°24'221233.3
2017-Feb-15 18:15N 31°12' E 121°39'2229.8
2017-Feb-15 17:31N 31°30' E 121°24'2222.3
2017-Feb-15 17:31N 31°28' E 121°25'2110.7
2017-Feb-15 17:29N 31°30' E 121°23'5625174.8
2017-Feb-15 17:29N 31°59' E 120°27'7251744.3
2017-Feb-15 17:29N 31°22' E 121°39'371332.0
2017-Feb-15 17:27N 31°20' E 120°56'3913955.5
2017-Feb-15 17:27N 31°19' E 121°42'18492.6
2017-Feb-15 17:25N 31°30' E 121°25'012.0
2017-Feb-15 17:24N 31°30' E 121°25'222790.7
2017-Feb-15 17:23N 31°12' E 121°39'222232.2
2017-Feb-15 17:23N 31°30' E 121°25'1 1.2
2017-Feb-15 16:33N 31°30' E 121°24'161164.6
2017-Feb-15 16:32N 31°22' E 121°39'15472.2
2017-Feb-15 16:31N 31°30' E 121°25'0 9.3
2017-Feb-15 16:30N 31°30' E 121°25'1120.0
2017-Feb-15 16:29N 31°28' E 121°25'1201.5
2017-Feb-15 16:29N 31°29' E 121°25'18359.5
2017-Feb-15 16:26N 31°19' E 121°42'753376.6
2017-Feb-15 16:24N 31°59' E 120°27'572486.5
2017-Feb-15 16:23N 31°30' E 121°24'22167.2
2017-Feb-15 16:15N 31°12' E 121°39'2230.8
2017-Feb-15 15:33N 31°30' E 121°25'0129.6
2017-Feb-15 15:33N 31°29' E 121°25'1305.1
2017-Feb-15 15:33N 31°28' E 121°25'171313.7
2017-Feb-15 15:32N 31°19' E 121°42'755292.7
2017-Feb-15 15:31N 31°59' E 120°27'7217248.9
2017-Feb-15 15:31N 31°22' E 121°39'10399.1
2017-Feb-15 15:29N 31°12' E 121°39'222355.0
2017-Feb-15 15:29N 31°30' E 121°25'1 5.7
2017-Feb-15 15:17N 31°30' E 121°24'16124.7
2017-Feb-15 15:09N 31°42' E 121°11'16455.8
2017-Feb-15 15:07N 31°30' E 121°24'5797.8
2017-Feb-15 14:32N 31°59' E 120°27'4611801.8
2017-Feb-15 14:32N 31°26' E 121°05'3013570.8
2017-Feb-15 14:32N 31°22' E 121°40'10835.2
2017-Feb-15 14:31N 31°12' E 121°39'7751.0
2017-Feb-15 14:31N 31°19' E 121°42'1816115.8
2017-Feb-15 14:31N 31°29' E 121°25'038.1
2017-Feb-15 14:30N 31°30' E 121°24'2775.2
2017-Feb-15 14:30N 31°28' E 121°25'142.8
2017-Feb-15 14:28N 31°30' E 121°25'118.6
2017-Feb-15 14:24N 31°30' E 121°24'131.7
2017-Feb-15 14:22N 31°30' E 121°25'1822.0
2017-Feb-15 13:33N 31°19' E 121°42'767861.4
2017-Feb-15 13:33N 31°58' E 120°25'732872.1
2017-Feb-15 13:31N 31°22' E 121°40'151302.4
2017-Feb-15 13:30N 31°30' E 121°25'012.2
2017-Feb-15 13:30N 31°30' E 121°25'1113.6
2017-Feb-15 13:29N 31°30' E 121°24'5640372.7
2017-Feb-15 13:29N 31°59' E 120°27'584878.3
2017-Feb-15 13:28N 31°28' E 121°25'201053.8
2017-Feb-15 13:27N 31°12' E 121°39'21543.8
2017-Feb-15 13:25N 31°29' E 121°25'171452.6
2017-Feb-15 13:24N 31°42' E 121°11'1719.9
2017-Feb-15 12:33N 31°30' E 121°25'096.6
2017-Feb-15 12:33N 31°29' E 121°25'596593.2
2017-Feb-15 12:33N 31°58' E 120°25'7912878.6
2017-Feb-15 12:32N 31°12' E 121°39'222352.4
2017-Feb-15 12:32N 31°30' E 121°25'181347.7
2017-Feb-15 12:31N 31°19' E 121°42'4113.7
2017-Feb-15 12:29N 31°22' E 121°39'14367.8
2017-Feb-15 12:27N 31°28' E 121°25'1011.2
2017-Feb-15 11:33N 31°21' E 121°33'610753.7
2017-Feb-15 11:33N 31°22' E 121°39'152655.5
2017-Feb-15 11:33N 31°30' E 121°25'227064.9
2017-Feb-15 11:33N 31°12' E 121°39'7914910.1
2017-Feb-15 11:33N 31°58' E 120°25'574310.0
2017-Feb-15 11:32N 31°30' E 121°24'11207.2
2017-Feb-15 11:32N 31°30' E 121°24'18542.1
2017-Feb-15 11:30N 31°19' E 121°42'1810792.5
2017-Feb-15 11:30N 31°30' E 121°25'136.1
2017-Feb-15 11:27N 31°28' E 121°25'1175.3
2017-Feb-15 11:27N 31°29' E 121°25'1516.3
2017-Feb-15 10:33N 31°22' E 121°39'4261.0
2017-Feb-15 10:32N 31°19' E 121°42'18913.0
2017-Feb-15 10:31N 31°30' E 121°25'065.3
2017-Feb-15 10:31N 31°30' E 121°25'171603.0
2017-Feb-15 10:30N 31°42' E 121°11'162132.5
2017-Feb-15 10:30N 31°30' E 121°24'12343.3
2017-Feb-15 10:28N 31°21' E 121°33'10353.6
2017-Feb-15 10:26N 31°12' E 121°39'792230.6
2017-Feb-15 10:24N 31°58' E 120°25'591729.1
2017-Feb-15 10:22N 31°29' E 121°25'137.5
2017-Feb-15 10:20N 31°28' E 121°25'2 7.2
2017-Feb-15 10:05N 31°30' E 121°24'0 0.9
2017-Feb-15 09:33N 31°30' E 121°25'111326.8
2017-Feb-15 09:33N 31°21' E 121°33'1214729.7
2017-Feb-15 09:32N 31°30' E 121°23'152.6
2017-Feb-15 09:32N 31°30' E 121°24'18778.1
2017-Feb-15 09:30N 31°19' E 121°42'1810818.9
2017-Feb-15 09:30N 31°29' E 121°25'1720346.4
2017-Feb-15 09:30N 31°42' E 121°11'3211356.0
2017-Feb-15 09:30N 31°22' E 121°39'14100.7
2017-Feb-15 09:22N 31°28' E 121°25'1416.7
2017-Feb-15 08:33N 31°22' E 121°39'610760.5
2017-Feb-15 08:33N 31°21' E 121°33'28818.3
2017-Feb-15 08:30N 31°42' E 121°11'171595.4
2017-Feb-15 08:30N 31°30' E 121°25'296.7
2017-Feb-15 08:29N 31°28' E 121°25'2610.0
2017-Feb-15 08:29N 31°30' E 121°23'1 7.8
2017-Feb-15 08:23N 31°30' E 121°24'0 8.3
2017-Feb-15 08:21N 31°30' E 121°25'0 0.0
2017-Feb-15 07:32N 31°30' E 121°25'182173.1
2017-Feb-15 07:32N 31°19' E 121°42'73100.7
2017-Feb-15 07:32N 31°12' E 121°39'381572.5
2017-Feb-15 07:30N 31°42' E 121°11'173516.6
2017-Feb-15 07:30N 31°30' E 121°24'0222.1
2017-Feb-15 07:30N 31°30' E 121°25'113424.7
2017-Feb-15 07:30N 31°21' E 121°33'11632.6
2017-Feb-15 07:29N 31°30' E 121°25'1513338.4
2017-Feb-15 07:29N 31°22' E 121°39'14177.8
2017-Feb-15 07:24N 31°28' E 121°25'238.6
2017-Feb-15 07:20N 31°30' E 121°23'1 1.2
2017-Feb-15 06:28N 31°30' E 121°25'11759.9
2017-Feb-15 06:27N 31°21' E 121°33'53763.5
2017-Feb-15 06:27N 31°21' E 121°39'398.4
2017-Feb-15 06:25N 31°19' E 121°42'19708.9
2017-Feb-15 06:23N 31°30' E 121°23'128.2
2017-Feb-15 06:21N 31°30' E 121°25'171248.0
2017-Feb-15 06:20N 31°42' E 121°11'176737.6
2017-Feb-15 06:20N 31°30' E 121°25'011.5
2017-Feb-15 06:18N 31°30' E 121°24'2135.4
2017-Feb-15 06:18N 31°28' E 121°25'20146.0
2017-Feb-15 06:09N 31°12' E 121°39'2236.3
2017-Feb-15 05:33N 31°30' E 121°24'187342.0
2017-Feb-15 05:33N 31°19' E 121°42'182614.9
2017-Feb-15 05:32N 31°29' E 121°24'018.7
2017-Feb-15 05:32N 31°30' E 121°25'154568.1
2017-Feb-15 05:31N 31°20' E 121°39'151295.6
2017-Feb-15 05:31N 31°30' E 121°25'185.0
2017-Feb-15 05:30N 31°30' E 121°23'1318.4
2017-Feb-15 05:30N 31°30' E 121°25'0 4.5
2017-Feb-15 05:26N 31°30' E 121°24'0 0.7
2017-Feb-15 05:13N 31°30' E 121°24'12183.4
2017-Feb-15 05:09N 31°21' E 121°33'5 8.8
2017-Feb-15 04:33N 31°20' E 121°39'153406.3
2017-Feb-15 04:32N 31°29' E 121°25'039.3
2017-Feb-15 04:32N 31°30' E 121°24'195.2
2017-Feb-15 04:31N 31°30' E 121°23'182.2
2017-Feb-15 04:31N 31°30' E 121°24'025.0
2017-Feb-15 04:30N 31°30' E 121°25'033.4
2017-Feb-15 04:30N 31°30' E 121°25'18424.2
2017-Feb-15 04:27N 31°19' E 121°42'18977.8
2017-Feb-15 04:26N 31°30' E 121°24'161055.9
2017-Feb-15 04:25N 31°42' E 121°11'281086.9
2017-Feb-15 04:23N 31°21' E 121°33'1214.3
2017-Feb-15 03:33N 31°30' E 121°24'167308.9
2017-Feb-15 03:33N 31°41' E 121°10'177543.4
2017-Feb-15 03:33N 31°30' E 121°24'111182.1
2017-Feb-15 03:32N 31°21' E 121°33'128777.8
2017-Feb-15 03:32N 31°30' E 121°24'126.1
2017-Feb-15 03:30N 31°30' E 121°25'181904.9
2017-Feb-15 03:29N 31°19' E 121°42'182139.4
2017-Feb-15 03:29N 31°30' E 121°24'0752.8
2017-Feb-15 03:29N 31°30' E 121°25'1583.4
2017-Feb-15 03:18N 31°20' E 121°39'2128.2
2017-Feb-15 02:33N 31°33' E 121°19'5986.0
2017-Feb-15 02:33N 31°30' E 121°24'123691.2
2017-Feb-15 02:33N 31°22' E 121°36'126178.8
2017-Feb-15 02:33N 31°30' E 121°25'2865.2
2017-Feb-15 02:33N 31°30' E 121°23'12598.7
2017-Feb-15 02:33N 31°30' E 121°24'612866.0
2017-Feb-15 02:31N 32°02' E 120°24'7691207.0
2017-Feb-15 02:31N 31°20' E 121°39'1611614.7
2017-Feb-15 02:31N 31°30' E 121°24'12322.7
2017-Feb-15 02:29N 31°21' E 121°33'11154.5
2017-Feb-15 02:25N 31°30' E 121°25'582093.5
2017-Feb-15 02:23N 31°58' E 120°25'5869.1
2017-Feb-15 01:33N 31°30' E 121°24'0450.4
2017-Feb-15 01:33N 31°30' E 121°25'112845.0
2017-Feb-15 01:32N 31°37' E 121°15'102146.5
2017-Feb-15 01:32N 31°30' E 121°24'66622.9
2017-Feb-15 01:32N 31°34' E 121°19'512805.4
2017-Feb-15 01:31N 31°58' E 120°26'588635.3
2017-Feb-15 01:31N 31°30' E 121°24'030.4
2017-Feb-15 01:30N 31°30' E 121°25'15670.8
2017-Feb-15 01:28N 31°20' E 121°39'5293479.0
2017-Feb-15 01:19N 22°37' E 120°16'54478310.7
2017-Feb-15 01:19N 31°38' E 121°14'27123.0
2017-Feb-15 01:06N 31°17' E 121°34'71132.1
2017-Feb-15 00:33N 31°58' E 120°26'70251163.4
2017-Feb-15 00:33N 31°15' E 121°30'155062.5
2017-Feb-15 00:33N 31°30' E 121°25'172022.2
2017-Feb-15 00:33N 31°41' E 121°10'1712119.8
2017-Feb-15 00:33N 31°30' E 121°25'596196.5
2017-Feb-15 00:32N 31°58' E 120°25'582795.7
2017-Feb-15 00:31N 31°30' E 121°24'155035.3
2017-Feb-15 00:31N 31°20' E 121°39'162420.8
2017-Feb-15 00:30N 31°30' E 121°24'101854.3
2017-Feb-15 00:30N 31°37' E 121°15'411204.3
2017-Feb-15 00:28N 32°01' E 120°36'5257.1
2017-Feb-14 23:33N 31°30' E 121°25'583655.5
2017-Feb-14 23:32N 31°58' E 120°26'5816038.1
2017-Feb-14 23:32N 31°30' E 121°25'0168.1
2017-Feb-14 23:32N 31°30' E 121°24'136.0
2017-Feb-14 23:30N 31°30' E 121°24'162003.4
2017-Feb-14 23:30N 31°20' E 121°39'741214.5
2017-Feb-14 23:26N 31°58' E 120°25'79763.6
2017-Feb-14 23:20N 31°12' E 121°39'22454.0
2017-Feb-14 23:17N 31°30' E 121°24'5877.7
2017-Feb-14 22:32N 31°58' E 120°25'595405.1
2017-Feb-14 22:32N 31°30' E 121°25'222874.6
2017-Feb-14 22:31N 31°12' E 121°39'8473.2
2017-Feb-14 22:30N 31°20' E 121°39'15734.7
2017-Feb-14 22:29N 31°30' E 121°25'026.6
2017-Feb-14 22:28N 31°30' E 121°24'178.6
2017-Feb-14 22:27N 31°30' E 121°24'26131.1
2017-Feb-14 22:15N 31°46' E 120°60'4260.1
2017-Feb-14 21:33N 31°20' E 121°39'15818.0
2017-Feb-14 21:32N 31°30' E 121°25'032.5
2017-Feb-14 21:31N 31°30' E 121°24'3562139.3
2017-Feb-14 21:31N 31°52' E 120°53'351094.5
2017-Feb-14 21:29N 31°30' E 121°24'0 7.2
2017-Feb-14 21:27N 31°30' E 121°25'58915.7
2017-Feb-14 21:23N 31°58' E 120°26'57891.7
2017-Feb-14 21:19N 31°30' E 121°23'1 1.4
2017-Feb-14 20:33N 31°30' E 121°25'1293.5
2017-Feb-14 20:33N 31°30' E 121°23'183081.4
2017-Feb-14 20:32N 31°20' E 121°41'46110562.6
2017-Feb-14 20:30N 24°19' E 118°09'464334415.8
2017-Feb-14 20:30N 31°30' E 121°24'587730.2
2017-Feb-14 20:29N 31°58' E 120°25'585531.6
2017-Feb-14 20:29N 31°30' E 121°25'27274.4
2017-Feb-14 20:23N 31°47' E 121°00'272664.4
2017-Feb-14 20:22N 31°30' E 121°24'57257.4
2017-Feb-14 20:09N 31°58' E 120°26'3763.5
2017-Feb-14 19:33N 31°44' E 121°06'389077.7
2017-Feb-14 19:33N 31°20' E 121°40'172864.7
2017-Feb-14 19:33N 31°30' E 121°25'065.1
2017-Feb-14 19:33N 31°30' E 121°24'5712162.4
2017-Feb-14 19:32N 31°58' E 120°26'573850.1
2017-Feb-14 19:31N 31°30' E 121°23'127.7
2017-Feb-14 19:30N 31°30' E 121°24'012.1
2017-Feb-14 19:28N 31°30' E 121°25'1213.6
2017-Feb-14 18:33N 31°39' E 121°14'276118.5
2017-Feb-14 18:33N 31°15' E 121°29'10454.3
2017-Feb-14 18:32N 31°23' E 121°36'132111.9
2017-Feb-14 18:31N 31°30' E 121°23'1208.3
2017-Feb-14 18:31N 31°30' E 121°24'574484.1
2017-Feb-14 18:30N 31°58' E 120°26'582077.3
2017-Feb-14 18:29N 31°30' E 121°25'015.3
2017-Feb-14 18:28N 31°30' E 121°24'0 6.4
2017-Feb-14 18:25N 31°30' E 121°25'4 5.2
2017-Feb-14 17:34N 31°33' E 121°21'2406.1
2017-Feb-14 17:33N 31°34' E 121°19'63085.3
2017-Feb-14 17:33N 31°30' E 121°25'021.8
2017-Feb-14 17:32N 31°30' E 121°24'010.9
2017-Feb-14 17:30N 31°30' E 121°25'5829678.5
2017-Feb-14 17:30N 31°58' E 120°26'578162.2
2017-Feb-14 17:29N 31°30' E 121°23'12107.4
2017-Feb-14 17:23N 31°23' E 121°34'691972.7
2017-Feb-14 17:20N 31°58' E 120°25'5873.4
2017-Feb-14 16:33N 31°30' E 121°25'3377.6
2017-Feb-14 16:32N 31°28' E 121°28'619980.8
2017-Feb-14 16:32N 31°58' E 120°26'683036.2
2017-Feb-14 16:30N 31°23' E 121°34'11482.4
2017-Feb-14 16:29N 31°30' E 121°24'1 4.7
2017-Feb-14 16:21N 31°30' E 121°24'1 6.5
2017-Feb-14 16:11N 31°30' E 121°25'591560.7
2017-Feb-14 16:09N 31°58' E 120°25'66111.8
2017-Feb-14 15:33N 31°24' E 121°31'8308.5
2017-Feb-14 15:31N 31°30' E 121°24'133.1
2017-Feb-14 15:30N 31°30' E 121°24'141.9
2017-Feb-14 15:29N 31°30' E 121°25'114780.9
2017-Feb-14 15:29N 31°23' E 121°34'11399.4
2017-Feb-14 15:27N 31°30' E 121°25'583201.0
2017-Feb-14 15:26N 31°58' E 120°26'0 0.0
2017-Feb-14 14:33N 31°58' E 120°26'681921.3
2017-Feb-14 14:31N 31°23' E 121°34'725.4
2017-Feb-14 14:14N 31°16' E 121°33'162812.8
2017-Feb-14 14:14N 31°30' E 121°25'1296.2
2017-Feb-14 14:14N 31°30' E 121°24'139.5
2017-Feb-14 14:13N 31°30' E 121°24'014.6
2017-Feb-14 14:11N 31°30' E 121°25'70906.7
2017-Feb-14 14:06N 32°39' E 121°24'77139.4
2017-Feb-14 13:33N 31°23' E 121°34'123792.5
2017-Feb-14 13:33N 31°30' E 121°24'579738.8
2017-Feb-14 13:33N 31°58' E 120°26'5720687.7
2017-Feb-14 13:33N 31°30' E 121°24'22764.0
2017-Feb-14 13:33N 31°30' E 121°23'243.5
2017-Feb-14 13:30N 31°30' E 121°25'18344.6
2017-Feb-14 13:27N 31°12' E 121°30'72702.9
2017-Feb-14 13:21N 31°58' E 120°25'594388.9
2017-Feb-14 13:20N 31°30' E 121°25'2328.6
2017-Feb-14 12:32N 31°07' E 121°28'23600.7
2017-Feb-14 12:30N 31°30' E 121°25'1250.8
2017-Feb-14 12:30N 31°30' E 121°24'12177.5
2017-Feb-14 12:26N 31°23' E 121°34'692853.3
2017-Feb-14 12:24N 31°58' E 120°25'49226.3
2017-Feb-14 12:11N 31°36' E 121°16'10386.6
2017-Feb-14 12:10N 31°30' E 121°25'22275.4
2017-Feb-14 12:05N 31°12' E 121°39'2242.5
2017-Feb-14 11:33N 31°30' E 121°24'57204631.1
2017-Feb-14 11:33N 31°58' E 120°26'186.5
2017-Feb-14 11:33N 31°58' E 120°25'583077.8
2017-Feb-14 11:32N 31°30' E 121°24'141523.5
2017-Feb-14 11:31N 31°39' E 121°13'411736.2
2017-Feb-14 11:30N 31°01' E 121°28'2443300.1
2017-Feb-14 11:30N 31°24' E 121°34'92355.2
2017-Feb-14 11:29N 31°30' E 121°25'0 1.8
2017-Feb-14 11:25N 31°30' E 121°25'22237.6
2017-Feb-14 11:19N 31°12' E 121°39'79101.8
2017-Feb-14 10:33N 31°58' E 120°25'581350.1
2017-Feb-14 10:30N 31°30' E 121°24'140.4
2017-Feb-14 10:29N 31°30' E 121°24'120.1
2017-Feb-14 10:26N 31°30' E 121°25'034.0
2017-Feb-14 10:26N 31°30' E 121°25'9631.6
2017-Feb-14 10:25N 31°24' E 121°34'910.7
2017-Feb-14 09:32N 31°30' E 121°24'013.9
2017-Feb-14 09:30N 31°30' E 121°25'5811071.6
2017-Feb-14 09:30N 31°58' E 120°25'572463.1
2017-Feb-14 09:28N 31°30' E 121°24'1018315.2
2017-Feb-14 09:28N 31°24' E 121°34'101391.0
2017-Feb-14 09:28N 31°30' E 121°24'0 5.1
2017-Feb-14 09:23N 31°30' E 121°25'18212.6
2017-Feb-14 09:18N 31°13' E 121°30'1823.0
2017-Feb-14 08:32N 31°30' E 121°25'222892.9
2017-Feb-14 08:31N 31°12' E 121°39'131093.2
2017-Feb-14 08:31N 31°24' E 121°34'679642.6
2017-Feb-14 08:30N 31°58' E 120°26'115.4
2017-Feb-14 08:27N 31°58' E 120°25'7429634.3
2017-Feb-14 08:27N 31°20' E 121°39'16585.3
2017-Feb-14 08:25N 31°30' E 121°25'0516.0
2017-Feb-14 08:25N 31°30' E 121°24'53824821.7
2017-Feb-14 08:24N 22°36' E 120°16'53812652.1
2017-Feb-14 08:21N 31°30' E 121°24'1 3.2
2017-Feb-14 08:07N 31°30' E 121°23'17454.2
2017-Feb-14 08:05N 31°20' E 121°39'1630.2
2017-Feb-14 07:33N 31°30' E 121°25'201093.3
2017-Feb-14 07:32N 31°18' E 121°43'458183297.4
2017-Feb-14 07:32N 24°22' E 118°06'45931749.0
2017-Feb-14 07:31N 31°20' E 121°40'161200.5
2017-Feb-14 07:30N 31°30' E 121°24'011.0
2017-Feb-14 07:28N 31°30' E 121°25'0 8.8
2017-Feb-14 07:26N 31°30' E 121°24'128.5
2017-Feb-14 07:24N 31°30' E 121°23'23107.6
2017-Feb-14 07:12N 31°12' E 121°39'1320.9
2017-Feb-14 06:33N 31°24' E 121°33'46353715.6
2017-Feb-14 06:33N 24°19' E 118°09'461829057.5
2017-Feb-14 06:33N 31°18' E 121°44'201704.2
2017-Feb-14 06:32N 31°30' E 121°24'133526.3
2017-Feb-14 06:32N 31°39' E 121°14'291580.1
2017-Feb-14 06:31N 31°20' E 121°40'172539.2
2017-Feb-14 06:30N 31°30' E 121°23'1106.4
2017-Feb-14 06:30N 31°30' E 121°25'0 0.9
2017-Feb-14 06:24N 31°30' E 121°25'221396.6
2017-Feb-14 06:23N 31°12' E 121°39'221488.9
2017-Feb-14 06:22N 31°30' E 121°24'0 0.0
2017-Feb-14 05:33N 31°30' E 121°24'175055.8
2017-Feb-14 05:33N 31°20' E 121°40'12639.9
2017-Feb-14 05:32N 31°26' E 121°29'103237.5
2017-Feb-14 05:32N 31°33' E 121°20'42258.6
2017-Feb-14 05:32N 31°30' E 121°24'221985.3
2017-Feb-14 05:31N 31°12' E 121°39'8566.3
2017-Feb-14 05:30N 31°20' E 121°40'171385.3
2017-Feb-14 05:29N 31°30' E 121°23'1 9.7
2017-Feb-14 05:23N 31°30' E 121°25'16432.3
2017-Feb-14 05:21N 31°15' E 121°29'16131.4
2017-Feb-14 05:14N 31°30' E 121°25'58471.3
2017-Feb-14 05:06N 31°58' E 120°25'79143.0
2017-Feb-14 04:33N 31°12' E 121°39'214819.4
2017-Feb-14 04:33N 31°29' E 121°24'112.3
2017-Feb-14 04:30N 31°30' E 121°24'162159.6
2017-Feb-14 04:30N 31°20' E 121°40'16187.1
2017-Feb-14 04:25N 31°30' E 121°25'1277.4
2017-Feb-14 04:24N 31°30' E 121°23'146.4
2017-Feb-14 04:24N 31°30' E 121°24'023.3
2017-Feb-14 04:23N 31°30' E 121°25'16640.1
2017-Feb-14 04:21N 31°20' E 121°39'1620.2
2017-Feb-14 03:33N 31°30' E 121°24'0106.7
2017-Feb-14 03:33N 31°30' E 121°25'221441.1
2017-Feb-14 03:32N 31°12' E 121°39'302288.6
2017-Feb-14 03:31N 31°35' E 121°17'7424.8
2017-Feb-14 03:30N 31°30' E 121°24'1629.8
2017-Feb-14 03:30N 31°30' E 121°25'581231.2
2017-Feb-14 03:27N 31°58' E 120°25'74328.1
2017-Feb-14 03:14N 31°20' E 121°39'3 4.9
2017-Feb-14 02:33N 31°18' E 121°43'194276.1
2017-Feb-14 02:33N 31°30' E 121°25'207049.2
2017-Feb-14 02:33N 31°18' E 121°43'321807.9
2017-Feb-14 02:32N 31°38' E 121°14'1221851.5
2017-Feb-14 02:32N 31°30' E 121°24'013.6
2017-Feb-14 02:30N 31°30' E 121°25'142.8
2017-Feb-14 02:28N 31°30' E 121°24'16308.1
2017-Feb-14 02:25N 31°17' E 121°34'4564040.5
2017-Feb-14 02:18N 24°19' E 118°07'1574317.0
2017-Feb-14 02:16N 22°36' E 120°16'53414232.1
2017-Feb-14 02:14N 31°26' E 121°29'642447.3
2017-Feb-14 02:12N 31°58' E 120°25'77118.7
2017-Feb-14 01:33N 31°18' E 121°43'311666.0
2017-Feb-14 01:32N 31°38' E 121°14'5388365986.4
2017-Feb-14 01:31N 49°18' W 123°02'53849692029.1
2017-Feb-14 01:31N 31°20' E 121°39'171249.8
2017-Feb-14 01:30N 31°30' E 121°24'2227.0
2017-Feb-14 01:30N 31°29' E 121°25'1101.5
2017-Feb-14 01:30N 31°30' E 121°25'015.2
2017-Feb-14 01:29N 31°30' E 121°25'5381730.8
2017-Feb-14 01:10N 22°35' E 120°16'5208833.9
2017-Feb-14 01:07N 31°11' E 121°28'72129.5
2017-Feb-14 00:33N 31°58' E 120°25'5311228.3
2017-Feb-14 00:33N 31°33' E 121°20'6669.7
2017-Feb-14 00:33N 31°30' E 121°25'15968.7
2017-Feb-14 00:32N 31°41' E 121°13'15956.7
2017-Feb-14 00:31N 31°30' E 121°24'5388692700.3
2017-Feb-14 00:30N 49°18' W 123°02'5388646568.5
2017-Feb-14 00:30N 31°30' E 121°24'178.6
2017-Feb-14 00:29N 31°30' E 121°25'16119.0
2017-Feb-14 00:21N 31°20' E 121°40'1799.4
2017-Feb-14 00:11N 31°07' E 121°28'53978639.1
2017-Feb-13 23:33N 49°19' W 123°11'53813873990.4
2017-Feb-13 23:33N 31°30' E 121°24'12328.0
2017-Feb-13 23:31N 31°38' E 121°14'131845.5
2017-Feb-13 23:31N 31°30' E 121°25'15821.7
2017-Feb-13 23:30N 31°41' E 121°13'31871.6
2017-Feb-13 23:27N 31°20' E 121°40'16676.9
2017-Feb-13 23:26N 31°30' E 121°25'035.4
2017-Feb-13 23:25N 31°30' E 121°24'53776218.6
2017-Feb-13 22:33N 49°18' W 123°15'5377215080.2
2017-Feb-13 22:32N 31°30' E 121°25'192776.6
2017-Feb-13 22:31N 31°42' E 121°08'4383.0
2017-Feb-13 22:31N 31°41' E 121°13'151427.1
2017-Feb-13 22:30N 31°30' E 121°25'169.7
2017-Feb-13 22:29N 31°30' E 121°24'58656.8
2017-Feb-13 22:24N 31°41' E 122°30'642758.3
2017-Feb-13 22:23N 31°04' E 121°28'26548.9
2017-Feb-13 22:20N 31°30' E 121°24'1 7.8
2017-Feb-13 22:12N 31°30' E 121°23'0 0.2
2017-Feb-13 21:33N 31°30' E 121°23'53761209641.2
2017-Feb-13 21:33N 49°20' W 123°17'5375403158.9
2017-Feb-13 21:32N 31°40' E 121°12'14551.1
2017-Feb-13 21:31N 31°30' E 121°24'11275.5
2017-Feb-13 21:31N 31°30' E 121°25'014.9
2017-Feb-13 21:29N 31°30' E 121°24'0414.0
2017-Feb-13 21:29N 31°30' E 121°25'20123.0
2017-Feb-13 21:19N 31°10' E 121°28'2078.4
2017-Feb-13 21:03N 31°30' E 121°24'0 0.4
2017-Feb-13 20:32N 31°30' E 121°25'199914.1
2017-Feb-13 20:32N 31°42' E 121°08'1967962.8
2017-Feb-13 20:32N 31°30' E 121°24'014.9
2017-Feb-13 20:31N 31°30' E 121°24'138.7
2017-Feb-13 20:30N 31°30' E 121°23'115.1
2017-Feb-13 20:28N 31°30' E 121°23'20321.2
2017-Feb-13 20:24N 31°10' E 121°28'73821.9
2017-Feb-13 20:19N 31°58' E 120°25'3648.1
2017-Feb-13 19:33N 31°45' E 121°04'221391.6
2017-Feb-13 19:32N 31°30' E 121°23'127.0
2017-Feb-13 19:31N 31°30' E 121°24'585639.8
2017-Feb-13 19:30N 31°58' E 120°25'582840.0
2017-Feb-13 19:29N 31°30' E 121°25'0 8.4
2017-Feb-13 19:27N 31°30' E 121°24'0330.5
2017-Feb-13 19:27N 31°30' E 121°25'132.7
2017-Feb-13 19:25N 31°30' E 121°23'20234.9
2017-Feb-13 19:20N 31°10' E 121°28'2126.2
2017-Feb-13 18:32N 31°30' E 121°23'123.7
2017-Feb-13 18:30N 31°30' E 121°25'133.8
2017-Feb-13 18:28N 31°30' E 121°23'5720673.0
2017-Feb-13 18:28N 31°58' E 120°25'5811583.5
2017-Feb-13 18:27N 31°30' E 121°24'037.3
2017-Feb-13 18:27N 31°30' E 121°25'20274.2
2017-Feb-13 18:22N 31°10' E 121°28'442166.3
2017-Feb-13 18:21N 31°46' E 120°60'8512234.5
2017-Feb-13 18:21N 31°17' E 122°33'4798172.0
2017-Feb-13 18:17N 24°18' E 118°10'46421150.0
2017-Feb-13 18:16N 31°30' E 121°24'0 0.4
2017-Feb-13 17:33N 31°30' E 121°25'1431.5
2017-Feb-13 17:33N 31°30' E 121°23'117.0
2017-Feb-13 17:29N 31°30' E 121°25'085.5
2017-Feb-13 17:29N 31°30' E 121°24'1255.2
2017-Feb-13 17:28N 31°30' E 121°23'1 7.8
2017-Feb-13 17:23N 31°30' E 121°24'584018.5
2017-Feb-13 17:22N 31°58' E 120°25'5871.3
2017-Feb-13 16:33N 31°30' E 121°24'115.0
2017-Feb-13 16:30N 31°30' E 121°23'1153.1
2017-Feb-13 16:30N 31°30' E 121°25'0 6.3
2017-Feb-13 16:29N 31°30' E 121°25'153.8
2017-Feb-13 16:28N 31°30' E 121°23'157.1
2017-Feb-13 16:27N 31°30' E 121°24'58241.6
2017-Feb-13 16:12N 31°58' E 120°25'5889.2
2017-Feb-13 15:33N 31°30' E 121°24'581312.9
2017-Feb-13 15:31N 31°58' E 120°25'581739.8
2017-Feb-13 15:29N 31°30' E 121°24'0 8.7
2017-Feb-13 15:27N 31°30' E 121°24'185.5
2017-Feb-13 15:26N 31°30' E 121°25'017.8
2017-Feb-13 15:26N 31°30' E 121°25'1 1.3
2017-Feb-13 14:33N 31°30' E 121°24'1326.5
2017-Feb-13 14:33N 31°30' E 121°24'263911.6
2017-Feb-13 14:33N 31°04' E 121°28'391074.2
2017-Feb-13 14:31N 31°41' E 121°12'16272.2
2017-Feb-13 14:27N 31°30' E 121°25'0 2.2
2017-Feb-13 14:24N 31°30' E 121°25'186.4
2017-Feb-13 14:23N 31°30' E 121°24'0 0.3
2017-Feb-13 13:32N 31°30' E 121°24'10565.3
2017-Feb-13 13:31N 31°37' E 121°16'101150.6
2017-Feb-13 13:31N 31°30' E 121°24'190.8
2017-Feb-13 13:30N 31°30' E 121°25'021.9
2017-Feb-13 13:29N 31°30' E 121°24'0118.6
2017-Feb-13 13:29N 31°30' E 121°25'58184.2
2017-Feb-13 13:10N 31°58' E 120°25'1102978.5
2017-Feb-13 13:08N 31°02' E 122°16'5392.7
2017-Feb-13 12:33N 31°30' E 121°23'41464.4
2017-Feb-13 12:33N 31°33' E 121°20'51202.3
2017-Feb-13 12:33N 31°30' E 121°24'0292.2
2017-Feb-13 12:33N 31°30' E 121°24'504739.7
2017-Feb-13 12:32N 31°02' E 122°13'501100.0
2017-Feb-13 12:30N 31°30' E 121°24'26189.1
2017-Feb-13 12:21N 31°04' E 121°28'26294.8
2017-Feb-13 12:16N 31°30' E 121°25'1 1.4
2017-Feb-13 11:33N 31°30' E 121°24'61421.9
2017-Feb-13 11:33N 31°34' E 121°19'72712.3
2017-Feb-13 11:33N 31°30' E 121°25'171.7
2017-Feb-13 11:32N 31°30' E 121°24'052.7
2017-Feb-13 11:32N 31°30' E 121°25'160.8
2017-Feb-13 11:31N 31°30' E 121°24'26191.6
2017-Feb-13 11:23N 31°04' E 121°28'77242.5
2017-Feb-13 11:04N 31°58' E 120°25'2 4.0
2017-Feb-13 10:33N 31°59' E 120°27'7321929.4
2017-Feb-13 10:33N 31°20' E 121°39'1656395.4
2017-Feb-13 10:33N 31°30' E 121°25'046.9
2017-Feb-13 10:32N 31°30' E 121°24'3610915.5
2017-Feb-13 10:32N 31°07' E 121°57'491791.8
2017-Feb-13 10:31N 31°38' E 121°14'12122.9
2017-Feb-13 10:25N 31°30' E 121°24'019.1
2017-Feb-13 10:24N 31°30' E 121°24'878.6
2017-Feb-13 10:18N 31°25' E 121°31'1216.8
2017-Feb-13 09:33N 31°18' E 121°43'81240.4
2017-Feb-13 09:33N 31°12' E 121°49'443559.2
2017-Feb-13 09:32N 31°41' E 121°10'171156.7
2017-Feb-13 09:31N 31°30' E 121°25'1100.2
2017-Feb-13 09:31N 31°30' E 121°24'017.8
2017-Feb-13 09:30N 31°30' E 121°24'120.5
2017-Feb-13 09:28N 31°30' E 121°24'0 0.1
2017-Feb-13 08:33N 31°30' E 121°24'1914008.0
2017-Feb-13 08:33N 31°18' E 121°43'188.4
2017-Feb-13 08:33N 31°18' E 121°43'402587.7
2017-Feb-13 08:32N 31°43' E 121°07'201302.2
2017-Feb-13 08:31N 31°30' E 121°24'0331.2
2017-Feb-13 08:31N 31°30' E 121°25'133.4
2017-Feb-13 08:29N 31°30' E 121°24'034.7
2017-Feb-13 08:28N 31°30' E 121°23'1617.5
2017-Feb-13 07:33N 31°22' E 121°39'15204.1
2017-Feb-13 07:29N 31°30' E 121°24'098.9
2017-Feb-13 07:29N 31°30' E 121°25'170.8
2017-Feb-13 07:28N 31°30' E 121°24'1314.2
2017-Feb-13 06:33N 31°23' E 121°36'6927717.3
2017-Feb-13 06:33N 31°58' E 120°26'571131.3
2017-Feb-13 06:30N 31°30' E 121°24'0 5.2
2017-Feb-13 06:27N 31°30' E 121°25'176.5
2017-Feb-13 06:26N 31°30' E 121°24'0 5.7
2017-Feb-13 06:24N 31°30' E 121°23'464139309.8
2017-Feb-13 06:24N 24°19' E 118°07'4424221.6
2017-Feb-13 06:17N 31°04' E 121°28'39217.6
2017-Feb-13 06:07N 31°40' E 121°12'10769.6
2017-Feb-13 06:06N 31°47' E 121°03'332210.6
2017-Feb-13 06:05N 31°14' E 121°09'58110.4
2017-Feb-13 05:34N 31°59' E 120°27'489073.9
2017-Feb-13 05:33N 31°37' E 121°17'134319.6
2017-Feb-13 05:33N 31°45' E 121°05'3127858.5
2017-Feb-13 05:33N 31°24' E 121°31'53043395.1
2017-Feb-13 05:32N 22°38' E 120°14'51626515.3
2017-Feb-13 05:31N 31°11' E 121°09'23905.1
2017-Feb-13 05:30N 31°30' E 121°23'189.0
2017-Feb-13 05:29N 31°30' E 121°25'012.5
2017-Feb-13 05:28N 31°30' E 121°24'184399.0
2017-Feb-13 05:27N 31°43' E 121°09'0 9.1
2017-Feb-13 05:26N 31°43' E 121°09'181046.1
2017-Feb-13 05:25N 31°30' E 121°24'4642732.2
2017-Feb-13 05:15N 24°19' E 118°07'464672.6
2017-Feb-13 04:33N 31°30' E 121°22'95273.9
2017-Feb-13 04:33N 31°37' E 121°16'101770.9
2017-Feb-13 04:33N 31°31' E 121°25'102891.1
2017-Feb-13 04:33N 31°38' E 121°16'3394.9
2017-Feb-13 04:32N 31°40' E 121°13'545654512.5
2017-Feb-13 04:32N 22°37' E 120°15'53626817.6
2017-Feb-13 04:31N 31°30' E 121°24'0 9.2
2017-Feb-13 04:29N 31°30' E 121°25'126.2
2017-Feb-13 04:27N 31°30' E 121°23'4649444.7
2017-Feb-13 04:24N 24°19' E 118°07'466557.3
2017-Feb-13 03:34N 31°33' E 121°20'21795.1
2017-Feb-13 03:33N 31°32' E 121°22'53971826.9
2017-Feb-13 03:33N 22°37' E 120°15'15622461.2
2017-Feb-13 03:33N 24°19' E 118°07'468112335.2
2017-Feb-13 03:32N 31°36' E 121°18'8512.3
2017-Feb-13 03:31N 31°30' E 121°23'3381.2
2017-Feb-13 03:31N 31°32' E 121°22'112844.2
2017-Feb-13 03:31N 31°30' E 121°34'8197.9
2017-Feb-13 03:28N 31°30' E 121°25'0 0.1
2017-Feb-13 02:34N 31°30' E 121°25'1712057.5
2017-Feb-13 02:33N 31°21' E 121°41'148600.4
2017-Feb-13 02:33N 31°29' E 121°27'141067.8
2017-Feb-13 02:33N 31°37' E 121°15'152617.1
2017-Feb-13 02:32N 31°33' E 121°31'93993.9
2017-Feb-13 02:32N 31°32' E 121°21'376.4
2017-Feb-13 02:30N 31°30' E 121°24'2265.1
2017-Feb-13 02:29N 31°29' E 121°25'152032.7
2017-Feb-13 02:29N 31°20' E 121°39'5294477.9
2017-Feb-13 02:22N 22°37' E 120°17'537668.0
2017-Feb-13 01:33N 31°30' E 121°24'828908.4
2017-Feb-13 01:33N 31°25' E 121°31'156174.7
2017-Feb-13 01:33N 31°18' E 121°47'223572.2
2017-Feb-13 01:33N 31°29' E 121°25'15418.8
2017-Feb-13 01:31N 31°20' E 121°39'16975.5
2017-Feb-13 01:30N 31°30' E 121°25'113.4
2017-Feb-13 01:27N 31°30' E 121°24'0 4.8
2017-Feb-13 01:21N 31°30' E 121°24'1 1.2
2017-Feb-13 00:33N 31°30' E 121°25'16446.1
2017-Feb-13 00:31N 31°20' E 121°39'1710008.9
2017-Feb-13 00:31N 31°30' E 121°24'0231.6
2017-Feb-13 00:31N 31°30' E 121°24'9323.6
2017-Feb-13 00:29N 31°25' E 121°32'82299.9
2017-Feb-13 00:29N 31°30' E 121°24'777.8
2017-Feb-13 00:24N 31°34' E 121°30'39708.5
2017-Feb-13 00:20N 31°04' E 121°02'3240.4
2017-Feb-12 23:33N 31°28' E 121°25'2175.1
2017-Feb-12 23:33N 31°30' E 121°24'332858.9
2017-Feb-12 23:32N 31°05' E 120°59'5413295243.6
2017-Feb-12 23:31N 49°22' W 123°19'53732149230.0
2017-Feb-12 23:31N 31°30' E 121°25'128.9
2017-Feb-12 23:29N 31°30' E 121°24'0 7.3
2017-Feb-12 23:26N 31°30' E 121°24'983.2
2017-Feb-12 23:20N 31°25' E 121°32'53716402.4
2017-Feb-12 22:30N 49°25' W 123°17'53733223924.8
2017-Feb-12 22:30N 31°30' E 121°24'9961.3
2017-Feb-12 22:29N 31°25' E 121°32'8170.0
2017-Feb-12 22:26N 31°30' E 121°25'1189.1
2017-Feb-12 22:26N 31°28' E 121°25'2127.4
2017-Feb-12 22:25N 31°30' E 121°24'0 6.3
2017-Feb-12 22:21N 31°30' E 121°24'0 0.3
2017-Feb-12 21:34N 31°30' E 121°24'1138.6
2017-Feb-12 21:33N 31°30' E 121°24'224.6
2017-Feb-12 21:29N 31°28' E 121°25'247.1
2017-Feb-12 21:27N 31°30' E 121°24'27474.7
2017-Feb-12 21:23N 31°04' E 121°28'26490.0
2017-Feb-12 21:20N 31°30' E 121°25'4644480.2
2017-Feb-12 21:14N 24°19' E 118°10'5887255318.9
2017-Feb-12 21:12N 49°23' W 123°18'53738188.4
2017-Feb-12 20:33N 31°30' E 121°25'125.2
2017-Feb-12 20:32N 31°30' E 121°24'1254.3
2017-Feb-12 20:32N 31°30' E 121°24'271370.1
2017-Feb-12 20:30N 31°04' E 121°28'251321.2
2017-Feb-12 20:29N 31°28' E 121°25'2238.3
2017-Feb-12 20:29N 31°30' E 121°24'118.0
2017-Feb-12 20:26N 31°30' E 121°24'0 0.1
2017-Feb-12 19:33N 31°30' E 121°24'055.9
2017-Feb-12 19:33N 31°30' E 121°24'11798.2
2017-Feb-12 19:33N 31°28' E 121°25'157.9
2017-Feb-12 19:32N 31°30' E 121°25'130.5
2017-Feb-12 19:30N 31°30' E 121°23'0 3.3
2017-Feb-12 19:24N 31°30' E 121°24'2781.1
2017-Feb-12 19:05N 31°04' E 121°28'2546.8
2017-Feb-12 18:33N 31°28' E 121°25'019.1
2017-Feb-12 18:33N 31°28' E 121°25'21229.2
2017-Feb-12 18:33N 31°30' E 121°23'0 7.1
2017-Feb-12 18:31N 31°30' E 121°24'1120.2
2017-Feb-12 18:30N 31°30' E 121°25'0 4.4
2017-Feb-12 18:26N 31°30' E 121°24'26577.1
2017-Feb-12 18:24N 31°04' E 121°28'2528.3
2017-Feb-12 17:31N 31°28' E 121°25'2232.9
2017-Feb-12 17:31N 31°30' E 121°23'281.9
2017-Feb-12 17:29N 31°28' E 121°25'283.1
2017-Feb-12 17:27N 31°30' E 121°24'16139.2
2017-Feb-12 17:20N 31°41' E 121°11'171132.2
2017-Feb-12 17:20N 31°30' E 121°25'1 1.9
2017-Feb-12 16:33N 31°28' E 121°25'2453.3
2017-Feb-12 16:33N 31°30' E 121°24'102877.2
2017-Feb-12 16:33N 31°37' E 121°16'10778.1
2017-Feb-12 16:32N 31°30' E 121°24'140.7
2017-Feb-12 16:31N 31°30' E 121°25'145.1
2017-Feb-12 16:30N 31°30' E 121°23'222.9
2017-Feb-12 16:23N 31°28' E 121°25'1133.8
2017-Feb-12 16:05N 31°23' E 121°36'1324.6
2017-Feb-12 15:33N 31°30' E 121°24'22076.6
2017-Feb-12 15:33N 31°28' E 121°25'5525.2
2017-Feb-12 15:33N 31°33' E 121°21'3236.2
2017-Feb-12 15:32N 31°30' E 121°23'18817.7
2017-Feb-12 15:30N 31°20' E 121°41'16140.9
2017-Feb-12 15:24N 31°28' E 121°25'124.6
2017-Feb-12 15:20N 31°30' E 121°25'26129.3
2017-Feb-12 15:08N 31°04' E 121°28'1933.6
2017-Feb-12 14:33N 31°14' E 121°48'247170.1
2017-Feb-12 14:33N 31°28' E 121°25'87273.1
2017-Feb-12 14:33N 31°34' E 121°18'8481.9
2017-Feb-12 14:32N 31°30' E 121°26'2126.2
2017-Feb-12 14:31N 31°30' E 121°24'1171.7
2017-Feb-12 14:31N 31°30' E 121°25'118.2
2017-Feb-12 14:26N 31°28' E 121°25'1718.8
2017-Feb-12 13:32N 31°40' E 121°11'165612.7
2017-Feb-12 13:32N 31°30' E 121°25'333581.7
2017-Feb-12 13:31N 31°09' E 121°55'342137.1
2017-Feb-12 13:31N 31°30' E 121°24'2593.4
2017-Feb-12 13:30N 31°28' E 121°25'0463.3
2017-Feb-12 13:30N 31°28' E 121°25'2103.8
2017-Feb-12 13:29N 31°29' E 121°24'26492.7
2017-Feb-12 13:26N 31°04' E 121°28'0 0.0
2017-Feb-12 12:33N 31°04' E 121°28'276092.7
2017-Feb-12 12:33N 31°06' E 121°60'441152.7
2017-Feb-12 12:30N 31°33' E 121°20'4223.0
2017-Feb-12 12:29N 31°30' E 121°24'228.0
2017-Feb-12 12:24N 31°28' E 121°25'0 1.9
2017-Feb-12 12:20N 31°28' E 121°25'1468.7
2017-Feb-12 12:20N 31°30' E 121°25'1 1.3
2017-Feb-12 11:32N 31°30' E 121°24'2103.4
2017-Feb-12 11:30N 31°28' E 121°25'0 4.4
2017-Feb-12 11:28N 31°28' E 121°25'124.8
2017-Feb-12 11:25N 31°30' E 121°25'0 0.1
2017-Feb-12 10:33N 31°30' E 121°25'116.7
2017-Feb-12 10:30N 31°30' E 121°24'292.7
2017-Feb-12 10:28N 31°28' E 121°25'1151.0
2017-Feb-12 10:15N 31°19' E 121°34'1185.9
2017-Feb-12 10:07N 31°28' E 121°25'1 2.5
2017-Feb-12 09:33N 31°30' E 121°25'1157.1
2017-Feb-12 09:32N 31°30' E 121°24'2220.4
2017-Feb-12 09:32N 31°28' E 121°25'0 1.1
2017-Feb-12 09:25N 31°28' E 121°25'1113.2
2017-Feb-12 08:33N 31°19' E 121°34'304739.5
2017-Feb-12 08:33N 31°42' E 121°10'17403.4
2017-Feb-12 08:30N 31°30' E 121°24'175.3
2017-Feb-12 08:30N 31°30' E 121°24'113.7
2017-Feb-12 08:25N 31°30' E 121°25'26197.2
2017-Feb-12 08:17N 31°04' E 121°28'1981.3
2017-Feb-12 08:03N 31°20' E 121°40'2447.3
2017-Feb-12 07:33N 31°35' E 121°18'8337.6
2017-Feb-12 07:32N 31°30' E 121°25'0 2.1
2017-Feb-12 07:24N 31°30' E 121°24'238.5
2017-Feb-12 07:21N 31°28' E 121°25'215.5
2017-Feb-12 07:12N 31°30' E 121°23'  
Track history (hours):
 
Tides and Currents Weather Stations Pressure Air Temp Water Temp Dewpoint Dewpoint Depression Visibility Wind Speed Wind Dir Waves Ship Positions

Callsign 000000 (name unknown)

Last reported at 2017-Feb-22 06:33 UTC. Time now 2017-Feb-22 06:37 UTC.
Position N 31°30' E 121°23'.

Type: Fishing. MMSI: 200007452.

Date/timePositionNaut miles runAvg speedWind from/ knotsBaromVisibWave heightAir tempDewpointWater temp
2017-Feb-22 06:33N 31°30' E 121°23'16225.2
2017-Feb-22 06:29N 31°41' E 121°11'6174.2
2017-Feb-22 06:27N 31°38' E 121°17'515.9
2017-Feb-22 06:08N 31°41' E 121°12'1525.0
2017-Feb-22 05:32N 31°30' E 121°23'162093.7
2017-Feb-22 05:31N 31°41' E 121°11'6131.8
2017-Feb-22 05:29N 31°38' E 121°17'49503.8
2017-Feb-22 05:23N 31°58' E 120°25'4413106.3
2017-Feb-22 05:23N 31°41' E 121°12'1518.0
2017-Feb-22 04:33N 31°30' E 121°23'10197.2
2017-Feb-22 04:30N 31°38' E 121°17'11383.1
2017-Feb-22 04:28N 31°30' E 121°24'165343.3
2017-Feb-22 04:28N 31°41' E 121°11'1109.1
2017-Feb-22 04:28N 31°41' E 121°12'1516.3
2017-Feb-22 03:33N 31°30' E 121°23'16471.1
2017-Feb-22 03:31N 31°41' E 121°11'1452.0
2017-Feb-22 03:31N 31°41' E 121°12'5130.3
2017-Feb-22 03:29N 31°38' E 121°17'0 0.1
2017-Feb-22 02:33N 31°38' E 121°17'10618.6
2017-Feb-22 02:32N 31°30' E 121°23'16649.8
2017-Feb-22 02:30N 31°41' E 121°11'154.8
2017-Feb-22 02:30N 31°41' E 121°12'32228.0
2017-Feb-22 02:21N 31°21' E 121°41'730.3
2017-Feb-22 02:08N 31°19' E 121°34'14216.9
2017-Feb-22 02:04N 31°05' E 121°28'1934.9
2017-Feb-22 01:32N 31°21' E 121°41'17697.8
2017-Feb-22 01:30N 31°30' E 121°23'162338.1
2017-Feb-22 01:30N 31°16' E 121°33'327630.8
2017-Feb-22 01:30N 31°41' E 121°11'37714.7
2017-Feb-22 01:27N 31°07' E 121°28'332140.7
2017-Feb-22 01:26N 31°38' E 121°17'5138.7
2017-Feb-22 01:24N 31°41' E 121°12'1 1.1
2017-Feb-22 00:33N 31°41' E 121°11'165.7
2017-Feb-22 00:33N 31°41' E 121°12'5489.5
2017-Feb-22 00:32N 31°38' E 121°17'262712.5
2017-Feb-22 00:31N 31°21' E 121°41'1570.8
2017-Feb-22 00:19N 31°11' E 121°28'34580.6
2017-Feb-22 00:15N 31°42' E 121°10'342719.2
2017-Feb-22 00:15N 31°11' E 121°29'19783.2
2017-Feb-22 00:13N 31°30' E 121°23'1623.0
2017-Feb-21 23:32N 31°41' E 121°11'6617.5
2017-Feb-21 23:32N 31°38' E 121°17'11593.8
2017-Feb-21 23:31N 31°30' E 121°24'16774.7
2017-Feb-21 23:29N 31°21' E 121°41'121246.2
2017-Feb-21 23:29N 31°13' E 121°30'17234.3
2017-Feb-21 23:24N 31°30' E 121°23'15129.9
2017-Feb-21 23:18N 31°41' E 121°12'3142.8
2017-Feb-21 22:33N 31°21' E 121°41'101545.4
2017-Feb-21 22:33N 31°15' E 121°31'318465.1
2017-Feb-21 22:33N 31°41' E 121°12'176.5
2017-Feb-21 22:32N 31°41' E 121°11'6112.3
2017-Feb-21 22:29N 31°38' E 121°17'1093.1
2017-Feb-21 22:22N 31°30' E 121°23'0 0.0
2017-Feb-21 21:33N 31°30' E 121°23'10279.0
2017-Feb-21 21:31N 31°38' E 121°17'51556.4
2017-Feb-21 21:31N 31°41' E 121°12'316932.4
2017-Feb-21 21:31N 31°16' E 121°34'81301.9
2017-Feb-21 21:30N 31°21' E 121°41'32459.4
2017-Feb-21 21:26N 31°41' E 121°11'1 0.9
2017-Feb-21 20:32N 31°41' E 121°12'518666.4
2017-Feb-21 20:32N 31°38' E 121°17'10246.8
2017-Feb-21 20:29N 31°30' E 121°23'16404.4
2017-Feb-21 20:27N 31°41' E 121°11'1242.1
2017-Feb-21 20:09N 31°32' E 121°20'53654.9
2017-Feb-21 20:05N 31°59' E 120°27'5093.9
2017-Feb-21 19:32N 31°34' E 121°18'4395.9
2017-Feb-21 19:32N 31°38' E 121°17'572.8
2017-Feb-21 19:27N 31°41' E 121°12'154469.4
2017-Feb-21 19:27N 31°30' E 121°23'162572.5
2017-Feb-21 19:27N 31°41' E 121°11'5 5.6
2017-Feb-21 18:32N 31°38' E 121°15'2188.2
2017-Feb-21 18:32N 31°38' E 121°17'61200.0
2017-Feb-21 18:31N 31°42' E 121°11'141.0
2017-Feb-21 18:30N 31°41' E 121°12'1575.2
2017-Feb-21 18:18N 31°30' E 121°23'1519.5
2017-Feb-21 17:32N 31°41' E 121°12'5585.0
2017-Feb-21 17:32N 31°38' E 121°17'661.1
2017-Feb-21 17:26N 31°42' E 121°11'16148.2
2017-Feb-21 17:19N 31°30' E 121°23'637.1
2017-Feb-21 17:09N 31°26' E 121°29'3 4.5
2017-Feb-21 16:33N 31°28' E 121°27'197650.2
2017-Feb-21 16:33N 31°42' E 121°11'6239.1
2017-Feb-21 16:32N 31°38' E 121°17'5327.3
2017-Feb-21 16:31N 31°41' E 121°12'153370.8
2017-Feb-21 16:30N 31°30' E 121°23'56216.8
2017-Feb-21 16:15N 31°59' E 120°27'4767.5
2017-Feb-21 15:33N 31°38' E 121°17'101726.1
2017-Feb-21 15:33N 31°30' E 121°23'1573.4
2017-Feb-21 15:20N 31°42' E 121°11'1 7.7
2017-Feb-21 15:13N 31°41' E 121°12'44661.9
2017-Feb-21 15:09N 31°58' E 120°25'4471.4
2017-Feb-21 14:33N 31°41' E 121°12'5262.8
2017-Feb-21 14:32N 31°38' E 121°17'656.6
2017-Feb-21 14:25N 31°42' E 121°11'6 6.8
2017-Feb-21 13:32N 31°38' E 121°17'261185.0
2017-Feb-21 13:31N 31°15' E 121°29'30933.9
2017-Feb-21 13:29N 31°41' E 121°12'110.4
2017-Feb-21 13:24N 31°42' E 121°11'1680.3
2017-Feb-21 13:12N 31°30' E 121°23'1015.2
2017-Feb-21 12:32N 31°38' E 121°17'5455.0
2017-Feb-21 12:31N 31°41' E 121°12'134.5
2017-Feb-21 12:30N 31°41' E 121°11'41460.7
2017-Feb-21 12:25N 31°59' E 120°27'568774.8
2017-Feb-21 12:24N 31°30' E 121°23'1517.3
2017-Feb-21 11:32N 31°41' E 121°12'51696.9
2017-Feb-21 11:32N 31°38' E 121°17'443.7
2017-Feb-21 11:26N 31°40' E 121°12'14389.7
2017-Feb-21 11:24N 31°30' E 121°23'16581.9
2017-Feb-21 11:22N 31°41' E 121°11'6 7.7
2017-Feb-21 10:33N 31°37' E 121°16'6337.0
2017-Feb-21 10:32N 31°41' E 121°11'1614251.9
2017-Feb-21 10:32N 31°30' E 121°23'109222.5
2017-Feb-21 10:32N 31°38' E 121°17'541.1
2017-Feb-21 10:25N 31°41' E 121°12'5 6.1
2017-Feb-21 09:33N 31°38' E 121°17'5584.4
2017-Feb-21 09:33N 31°34' E 121°20'5121.2
2017-Feb-21 09:30N 31°30' E 121°23'15244.0
2017-Feb-21 09:27N 31°41' E 121°12'115.9
2017-Feb-21 09:23N 31°41' E 121°11'1618.1
2017-Feb-21 08:32N 31°31' E 121°24'2471.7
2017-Feb-21 08:32N 31°30' E 121°23'16429.2
2017-Feb-21 08:29N 31°41' E 121°11'6111.8
2017-Feb-21 08:26N 31°38' E 121°17'5578.0
2017-Feb-21 08:26N 31°41' E 121°12'44681.2
2017-Feb-21 08:22N 31°58' E 120°25'4353.3
2017-Feb-21 07:33N 31°41' E 121°11'6252.1
2017-Feb-21 07:32N 31°38' E 121°17'5128.4
2017-Feb-21 07:30N 31°41' E 121°12'1546.6
2017-Feb-21 07:10N 31°30' E 121°23'1624.7
2017-Feb-21 06:32N 31°41' E 121°11'130.9
2017-Feb-21 06:31N 31°41' E 121°12'5159.4
2017-Feb-21 06:29N 31°38' E 121°17'1010.7
2017-Feb-21 05:32N 31°30' E 121°23'103666.9
2017-Feb-21 05:32N 31°38' E 121°17'552.6
2017-Feb-21 05:26N 31°41' E 121°12'111.5
2017-Feb-21 05:21N 31°41' E 121°11'1619.9
2017-Feb-21 04:34N 31°30' E 121°23'10322.0
2017-Feb-21 04:32N 31°38' E 121°17'5177.5
2017-Feb-21 04:30N 31°41' E 121°12'111.1
2017-Feb-21 04:25N 31°41' E 121°11'31171.1
2017-Feb-21 04:14N 31°15' E 121°30'3143.4
2017-Feb-21 03:31N 31°41' E 121°11'6378.2
2017-Feb-21 03:30N 31°37' E 121°16'10190.8
2017-Feb-21 03:27N 31°30' E 121°23'103061.9
2017-Feb-21 03:27N 31°38' E 121°17'5259.6
2017-Feb-21 03:26N 31°41' E 121°12'5 5.9
2017-Feb-21 02:33N 31°38' E 121°17'51974.0
2017-Feb-21 02:33N 31°33' E 121°20'11622.1
2017-Feb-21 02:32N 31°41' E 121°11'119.8
2017-Feb-21 02:30N 31°41' E 121°12'15110.1
2017-Feb-21 02:21N 31°30' E 121°23'20203.6
2017-Feb-21 02:16N 31°44' E 121°07'2028.6
2017-Feb-21 01:33N 31°30' E 121°23'102830.6
2017-Feb-21 01:33N 31°38' E 121°17'5926.9
2017-Feb-21 01:33N 31°41' E 121°12'0 5.0
2017-Feb-21 01:30N 31°41' E 121°12'652.9
2017-Feb-21 01:22N 31°36' E 121°17'73260.1
2017-Feb-21 01:22N 31°41' E 121°11'0 0.0
2017-Feb-21 00:33N 31°41' E 121°11'67218.9
2017-Feb-21 00:33N 31°38' E 121°17'3142.1
2017-Feb-21 00:31N 31°36' E 121°18'7223.0
2017-Feb-21 00:29N 31°30' E 121°23'15245.0
2017-Feb-21 00:26N 31°41' E 121°12'1516.5
2017-Feb-20 23:33N 31°30' E 121°23'10413.8
2017-Feb-20 23:31N 31°38' E 121°17'10379.5
2017-Feb-20 23:30N 31°30' E 121°23'16381.6
2017-Feb-20 23:27N 31°41' E 121°11'1617.5
2017-Feb-20 22:33N 31°30' E 121°23'2303.4
2017-Feb-20 22:33N 31°28' E 121°25'18742.0
2017-Feb-20 22:31N 31°41' E 121°11'6264.0
2017-Feb-20 22:30N 31°38' E 121°17'6 6.3
2017-Feb-20 21:33N 31°41' E 121°11'18470.8
2017-Feb-20 21:31N 31°28' E 121°25'2246.5
2017-Feb-20 21:31N 31°30' E 121°23'10632.5
2017-Feb-20 21:30N 31°38' E 121°17'1213.0
2017-Feb-20 20:33N 31°28' E 121°25'2464.0
2017-Feb-20 20:33N 31°30' E 121°23'16514.4
2017-Feb-20 20:31N 31°41' E 121°11'3069.0
2017-Feb-20 20:05N 31°23' E 121°38'0 0.0
2017-Feb-20 19:32N 31°23' E 121°38'13495.8
2017-Feb-20 19:31N 31°28' E 121°25'12388.9
2017-Feb-20 19:29N 31°38' E 121°17'10237.0
2017-Feb-20 19:27N 31°30' E 121°23'16170.4
2017-Feb-20 19:21N 31°41' E 121°11'1619.9
2017-Feb-20 18:33N 31°30' E 121°23'2262.9
2017-Feb-20 18:33N 31°28' E 121°25'181649.7
2017-Feb-20 18:32N 31°41' E 121°11'6288.8
2017-Feb-20 18:31N 31°38' E 121°17'243601.5
2017-Feb-20 18:31N 31°23' E 121°39'1313.1
2017-Feb-20 17:33N 31°28' E 121°25'603464.0
2017-Feb-20 17:32N 31°58' E 120°25'492019.6
2017-Feb-20 17:30N 31°38' E 121°17'61804.7
2017-Feb-20 17:30N 31°41' E 121°11'306741.3
2017-Feb-20 17:30N 31°23' E 121°39'15137.4
2017-Feb-20 17:23N 31°30' E 121°23'1618.8
2017-Feb-20 16:33N 31°41' E 121°11'164076.1
2017-Feb-20 16:33N 31°29' E 121°23'89181.9
2017-Feb-20 16:33N 31°25' E 121°31'71742.3
2017-Feb-20 16:33N 31°22' E 121°38'722995.4
2017-Feb-20 16:31N 31°58' E 120°25'571203.1
2017-Feb-20 16:29N 31°30' E 121°23'10243.1
2017-Feb-20 16:26N 31°38' E 121°17'1112.1
2017-Feb-20 15:33N 31°29' E 121°24'725838.7
2017-Feb-20 15:33N 31°25' E 121°31'186317.2
2017-Feb-20 15:33N 31°38' E 121°17'492019.6
2017-Feb-20 15:32N 31°58' E 120°25'438566.6
2017-Feb-20 15:32N 31°41' E 121°11'1694.8
2017-Feb-20 15:22N 31°30' E 121°23'0 9.7
2017-Feb-20 15:20N 31°29' E 121°23'1 1.0
2017-Feb-20 14:33N 31°30' E 121°24'102905.4
2017-Feb-20 14:33N 31°38' E 121°17'10368.3
2017-Feb-20 14:32N 31°30' E 121°22'15635.1
2017-Feb-20 14:30N 31°41' E 121°11'431542.1
2017-Feb-20 14:29N 31°58' E 120°25'57246.9
2017-Feb-20 14:15N 31°30' E 121°23'0 3.4
2017-Feb-20 14:10N 31°29' E 121°23'6 9.6
2017-Feb-20 13:33N 31°34' E 121°19'521886.2
2017-Feb-20 13:32N 31°58' E 120°25'4315420.7
2017-Feb-20 13:31N 31°41' E 121°11'16785.0
2017-Feb-20 13:30N 31°29' E 121°23'128.3
2017-Feb-20 13:29N 31°30' E 121°22'91709.9
2017-Feb-20 13:28N 31°38' E 121°17'1051.0
2017-Feb-20 13:16N 31°30' E 121°23'0 0.0
2017-Feb-20 12:33N 31°30' E 121°23'181126.7
2017-Feb-20 12:32N 31°42' E 121°09'417679.5
2017-Feb-20 12:32N 31°58' E 120°25'57203915.8
2017-Feb-20 12:32N 31°30' E 121°22'15946.8
2017-Feb-20 12:31N 31°41' E 121°11'4558.9
2017-Feb-20 12:30N 31°38' E 121°14'12512.5
2017-Feb-20 12:29N 31°29' E 121°23'1112.0
2017-Feb-20 11:33N 31°38' E 121°15'1183.9
2017-Feb-20 11:33N 31°38' E 121°14'414834.0
2017-Feb-20 11:33N 31°41' E 121°11'468105332.2
2017-Feb-20 11:33N 24°21' E 118°10'47225001.1
2017-Feb-20 11:32N 31°58' E 120°25'5767971.9
2017-Feb-20 11:32N 31°30' E 121°22'101069.9
2017-Feb-20 11:31N 31°38' E 121°17'10473.8
2017-Feb-20 11:30N 31°30' E 121°23'0 3.0
2017-Feb-20 11:24N 31°29' E 121°23'460538.0
2017-Feb-20 10:33N 24°25' E 118°04'46272298.5
2017-Feb-20 10:33N 31°33' E 121°20'94856.1
2017-Feb-20 10:33N 31°40' E 121°13'4440.8
2017-Feb-20 10:32N 31°38' E 121°17'498366.3
2017-Feb-20 10:32N 31°58' E 120°25'5714565.4
2017-Feb-20 10:32N 31°30' E 121°22'122.0
2017-Feb-20 10:29N 31°30' E 121°23'16859.1
2017-Feb-20 10:28N 31°41' E 121°11'16130.9
2017-Feb-20 10:21N 31°29' E 121°23'1012.8
2017-Feb-20 09:33N 31°38' E 121°17'12979.9
2017-Feb-20 09:33N 31°29' E 121°27'32094.6
2017-Feb-20 09:32N 31°30' E 121°23'46335457.4
2017-Feb-20 09:32N 24°24' E 117°57'46310677.1
2017-Feb-20 09:29N 31°29' E 121°23'141237.8
2017-Feb-20 09:28N 31°40' E 121°13'257.4
2017-Feb-20 09:26N 31°41' E 121°11'435139.4
2017-Feb-20 09:26N 31°58' E 120°25'5720393.8
2017-Feb-20 09:26N 31°30' E 121°22'1010.9
2017-Feb-20 08:33N 31°38' E 121°17'10546.7
2017-Feb-20 08:32N 31°29' E 121°23'5725823.5
2017-Feb-20 08:32N 31°58' E 120°25'5725863.3
2017-Feb-20 08:32N 31°30' E 121°23'463833249.9
2017-Feb-20 08:32N 24°24' E 117°57'47013858.4
2017-Feb-20 08:30N 31°41' E 121°11'15885.3
2017-Feb-20 08:29N 31°30' E 121°22'10104.2
2017-Feb-20 08:23N 31°24' E 121°33'1011.8
2017-Feb-20 07:33N 31°29' E 121°23'014.0
2017-Feb-20 07:32N 31°30' E 121°23'1311421.8
2017-Feb-20 07:32N 31°22' E 121°35'7012021.8
2017-Feb-20 07:32N 31°58' E 120°25'57277.5
2017-Feb-20 07:20N 31°30' E 121°22'15293.3
2017-Feb-20 07:17N 31°41' E 121°11'6139.8
2017-Feb-20 07:14N 31°38' E 121°17'1014.5
2017-Feb-20 06:32N 31°29' E 121°23'5751649.6
2017-Feb-20 06:32N 31°58' E 120°25'4910335.9
2017-Feb-20 06:32N 31°38' E 121°17'221829.3
2017-Feb-20 06:31N 31°22' E 121°35'131235.1
2017-Feb-20 06:30N 31°30' E 121°23'169427.1
2017-Feb-20 06:30N 31°41' E 121°11'15580.7
2017-Feb-20 06:29N 31°30' E 121°22'1333.5
2017-Feb-20 06:05N 31°40' E 121°13'1425.5
2017-Feb-20 05:33N 31°29' E 121°23'0476.6
2017-Feb-20 05:33N 31°30' E 121°23'144126.3
2017-Feb-20 05:33N 31°40' E 121°13'453047.2
2017-Feb-20 05:32N 31°58' E 120°25'579271.4
2017-Feb-20 05:32N 31°30' E 121°22'10979.8
2017-Feb-20 05:31N 31°38' E 121°17'6314.0
2017-Feb-20 05:30N 31°41' E 121°11'288467.0
2017-Feb-20 05:30N 31°22' E 121°35'7073.0
2017-Feb-20 04:32N 31°58' E 120°25'577843.8
2017-Feb-20 04:32N 31°30' E 121°22'1115.9
2017-Feb-20 04:31N 31°29' E 121°23'0939.6
2017-Feb-20 04:31N 31°30' E 121°23'131207.2
2017-Feb-20 04:31N 31°22' E 121°35'26370.1
2017-Feb-20 04:26N 31°40' E 121°13'2 7.0
2017-Feb-20 04:08N 31°41' E 121°11'610.3
2017-Feb-20 03:33N 31°38' E 121°17'4212.9
2017-Feb-20 03:32N 31°40' E 121°13'131382.9
2017-Feb-20 03:32N 31°30' E 121°22'571341.8
2017-Feb-20 03:29N 31°58' E 120°25'573501.7
2017-Feb-20 03:28N 31°29' E 121°23'131246.9
2017-Feb-20 03:27N 31°22' E 121°35'13395.5
2017-Feb-20 03:26N 31°30' E 121°23'163142.4
2017-Feb-20 03:25N 31°41' E 121°11'4348.4
2017-Feb-20 02:32N 31°58' E 120°25'707656.4
2017-Feb-20 02:32N 31°22' E 121°35'261138.4
2017-Feb-20 02:30N 31°40' E 121°13'1449498.9
2017-Feb-20 02:30N 31°30' E 121°23'10347.4
2017-Feb-20 02:28N 31°38' E 121°17'10141.3
2017-Feb-20 02:24N 31°29' E 121°23'162833.6
2017-Feb-20 02:24N 31°41' E 121°11'15784.4
2017-Feb-20 02:23N 31°30' E 121°22'1415.9
2017-Feb-20 01:32N 31°22' E 121°35'261137.3
2017-Feb-20 01:30N 31°40' E 121°13'4124.7
2017-Feb-20 01:28N 31°38' E 121°17'6193.4
2017-Feb-20 01:26N 31°41' E 121°11'16379.4
2017-Feb-20 01:24N 31°29' E 121°23'541689.2
2017-Feb-20 01:22N 31°57' E 120°28'397.0
2017-Feb-20 01:20N 31°58' E 120°25'581005.4
2017-Feb-20 01:17N 31°29' E 121°23'1 8.7
2017-Feb-20 01:11N 31°30' E 121°22'5585.6
2017-Feb-20 00:32N 31°58' E 120°27'4784338.2
2017-Feb-20 00:32N 31°38' E 121°17'10227.3
2017-Feb-20 00:30N 31°30' E 121°24'164.2
2017-Feb-20 00:29N 31°30' E 121°22'231505.0
2017-Feb-20 00:28N 31°12' E 121°39'11609.2
2017-Feb-20 00:27N 31°22' E 121°35'133078.2
2017-Feb-20 00:26N 31°29' E 121°23'16856.8
2017-Feb-20 00:25N 31°41' E 121°11'23786.8
2017-Feb-20 00:25N 31°40' E 121°13'2 2.4
2017-Feb-19 23:33N 31°41' E 121°11'432965.4
2017-Feb-19 23:32N 31°58' E 120°25'705157.3
2017-Feb-19 23:31N 31°22' E 121°35'132718.6
2017-Feb-19 23:31N 31°30' E 121°24'107119.8
2017-Feb-19 23:31N 31°38' E 121°17'10563.8
2017-Feb-19 23:30N 31°29' E 121°23'14509.3
2017-Feb-19 23:28N 31°40' E 121°13'4 4.2
2017-Feb-19 22:33N 31°38' E 121°17'102232.4
2017-Feb-19 22:33N 31°30' E 121°24'575739.9
2017-Feb-19 22:32N 31°58' E 120°25'577647.1
2017-Feb-19 22:32N 31°29' E 121°23'143301.9
2017-Feb-19 22:32N 31°40' E 121°13'1315672.5
2017-Feb-19 22:32N 31°30' E 121°22'14305.2
2017-Feb-19 22:29N 31°22' E 121°35'1187.3
2017-Feb-19 22:22N 31°12' E 121°39'38311.0
2017-Feb-19 22:14N 31°41' E 121°11'0 0.1
2017-Feb-19 21:33N 31°41' E 121°11'377914.7
2017-Feb-19 21:33N 31°06' E 120°56'386171.2
2017-Feb-19 21:33N 31°12' E 121°39'368113.5
2017-Feb-19 21:32N 31°40' E 121°13'472.6
2017-Feb-19 21:29N 31°38' E 121°17'22586.8
2017-Feb-19 21:27N 31°22' E 121°35'707893.5
2017-Feb-19 21:26N 31°58' E 120°25'5741331.5
2017-Feb-19 21:26N 31°30' E 121°24'1771.2
2017-Feb-19 21:12N 31°14' E 121°30'71107.9
2017-Feb-19 20:32N 31°58' E 120°25'571987.4
2017-Feb-19 20:31N 31°30' E 121°23'13369.2
2017-Feb-19 20:29N 31°40' E 121°13'36129882.7
2017-Feb-19 20:29N 31°12' E 121°39'382143.7
2017-Feb-19 20:27N 31°41' E 121°11'282554.1
2017-Feb-19 20:27N 31°22' E 121°35'13514.1
2017-Feb-19 20:25N 31°30' E 121°24'103264.1
2017-Feb-19 20:25N 31°38' E 121°17'1099.8
2017-Feb-19 20:19N 31°29' E 121°23'464605.3
2017-Feb-19 19:33N 24°19' E 118°08'46297735.4
2017-Feb-19 19:33N 31°22' E 121°35'13645.2
2017-Feb-19 19:31N 31°30' E 121°24'141190.1
2017-Feb-19 19:31N 31°40' E 121°13'368117.7
2017-Feb-19 19:31N 31°12' E 121°39'22811.0
2017-Feb-19 19:29N 31°29' E 121°23'1090.4
2017-Feb-19 19:22N 31°38' E 121°17'658.9
2017-Feb-19 19:16N 31°41' E 121°11'1520.2
2017-Feb-19 18:31N 31°30' E 121°23'1865.4
2017-Feb-19 18:31N 31°30' E 121°24'161004.6
2017-Feb-19 18:30N 31°41' E 121°11'61807.5
2017-Feb-19 18:29N 31°38' E 121°17'46926372.4
2017-Feb-19 18:28N 24°24' E 117°57'47315059.7
2017-Feb-19 18:26N 31°58' E 120°25'7935394.3
2017-Feb-19 18:26N 31°12' E 121°39'36475.8
2017-Feb-19 18:22N 31°40' E 121°13'2647190.1
2017-Feb-19 18:22N 31°22' E 121°35'13155.7
2017-Feb-19 18:17N 31°29' E 121°23'1014.1
2017-Feb-19 17:33N 31°38' E 121°17'494503.1
2017-Feb-19 17:33N 31°58' E 120°25'43154094.4
2017-Feb-19 17:33N 31°41' E 121°11'2825425.6
2017-Feb-19 17:32N 31°22' E 121°35'13436.4
2017-Feb-19 17:31N 31°30' E 121°23'116.7
2017-Feb-19 17:29N 31°29' E 121°23'141055.8
2017-Feb-19 17:28N 31°40' E 121°13'144092.4
2017-Feb-19 17:28N 31°30' E 121°24'22546.2
2017-Feb-19 17:25N 31°12' E 121°39'382901.9
2017-Feb-19 17:24N 31°41' E 121°11'4695503.2
2017-Feb-19 17:19N 24°24' E 117°57'453591.1
2017-Feb-19 16:33N 31°12' E 121°39'226689.3
2017-Feb-19 16:33N 31°29' E 121°23'144133.6
2017-Feb-19 16:33N 31°40' E 121°13'141583.6
2017-Feb-19 16:32N 31°30' E 121°24'101196.2
2017-Feb-19 16:32N 31°38' E 121°17'2280531.6
2017-Feb-19 16:32N 31°22' E 121°35'243043.9
2017-Feb-19 16:31N 31°38' E 121°15'53288.9
2017-Feb-19 16:31N 31°41' E 121°11'470563669.8
2017-Feb-19 16:31N 24°24' E 117°57'46339686.1
2017-Feb-19 16:31N 31°30' E 121°23'44115.5
2017-Feb-19 16:08N 31°03' E 122°04'4 7.2
2017-Feb-19 15:34N 31°05' E 121°60'465172.4
2017-Feb-19 15:33N 31°35' E 121°19'7414.5
2017-Feb-19 15:32N 31°40' E 121°13'4219.8
2017-Feb-19 15:31N 31°38' E 121°17'103478.5
2017-Feb-19 15:31N 31°30' E 121°23'131187.6
2017-Feb-19 15:30N 31°24' E 121°36'12732.6
2017-Feb-19 15:29N 31°29' E 121°23'115.8
2017-Feb-19 15:26N 31°30' E 121°24'162008.6
2017-Feb-19 15:26N 31°41' E 121°11'38855.8
2017-Feb-19 15:23N 31°12' E 121°39'4534036.4
2017-Feb-19 15:16N 24°24' E 117°57'456637.8
2017-Feb-19 14:34N 31°10' E 121°52'3238890.2
2017-Feb-19 14:33N 31°31' E 121°23'131.2
2017-Feb-19 14:31N 31°30' E 121°23'131083.5
2017-Feb-19 14:30N 31°40' E 121°13'21860.3
2017-Feb-19 14:30N 31°41' E 121°11'166252.4
2017-Feb-19 14:30N 31°30' E 121°24'10443.5
2017-Feb-19 14:28N 31°38' E 121°17'22830.8
2017-Feb-19 14:27N 31°24' E 121°36'12930.8
2017-Feb-19 14:26N 31°29' E 121°23'46343830.3
2017-Feb-19 14:25N 24°24' E 117°57'4538194.6
2017-Feb-19 14:22N 31°12' E 121°39'6 7.7
2017-Feb-19 13:34N 31°16' E 121°45'6971.7
2017-Feb-19 13:33N 31°12' E 121°39'121198.0
2017-Feb-19 13:33N 31°24' E 121°36'85510.7
2017-Feb-19 13:32N 31°28' E 121°28'564.7
2017-Feb-19 13:28N 31°30' E 121°23'153.5
2017-Feb-19 13:27N 31°29' E 121°23'1 6.0
2017-Feb-19 13:20N 31°30' E 121°24'10238.3
2017-Feb-19 13:17N 31°38' E 121°17'41773.7
2017-Feb-19 13:17N 31°40' E 121°13'46944465.3
2017-Feb-19 13:16N 24°24' E 117°57'47014211.3
2017-Feb-19 13:14N 31°41' E 121°11'3044.7
2017-Feb-19 12:34N 31°21' E 121°38'3178.7
2017-Feb-19 12:33N 31°24' E 121°36'55881.4
2017-Feb-19 12:33N 31°23' E 121°30'235800.1
2017-Feb-19 12:32N 31°40' E 121°13'1449011.1
2017-Feb-19 12:32N 31°30' E 121°24'226745.5
2017-Feb-19 12:32N 31°12' E 121°39'226176.0
2017-Feb-19 12:32N 31°29' E 121°23'10278.4
2017-Feb-19 12:30N 31°38' E 121°17'4696467.0
2017-Feb-19 12:25N 24°24' E 117°57'46342737.9
2017-Feb-19 12:25N 31°30' E 121°23'152115.4
2017-Feb-19 12:24N 31°41' E 121°11'1 4.5
2017-Feb-19 12:16N 31°42' E 121°10'2434.4
2017-Feb-19 11:33N 31°25' E 121°31'17473.9
2017-Feb-19 11:31N 31°38' E 121°18'3216414.6
2017-Feb-19 11:31N 31°12' E 121°39'361460.8
2017-Feb-19 11:30N 31°40' E 121°13'141308.8
2017-Feb-19 11:29N 31°29' E 121°23'12355.9
2017-Feb-19 11:27N 31°24' E 121°36'28790.0
2017-Feb-19 11:25N 31°41' E 121°11'161702.8
2017-Feb-19 11:24N 31°30' E 121°24'115.8
2017-Feb-19 11:22N 31°30' E 121°23'1782.8
2017-Feb-19 11:10N 31°16' E 121°33'4 6.0
2017-Feb-19 10:33N 31°15' E 121°29'1619480.5
2017-Feb-19 10:33N 31°30' E 121°24'23098.5
2017-Feb-19 10:33N 31°29' E 121°25'26362.4
2017-Feb-19 10:33N 31°29' E 121°23'141657.8
2017-Feb-19 10:33N 31°40' E 121°13'5189.1
2017-Feb-19 10:31N 31°42' E 121°08'91867.6
2017-Feb-19 10:31N 31°38' E 121°18'91569.7
2017-Feb-19 10:31N 31°30' E 121°23'13905.0
2017-Feb-19 10:30N 31°24' E 121°36'12252.7
2017-Feb-19 10:27N 31°12' E 121°39'2730.4
2017-Feb-19 09:33N 31°33' E 121°19'5278.0
2017-Feb-19 09:32N 31°30' E 121°24'1 5.4
2017-Feb-19 09:25N 31°30' E 121°23'13394.2
2017-Feb-19 09:23N 31°24' E 121°36'21917.6
2017-Feb-19 09:21N 31°38' E 121°18'32417.8
2017-Feb-19 09:17N 31°12' E 121°39'22370.0
2017-Feb-19 09:13N 31°29' E 121°23'14106.2
2017-Feb-19 09:05N 31°40' E 121°13'2 4.3
2017-Feb-19 08:33N 31°38' E 121°14'2240420.4
2017-Feb-19 08:33N 31°23' E 121°34'2716228.6
2017-Feb-19 08:33N 31°41' E 121°10'322324.4
2017-Feb-19 08:32N 31°15' E 121°31'2611522.5
2017-Feb-19 08:32N 31°38' E 121°18'91165.8
2017-Feb-19 08:32N 31°30' E 121°24'140.7
2017-Feb-19 08:31N 31°30' E 121°23'130.1
2017-Feb-19 08:30N 31°29' E 121°23'22764.7
2017-Feb-19 08:28N 31°12' E 121°39'2469.1
2017-Feb-19 08:07N 31°16' E 121°12'2035.5
2017-Feb-19 07:33N 31°24' E 121°33'101303.0
2017-Feb-19 07:33N 31°29' E 121°23'226690.7
2017-Feb-19 07:33N 31°12' E 121°39'321064.1
2017-Feb-19 07:31N 31°38' E 121°18'9528.5
2017-Feb-19 07:30N 31°30' E 121°24'1 4.9
2017-Feb-19 07:22N 31°30' E 121°23'1884.0
2017-Feb-19 07:09N 31°17' E 121°09'3 5.3
2017-Feb-19 06:33N 31°17' E 121°06'23556.0
2017-Feb-19 06:31N 31°38' E 121°18'32842.9
2017-Feb-19 06:29N 31°12' E 121°39'22379.7
2017-Feb-19 06:25N 31°30' E 121°24'176.1
2017-Feb-19 06:25N 31°30' E 121°23'110.8
2017-Feb-19 06:21N 31°29' E 121°23'981.7
2017-Feb-19 06:15N 31°23' E 121°30'913.1
2017-Feb-19 05:33N 31°30' E 121°24'020.6
2017-Feb-19 05:33N 31°30' E 121°23'121670.2
2017-Feb-19 05:32N 31°23' E 121°34'201229.9
2017-Feb-19 05:31N 31°38' E 121°18'102478.6
2017-Feb-19 05:31N 31°29' E 121°23'2350.3
2017-Feb-19 05:03N 31°19' E 120°59'2345.5
2017-Feb-19 04:33N 31°30' E 121°23'016.0
2017-Feb-19 04:31N 31°30' E 121°24'9445.8
2017-Feb-19 04:30N 31°38' E 121°18'1063.7
2017-Feb-19 04:21N 31°29' E 121°23'321.2
2017-Feb-19 04:12N 31°32' E 121°21'26408.3
2017-Feb-19 04:08N 31°12' E 121°39'2338.1
2017-Feb-19 03:32N 31°30' E 121°23'226141.8
2017-Feb-19 03:32N 31°16' E 121°03'235415.7
2017-Feb-19 03:32N 31°35' E 121°18'7205.4
2017-Feb-19 03:30N 31°30' E 121°24'165.1
2017-Feb-19 03:29N 31°29' E 121°23'102480.0
2017-Feb-19 03:29N 31°38' E 121°18'32543.2
2017-Feb-19 03:25N 31°12' E 121°39'39144.1
2017-Feb-19 03:09N 31°42' E 121°10'41706.8
2017-Feb-19 03:06N 31°58' E 120°27'0 0.0
2017-Feb-19 02:33N 31°58' E 120°27'5640273.0
2017-Feb-19 02:33N 31°29' E 121°23'205871.5
2017-Feb-19 02:33N 31°17' E 121°06'20422.2
2017-Feb-19 02:30N 31°30' E 121°24'9867.8
2017-Feb-19 02:30N 31°38' E 121°18'49962.8
2017-Feb-19 02:27N 32°01' E 120°27'5725830.0
2017-Feb-19 02:26N 31°30' E 121°23'2366.7
2017-Feb-19 02:06N 31°12' E 121°39'2748.7
2017-Feb-19 01:33N 31°17' E 121°09'18412.5
2017-Feb-19 01:31N 31°30' E 121°24'272192.7
2017-Feb-19 01:30N 31°13' E 121°48'284336.0
2017-Feb-19 01:29N 31°30' E 121°23'189.1
2017-Feb-19 01:29N 31°29' E 121°23'56679.5
2017-Feb-19 01:24N 31°58' E 120°26'48487.5
2017-Feb-19 01:18N 31°38' E 121°18'749.3
2017-Feb-19 01:09N 31°42' E 121°10'1627.0
2017-Feb-19 00:33N 31°29' E 121°23'564938.6
2017-Feb-19 00:32N 31°58' E 120°26'765066.8
2017-Feb-19 00:31N 31°04' E 121°28'1922853.5
2017-Feb-19 00:31N 31°18' E 121°43'2819947.1
2017-Feb-19 00:31N 31°17' E 121°11'22185.7
2017-Feb-19 00:24N 31°38' E 121°18'9113.4
2017-Feb-19 00:19N 31°30' E 121°24'0 9.0
2017-Feb-19 00:17N 31°30' E 121°23'1520.1
2017-Feb-18 23:33N 31°22' E 121°37'7264715.5
2017-Feb-18 23:33N 31°58' E 120°25'1384.2
2017-Feb-18 23:33N 31°58' E 120°26'566330.9
2017-Feb-18 23:33N 31°30' E 121°24'1874.8
2017-Feb-18 23:33N 31°30' E 121°22'1336.1
2017-Feb-18 23:32N 31°29' E 121°23'10294.1
2017-Feb-18 23:30N 31°38' E 121°18'978.9
2017-Feb-18 23:23N 31°30' E 121°23'2283.4
2017-Feb-18 23:08N 31°09' E 121°27'1628.1
2017-Feb-18 22:33N 31°17' E 121°11'5650577.0
2017-Feb-18 22:33N 31°58' E 120°26'555394.0
2017-Feb-18 22:32N 31°30' E 121°22'12598.6
2017-Feb-18 22:32N 31°30' E 121°23'91270.8
2017-Feb-18 22:32N 31°38' E 121°18'10379.6
2017-Feb-18 22:30N 31°29' E 121°23'135.7
2017-Feb-18 22:29N 31°30' E 121°24'16471.0
2017-Feb-18 22:27N 31°42' E 121°10'34295.1
2017-Feb-18 22:20N 31°11' E 121°28'878.5
2017-Feb-18 22:14N 31°03' E 121°28'4160.1
2017-Feb-18 21:33N 31°42' E 121°10'252403.7
2017-Feb-18 21:33N 31°17' E 121°11'177542.3
2017-Feb-18 21:32N 31°30' E 121°23'171063.6
2017-Feb-18 21:31N 31°14' E 121°30'186015.8
2017-Feb-18 21:31N 31°31' E 121°22'81558.9
2017-Feb-18 21:31N 31°38' E 121°18'9310.5
2017-Feb-18 21:29N 31°30' E 121°24'261159.1
2017-Feb-18 21:28N 31°47' E 121°01'4722391.3
2017-Feb-18 21:16N 24°24' E 117°57'44513346.4
2017-Feb-18 21:14N 31°08' E 121°28'1724.6
2017-Feb-18 20:33N 31°17' E 121°11'176064.6
2017-Feb-18 20:33N 31°30' E 121°24'031.5
2017-Feb-18 20:32N 31°30' E 121°23'176672.4
2017-Feb-18 20:32N 31°16' E 121°33'213215.0
2017-Feb-18 20:32N 31°33' E 121°20'232640.8
2017-Feb-18 20:31N 31°11' E 121°28'703212.5
2017-Feb-18 20:30N 31°58' E 120°26'486921.9
2017-Feb-18 20:30N 31°38' E 121°18'91457.2
2017-Feb-18 20:29N 31°30' E 121°22'171144.6
2017-Feb-18 20:28N 31°14' E 121°29'32144.8
2017-Feb-18 20:15N 31°42' E 121°10'117.5
2017-Feb-18 20:12N 31°42' E 121°09'14108.1
2017-Feb-18 20:04N 31°32' E 121°20'1733.4
2017-Feb-18 19:33N 31°17' E 121°11'225999.0
2017-Feb-18 19:33N 31°38' E 121°18'486415.7
2017-Feb-18 19:33N 31°58' E 120°26'448772.4
2017-Feb-18 19:32N 31°40' E 121°13'291266.0
2017-Feb-18 19:31N 31°15' E 121°29'362227.3
2017-Feb-18 19:30N 31°45' E 121°06'21436.4
2017-Feb-18 19:27N 31°30' E 121°24'021.3
2017-Feb-18 19:26N 31°30' E 121°23'1130.2
2017-Feb-18 19:26N 31°30' E 121°22'15271.5
2017-Feb-18 19:23N 31°41' E 121°10'9118.1
2017-Feb-18 19:18N 31°35' E 121°17'20160.7
2017-Feb-18 19:11N 31°20' E 121°33'22498.7
2017-Feb-18 19:08N 31°36' E 121°17'2034.6
2017-Feb-18 18:33N 31°17' E 121°11'179960.9
2017-Feb-18 18:33N 31°30' E 121°23'81362.4
2017-Feb-18 18:33N 31°36' E 121°17'21157.1
2017-Feb-18 18:33N 31°37' E 121°15'477641.3
2017-Feb-18 18:33N 31°58' E 120°26'486929.3
2017-Feb-18 18:32N 31°38' E 121°18'91688.3
2017-Feb-18 18:32N 31°30' E 121°22'10739.9
2017-Feb-18 18:31N 31°38' E 121°15'3126.0
2017-Feb-18 18:29N 31°40' E 121°12'1144.6
2017-Feb-18 18:29N 31°39' E 121°13'131038.9
2017-Feb-18 18:28N 31°30' E 121°24'46364168.3
2017-Feb-18 18:28N 24°24' E 117°57'4603470.4
2017-Feb-18 18:20N 31°23' E 121°30'126.7
2017-Feb-18 18:17N 31°22' E 121°30'1419.0
2017-Feb-18 17:33N 31°33' E 121°20'21190.7
2017-Feb-18 17:33N 31°34' E 121°18'44875.2
2017-Feb-18 17:33N 31°38' E 121°18'182639.0
2017-Feb-18 17:33N 31°24' E 121°31'174808.1
2017-Feb-18 17:33N 31°36' E 121°17'2018152.4
2017-Feb-18 17:33N 31°17' E 121°11'178991.7
2017-Feb-18 17:32N 31°27' E 121°28'94783.2
2017-Feb-18 17:32N 31°34' E 121°20'4396.3
2017-Feb-18 17:32N 31°30' E 121°22'15419.7
2017-Feb-18 17:30N 31°41' E 121°11'151901.3
2017-Feb-18 17:29N 31°30' E 121°24'1258.9
2017-Feb-18 17:17N 31°20' E 121°33'45842274.7
2017-Feb-18 17:16N 24°24' E 117°57'4535432.4
2017-Feb-18 17:11N 31°15' E 121°32'1726.8
2017-Feb-18 16:33N 31°31' E 121°25'3441.6
2017-Feb-18 16:33N 31°32' E 121°21'1138.2
2017-Feb-18 16:33N 31°32' E 121°22'91667.4
2017-Feb-18 16:32N 31°39' E 121°14'3521.3
2017-Feb-18 16:32N 31°38' E 121°18'46927653.6
2017-Feb-18 16:31N 24°24' E 117°57'46266567.0
2017-Feb-18 16:31N 31°27' E 121°28'17816.1
2017-Feb-18 16:29N 31°17' E 121°11'253306.7
2017-Feb-18 16:29N 31°12' E 121°39'238329.3
2017-Feb-18 16:29N 31°30' E 121°22'10387.5
2017-Feb-18 16:27N 31°22' E 121°30'10849.6
2017-Feb-18 16:26N 31°30' E 121°24'1104.3
2017-Feb-18 16:26N 31°29' E 121°25'1112.6
2017-Feb-18 15:33N 31°37' E 121°16'2036787.7
2017-Feb-18 15:33N 31°17' E 121°11'176760.9
2017-Feb-18 15:33N 31°28' E 121°26'31974.5
2017-Feb-18 15:33N 31°30' E 121°23'10534.1
2017-Feb-18 15:32N 31°24' E 121°32'181655.9
2017-Feb-18 15:31N 31°38' E 121°18'46964878.7
2017-Feb-18 15:31N 24°24' E 117°57'46312078.9
2017-Feb-18 15:29N 31°30' E 121°22'245.6
2017-Feb-18 15:26N 31°29' E 121°24'1 6.0
2017-Feb-18 15:19N 31°30' E 121°24'248.2
2017-Feb-18 15:16N 31°28' E 121°25'2 2.2
2017-Feb-18 14:33N 31°28' E 121°27'178672.8
2017-Feb-18 14:33N 31°39' E 121°13'1513781.9
2017-Feb-18 14:33N 31°28' E 121°26'8953.1
2017-Feb-18 14:32N 31°34' E 121°19'4480.5
2017-Feb-18 14:32N 31°38' E 121°18'46944390.7
2017-Feb-18 14:31N 24°24' E 117°57'44735774.1
2017-Feb-18 14:30N 31°17' E 121°11'16680.4
2017-Feb-18 14:29N 31°30' E 121°22'115.8
2017-Feb-18 14:25N 31°30' E 121°24'2215.8
2017-Feb-18 14:24N 31°28' E 121°25'202201.8
2017-Feb-18 14:24N 31°12' E 121°39'2327.5
2017-Feb-18 13:33N 31°30' E 121°22'93230.6
2017-Feb-18 13:33N 31°37' E 121°16'915504.5
2017-Feb-18 13:33N 31°30' E 121°22'10277.7
2017-Feb-18 13:31N 31°38' E 121°15'113827.1
2017-Feb-18 13:31N 31°30' E 121°24'22729.4
2017-Feb-18 13:31N 31°28' E 121°26'121816.3
2017-Feb-18 13:30N 31°38' E 121°18'22413.2
2017-Feb-18 13:27N 31°17' E 121°11'22387.9
2017-Feb-18 13:24N 31°39' E 121°13'15139.3
2017-Feb-18 13:17N 31°28' E 121°25'7 9.8
2017-Feb-18 12:33N 31°33' E 121°19'4465.4
2017-Feb-18 12:33N 31°30' E 121°22'968.8
2017-Feb-18 12:25N 31°38' E 121°17'12213.7
2017-Feb-18 12:22N 31°28' E 121°25'1527583.3
2017-Feb-18 12:22N 31°39' E 121°13'153062.6
2017-Feb-18 12:21N 31°28' E 121°26'2127.9
2017-Feb-18 12:20N 31°30' E 121°24'4636041.6
2017-Feb-18 12:16N 24°24' E 117°58'4694965.9
2017-Feb-18 12:10N 31°41' E 121°09'466759.2
2017-Feb-18 11:33N 24°25' E 118°03'46019026.0
2017-Feb-18 11:32N 31°28' E 121°26'101689.1
2017-Feb-18 11:31N 31°35' E 121°17'7266.2
2017-Feb-18 11:30N 31°30' E 121°22'57131.0
2017-Feb-18 11:04N 31°58' E 120°25'472918.5
2017-Feb-18 10:33N 24°22' E 118°09'461165833.8
2017-Feb-18 10:33N 31°28' E 121°26'31291.6
2017-Feb-18 10:33N 31°30' E 121°22'1142.6
2017-Feb-18 10:32N 31°30' E 121°24'9216.7
2017-Feb-18 10:30N 31°37' E 121°16'2101.7
2017-Feb-18 10:29N 31°38' E 121°17'12141.5
2017-Feb-18 10:24N 31°28' E 121°25'163857.7
2017-Feb-18 10:24N 31°40' E 121°13'31206.9
2017-Feb-18 10:14N 31°20' E 121°41'1014.1
2017-Feb-18 09:33N 31°22' E 121°30'15764.8
2017-Feb-18 09:32N 31°17' E 121°46'321864.6
2017-Feb-18 09:31N 31°38' E 121°17'9394.5
2017-Feb-18 09:30N 31°30' E 121°22'3107.6
2017-Feb-18 09:28N 31°28' E 121°26'299.1
2017-Feb-18 09:27N 31°30' E 121°24'11132.1
2017-Feb-18 09:22N 31°38' E 121°15'1012.8
2017-Feb-18 08:33N 31°30' E 121°22'134816.3
2017-Feb-18 08:33N 31°40' E 121°12'5215.5
2017-Feb-18 08:31N 31°38' E 121°18'41211.7
2017-Feb-18 08:31N 31°39' E 121°13'232708.4
2017-Feb-18 08:30N 31°24' E 121°34'111594.7
2017-Feb-18 08:30N 31°30' E 121°24'2191.5
2017-Feb-18 08:29N 31°28' E 121°26'2477.2
2017-Feb-18 08:11N 31°45' E 121°06'2133.8
2017-Feb-18 07:33N 31°30' E 121°22'151922.4
2017-Feb-18 07:33N 31°42' E 121°10'15154.7
2017-Feb-18 07:33N 31°40' E 121°11'65321.4
2017-Feb-18 07:33N 31°38' E 121°18'3591.8
2017-Feb-18 07:33N 31°35' E 121°19'104103.7
2017-Feb-18 07:32N 31°42' E 121°10'28984.5
2017-Feb-18 07:31N 31°24' E 121°34'9554.1
2017-Feb-18 07:30N 31°28' E 121°26'238.9
2017-Feb-18 07:26N 31°30' E 121°24'910.3
2017-Feb-18 06:33N 31°37' E 121°17'91535.4
2017-Feb-18 06:33N 31°30' E 121°22'2285.0
2017-Feb-18 06:32N 31°31' E 121°24'101186.0
2017-Feb-18 06:32N 31°37' E 121°16'205245.0
2017-Feb-18 06:31N 31°24' E 121°34'291356.3
2017-Feb-18 06:30N 31°43' E 121°08'103169.9
2017-Feb-18 06:30N 31°38' E 121°18'9325.3
2017-Feb-18 06:28N 31°30' E 121°24'222.0
2017-Feb-18 06:22N 31°28' E 121°26'2 2.8
2017-Feb-18 05:33N 31°30' E 121°24'3277.7
2017-Feb-18 05:33N 31°32' E 121°22'94713.5
2017-Feb-18 05:32N 31°26' E 121°30'9237.2
2017-Feb-18 05:30N 31°32' E 121°22'74840.8
2017-Feb-18 05:30N 31°37' E 121°16'21859.0
2017-Feb-18 05:29N 31°24' E 121°34'999.7
2017-Feb-18 05:23N 31°28' E 121°26'333.4
2017-Feb-18 05:17N 31°30' E 121°22'1418.7
2017-Feb-18 04:33N 31°23' E 121°36'292831.3
2017-Feb-18 04:33N 31°41' E 121°10'16853.9
2017-Feb-18 04:32N 31°31' E 121°23'1392.4
2017-Feb-18 04:31N 31°30' E 121°23'234644.5
2017-Feb-18 04:31N 31°12' E 121°39'203168.0
2017-Feb-18 04:31N 31°28' E 121°26'3147.3
2017-Feb-18 04:29N 31°30' E 121°22'159.2
2017-Feb-18 04:28N 31°30' E 121°24'11280.3
2017-Feb-18 04:26N 31°24' E 121°35'4631260.5
2017-Feb-18 04:04N 24°17' E 118°12'466903.0
2017-Feb-18 03:33N 31°33' E 121°19'224234.1
2017-Feb-18 03:33N 31°21' E 121°41'695.8
2017-Feb-18 03:29N 31°24' E 121°35'9365.3
2017-Feb-18 03:27N 31°28' E 121°26'398.4
2017-Feb-18 03:25N 31°31' E 121°23'4704367.5
2017-Feb-18 03:19N 24°14' E 118°08'46915636.6
2017-Feb-18 03:17N 31°30' E 121°24'1013.5
2017-Feb-18 02:33N 31°37' E 121°16'10589.0
2017-Feb-18 02:32N 31°30' E 121°24'252.6
2017-Feb-18 02:30N 31°28' E 121°26'171335.8
2017-Feb-18 02:29N 31°19' E 121°42'202446.7
2017-Feb-18 02:29N 31°31' E 121°23'23523.4
2017-Feb-18 02:26N 31°12' E 121°39'454233255.8
2017-Feb-18 02:26N 24°19' E 118°08'4632287.7
2017-Feb-18 02:14N 31°24' E 121°35'2638.4
2017-Feb-18 01:33N 31°41' E 121°11'141160.9
2017-Feb-18 01:32N 31°31' E 121°23'205911.7
2017-Feb-18 01:32N 31°19' E 121°42'17254.7
2017-Feb-18 01:28N 31°28' E 121°26'235.5
2017-Feb-18 01:24N 31°30' E 121°24'22113.6
2017-Feb-18 01:13N 31°12' E 121°39'20277.3
2017-Feb-18 01:08N 31°28' E 121°25'1728.9
2017-Feb-18 00:33N 31°19' E 121°42'201615.3
2017-Feb-18 00:33N 31°31' E 121°23'3178.8
2017-Feb-18 00:32N 31°28' E 121°26'286.0
2017-Feb-18 00:30N 31°30' E 121°24'22414.8
2017-Feb-18 00:27N 31°12' E 121°39'2224.5
2017-Feb-17 23:33N 31°30' E 121°24'10747.1
2017-Feb-17 23:32N 31°24' E 121°35'9423.9
2017-Feb-17 23:31N 31°28' E 121°26'240.1
2017-Feb-17 23:28N 31°30' E 121°24'1 0.6
2017-Feb-17 22:33N 31°30' E 121°24'11150.2
2017-Feb-17 22:29N 31°24' E 121°35'9492.9
2017-Feb-17 22:28N 31°28' E 121°25'2352.8
2017-Feb-17 22:27N 31°30' E 121°24'287.6
2017-Feb-17 22:26N 31°28' E 121°26'17587.6
2017-Feb-17 22:24N 31°19' E 121°42'749.6
2017-Feb-17 22:15N 31°12' E 121°39'3448.9
2017-Feb-17 21:33N 31°39' E 121°14'14384.3
2017-Feb-17 21:31N 31°28' E 121°25'171028.4
2017-Feb-17 21:30N 31°19' E 121°42'7124.0
2017-Feb-17 21:27N 31°12' E 121°39'13164.4
2017-Feb-17 21:22N 31°24' E 121°34'11121.3
2017-Feb-17 21:16N 31°30' E 121°24'216.9
2017-Feb-17 21:08N 31°28' E 121°26'711.7
2017-Feb-17 20:33N 31°33' E 121°20'71118.5
2017-Feb-17 20:33N 31°28' E 121°26'021.4
2017-Feb-17 20:32N 31°28' E 121°25'2188.2
2017-Feb-17 20:31N 31°30' E 121°24'19389.3
2017-Feb-17 20:28N 31°19' E 121°42'832.9
2017-Feb-17 20:14N 31°24' E 121°34'12202.2
2017-Feb-17 20:10N 31°12' E 121°39'711.2
2017-Feb-17 19:33N 31°19' E 121°42'3145.6
2017-Feb-17 19:32N 31°21' E 121°39'14974.7
2017-Feb-17 19:31N 31°28' E 121°26'20182.2
2017-Feb-17 19:24N 31°12' E 121°39'237376.7
2017-Feb-17 19:24N 31°30' E 121°24'11339.1
2017-Feb-17 19:22N 31°38' E 121°15'13616.6
2017-Feb-17 19:21N 31°28' E 121°25'214.8
2017-Feb-17 19:14N 31°30' E 121°24'650.7
2017-Feb-17 19:07N 31°26' E 121°29'1119.8
2017-Feb-17 18:33N 31°34' E 121°20'285513.6
2017-Feb-17 18:33N 31°12' E 121°39'2036329.6
2017-Feb-17 18:33N 31°28' E 121°25'0362.4
2017-Feb-17 18:32N 31°28' E 121°26'17786.0
2017-Feb-17 18:31N 31°19' E 121°42'278.4
2017-Feb-17 18:30N 31°20' E 121°40'17660.0
2017-Feb-17 18:28N 31°30' E 121°24'132.2
2017-Feb-17 18:27N 31°30' E 121°24'1920.8
2017-Feb-17 17:34N 31°19' E 121°42'17903.7
2017-Feb-17 17:32N 31°29' E 121°25'2129.0
2017-Feb-17 17:32N 31°30' E 121°24'17367.9
2017-Feb-17 17:29N 31°20' E 121°40'1511122.7
2017-Feb-17 17:29N 31°29' E 121°25'135.4
2017-Feb-17 17:27N 31°28' E 121°25'2104.5
2017-Feb-17 17:26N 31°30' E 121°24'2283.6
2017-Feb-17 17:10N 31°12' E 121°39'2234.7
2017-Feb-17 16:31N 31°30' E 121°24'17782.5
2017-Feb-17 16:30N 31°20' E 121°40'26809.9
2017-Feb-17 16:30N 31°19' E 121°42'18544.9
2017-Feb-17 16:28N 31°30' E 121°25'15327.1
2017-Feb-17 16:28N 31°28' E 121°25'2063.7
2017-Feb-17 16:09N 31°12' E 121°39'18673134.5
2017-Feb-17 15:33N 00°05' E 121°24'188452179.8
2017-Feb-17 15:31N 31°30' E 121°25'124.6
2017-Feb-17 15:30N 31°30' E 121°24'2515.8
2017-Feb-17 15:30N 31°28' E 121°25'158978.4
2017-Feb-17 15:30N 31°20' E 121°40'82175.6
2017-Feb-17 15:29N 31°12' E 121°39'203843.4
2017-Feb-17 15:29N 31°28' E 121°25'249.9
2017-Feb-17 15:26N 31°30' E 121°24'19817.1
2017-Feb-17 15:25N 31°19' E 121°42'18732175.6
2017-Feb-17 14:33N 00°05' E 121°24'18751349715.7
2017-Feb-17 14:33N 31°20' E 121°40'151099.4
2017-Feb-17 14:32N 31°28' E 121°25'2821.6
2017-Feb-17 14:32N 31°30' E 121°24'5810350.5
2017-Feb-17 14:32N 31°58' E 120°25'791293.4
2017-Feb-17 14:28N 31°12' E 121°39'20584.3
2017-Feb-17 14:26N 31°29' E 121°25'176072.4
2017-Feb-17 14:26N 31°19' E 121°42'18110.7
2017-Feb-17 14:16N 31°30' E 121°25'18842634.3
2017-Feb-17 13:33N 00°05' E 121°24'1883271130.2
2017-Feb-17 13:33N 31°28' E 121°25'152693.5
2017-Feb-17 13:33N 31°20' E 121°40'757068.1
2017-Feb-17 13:32N 31°58' E 120°25'765399.3
2017-Feb-17 13:31N 31°19' E 121°42'7461.5
2017-Feb-17 13:30N 31°12' E 121°39'221362.5
2017-Feb-17 13:29N 31°30' E 121°25'193.7
2017-Feb-17 13:29N 31°30' E 121°24'111.2
2017-Feb-17 13:25N 31°30' E 121°24'247.3
2017-Feb-17 13:23N 31°29' E 121°25'18832270.3
2017-Feb-17 12:33N 00°05' E 121°24'1885133028.9
2017-Feb-17 12:32N 31°30' E 121°24'586901.4
2017-Feb-17 12:32N 31°58' E 120°25'7622947.8
2017-Feb-17 12:32N 31°19' E 121°42'181415.9
2017-Feb-17 12:31N 31°30' E 121°24'2349.5
2017-Feb-17 12:31N 31°28' E 121°25'15341.0
2017-Feb-17 12:28N 31°20' E 121°40'858.4
2017-Feb-17 12:20N 31°12' E 121°39'22168.8
2017-Feb-17 12:12N 31°30' E 121°25'1 1.7
2017-Feb-17 11:33N 31°30' E 121°24'1138.2
2017-Feb-17 11:33N 31°30' E 121°25'1884119005.0
2017-Feb-17 11:32N 00°05' E 121°24'188343179.2
2017-Feb-17 11:29N 31°29' E 121°25'201090.2
2017-Feb-17 11:28N 31°12' E 121°39'20908.5
2017-Feb-17 11:27N 31°28' E 121°25'17466.8
2017-Feb-17 11:25N 31°19' E 121°42'249.4
2017-Feb-17 11:22N 31°20' E 121°40'752050.4
2017-Feb-17 11:20N 31°58' E 120°25'5972.8
2017-Feb-17 10:32N 31°30' E 121°25'18843391666.7
2017-Feb-17 10:32N 00°05' E 121°24'1875562383.4
2017-Feb-17 10:32N 31°20' E 121°40'174762.8
2017-Feb-17 10:31N 31°30' E 121°24'221037.2
2017-Feb-17 10:30N 31°12' E 121°39'202421.4
2017-Feb-17 10:30N 31°28' E 121°25'60378.2
2017-Feb-17 10:20N 31°58' E 120°25'58560.1
2017-Feb-17 10:14N 31°30' E 121°24'19845.1
2017-Feb-17 10:13N 31°19' E 121°42'18732759.6
2017-Feb-17 09:32N 00°05' E 121°24'1883123241.1
2017-Feb-17 09:31N 31°28' E 121°25'1730337.4
2017-Feb-17 09:31N 31°19' E 121°42'762647.8
2017-Feb-17 09:29N 31°58' E 120°25'7519184.9
2017-Feb-17 09:29N 31°20' E 121°40'174000.4
2017-Feb-17 09:29N 31°30' E 121°24'2189.5
2017-Feb-17 09:28N 31°28' E 121°25'8232.6
2017-Feb-17 09:26N 31°21' E 121°30'106922.7
2017-Feb-17 09:26N 31°30' E 121°25'185.2
2017-Feb-17 09:25N 31°30' E 121°24'1 1.2
2017-Feb-17 08:33N 31°30' E 121°25'181813.8
2017-Feb-17 08:32N 31°19' E 121°42'1873449627.0
2017-Feb-17 08:32N 00°05' E 121°24'188349476.4
2017-Feb-17 08:30N 31°28' E 121°25'153168.9
2017-Feb-17 08:29N 31°20' E 121°40'17540.9
2017-Feb-17 08:27N 31°30' E 121°24'129.5
2017-Feb-17 08:26N 31°30' E 121°24'18852132.9
2017-Feb-17 07:33N 00°05' E 121°24'1873224813.3
2017-Feb-17 07:33N 31°19' E 121°42'17809.7
2017-Feb-17 07:31N 31°29' E 121°25'1425841.5
2017-Feb-17 07:31N 31°22' E 121°40'321740.1
2017-Feb-17 07:30N 31°41' E 121°11'17387.6
2017-Feb-17 07:28N 31°30' E 121°25'125.3
2017-Feb-17 07:25N 31°30' E 121°24'2242.9
2017-Feb-17 07:25N 31°28' E 121°25'1322943.8
2017-Feb-17 07:25N 31°38' E 121°15'1160.3
2017-Feb-17 07:14N 31°30' E 121°24'0 0.7
2017-Feb-17 06:33N 31°30' E 121°25'9652.7
2017-Feb-17 06:32N 31°36' E 121°17'11756.4
2017-Feb-17 06:31N 31°28' E 121°25'1883138331.8
2017-Feb-17 06:30N 00°05' E 121°24'188469935.3
2017-Feb-17 06:29N 31°30' E 121°24'164442.1
2017-Feb-17 06:28N 31°22' E 121°40'175965.8
2017-Feb-17 06:28N 31°30' E 121°24'347.6
2017-Feb-17 06:25N 31°32' E 121°22'25637.5
2017-Feb-17 06:23N 31°12' E 121°39'18672271.1
2017-Feb-17 05:33N 00°05' E 121°24'1884183331.0
2017-Feb-17 05:33N 31°30' E 121°25'311170.5
2017-Feb-17 05:33N 31°32' E 121°22'2176182.4
2017-Feb-17 05:33N 31°19' E 121°42'19297.8
2017-Feb-17 05:29N 31°30' E 121°24'221191.0
2017-Feb-17 05:28N 31°12' E 121°39'101309.4
2017-Feb-17 05:27N 31°22' E 121°40'10153.0
2017-Feb-17 05:23N 31°27' E 121°29'4264.5
2017-Feb-17 05:22N 31°28' E 121°25'18832311.0
2017-Feb-17 04:33N 00°05' E 121°24'1885678443.3
2017-Feb-17 04:33N 31°30' E 121°24'172049.1
2017-Feb-17 04:33N 31°22' E 121°40'16489.9
2017-Feb-17 04:31N 31°29' E 121°25'89772.6
2017-Feb-17 04:31N 31°23' E 121°30'13193.8
2017-Feb-17 04:27N 31°12' E 121°39'20240.6
2017-Feb-17 04:22N 31°28' E 121°25'18832343.8
2017-Feb-17 03:33N 00°05' E 121°24'1885130470.8
2017-Feb-17 03:32N 31°30' E 121°24'577961.5
2017-Feb-17 03:32N 31°58' E 120°25'581041.7
2017-Feb-17 03:29N 31°29' E 121°25'22406.7
2017-Feb-17 03:25N 31°12' E 121°39'101683.5
2017-Feb-17 03:25N 31°22' E 121°40'15298.5
2017-Feb-17 03:22N 31°30' E 121°25'16360.8
2017-Feb-17 03:19N 31°15' E 121°33'16542.7
2017-Feb-17 03:18N 31°30' E 121°24'216.9
2017-Feb-17 03:12N 31°28' E 121°25'17365.5
2017-Feb-17 03:09N 31°19' E 121°42'76126.3
2017-Feb-17 02:32N 31°58' E 120°25'1914164039.1
2017-Feb-17 02:32N 00°05' E 121°24'1883968322.5
2017-Feb-17 02:32N 31°28' E 121°25'21639.9
2017-Feb-17 02:32N 31°30' E 121°24'162.9
2017-Feb-17 02:31N 31°30' E 121°24'137.7
2017-Feb-17 02:30N 31°30' E 121°25'151850.3
2017-Feb-17 02:30N 31°22' E 121°40'16946.6
2017-Feb-17 02:29N 31°29' E 121°25'837.8
2017-Feb-17 02:16N 31°25' E 121°33'1488.5
2017-Feb-17 02:06N 31°12' E 121°39'7283.2
2017-Feb-17 02:05N 31°19' E 121°42'3 6.2
2017-Feb-17 01:33N 31°22' E 121°40'7412687.8
2017-Feb-17 01:33N 31°58' E 120°25'1914160224.7
2017-Feb-17 01:32N 00°05' E 121°24'1873140508.2
2017-Feb-17 01:31N 31°19' E 121°42'1917155.5
2017-Feb-17 01:31N 31°30' E 121°24'1326.1
2017-Feb-17 01:31N 31°29' E 121°25'81479.1
2017-Feb-17 01:30N 31°25' E 121°33'8185.6
2017-Feb-17 01:28N 31°30' E 121°25'582796.9
2017-Feb-17 01:27N 31°58' E 120°25'594030.0
2017-Feb-17 01:26N 31°28' E 121°25'2 5.8
2017-Feb-17 01:08N 31°30' E 121°24'5898.5
2017-Feb-17 00:33N 31°58' E 120°25'1914156583.3
2017-Feb-17 00:32N 00°05' E 121°24'1883616205.6
2017-Feb-17 00:32N 31°28' E 121°25'171348.3
2017-Feb-17 00:31N 31°19' E 121°42'184646.4
2017-Feb-17 00:31N 31°29' E 121°25'8437.7
2017-Feb-17 00:30N 31°25' E 121°33'8449.2
2017-Feb-17 00:28N 31°30' E 121°25'049.0
2017-Feb-17 00:28N 31°30' E 121°24'1 5.1
2017-Feb-17 00:20N 31°30' E 121°24'1721.0
2017-Feb-16 23:33N 31°22' E 121°40'747617.3
2017-Feb-16 23:33N 31°58' E 120°25'6720012.8
2017-Feb-16 23:32N 31°25' E 121°33'659791.2
2017-Feb-16 23:32N 31°59' E 120°27'1914765577.1
2017-Feb-16 23:32N 00°05' E 121°24'1884102776.9
2017-Feb-16 23:31N 31°30' E 121°25'183820.1
2017-Feb-16 23:30N 31°19' E 121°42'175515.9
2017-Feb-16 23:30N 31°28' E 121°25'241.3
2017-Feb-16 23:27N 31°30' E 121°24'152.0
2017-Feb-16 23:26N 31°29' E 121°25'5866.0
2017-Feb-16 22:33N 31°58' E 120°25'260.9
2017-Feb-16 22:31N 31°59' E 120°27'7332654.1
2017-Feb-16 22:31N 31°22' E 121°40'171414.3
2017-Feb-16 22:30N 31°30' E 121°24'194898.9
2017-Feb-16 22:30N 31°19' E 121°42'17854.9
2017-Feb-16 22:29N 31°28' E 121°25'1116.4
2017-Feb-16 22:28N 31°30' E 121°25'1884753689.5
2017-Feb-16 22:28N 00°05' E 121°24'146524307.4
2017-Feb-16 22:24N 24°18' E 118°10'46457629.7
2017-Feb-16 22:24N 31°30' E 121°25'2117.1
2017-Feb-16 22:22N 31°28' E 121°27'338.6
2017-Feb-16 22:18N 31°30' E 121°24'0 2.9
2017-Feb-16 22:15N 31°30' E 121°24'1826.5
2017-Feb-16 21:33N 31°19' E 121°42'7713782.9
2017-Feb-16 21:33N 31°58' E 120°25'569236.0
2017-Feb-16 21:32N 31°30' E 121°22'558594.6
2017-Feb-16 21:32N 31°59' E 120°27'5715787.8
2017-Feb-16 21:32N 31°30' E 121°25'2774.6
2017-Feb-16 21:32N 31°28' E 121°25'202805.5
2017-Feb-16 21:31N 31°12' E 121°39'1867248900.6
2017-Feb-16 21:31N 00°05' E 121°24'1877321693.9
2017-Feb-16 21:30N 31°22' E 121°40'1719896.7
2017-Feb-16 21:30N 31°30' E 121°24'193.3
2017-Feb-16 21:30N 31°30' E 121°25'017.0
2017-Feb-16 21:29N 31°30' E 121°24'573142.4
2017-Feb-16 21:28N 31°58' E 120°27'19142110.2
2017-Feb-16 20:33N 00°05' E 121°24'18881132909.4
2017-Feb-16 20:33N 31°34' E 121°19'6560.0
2017-Feb-16 20:33N 31°30' E 121°25'574556.3
2017-Feb-16 20:32N 31°59' E 120°27'573061.4
2017-Feb-16 20:31N 31°30' E 121°25'164002.1
2017-Feb-16 20:30N 31°22' E 121°40'14452.1
2017-Feb-16 20:29N 31°28' E 121°25'171213.1
2017-Feb-16 20:28N 31°19' E 121°42'751500.5
2017-Feb-16 20:25N 31°58' E 120°27'573404.0
2017-Feb-16 20:24N 31°30' E 121°24'130.4
2017-Feb-16 20:22N 31°30' E 121°24'4649341.0
2017-Feb-16 20:19N 24°19' E 118°08'14661913.6
2017-Feb-16 19:33N 00°05' E 121°24'1891234770.1
2017-Feb-16 19:33N 31°37' E 121°16'103579.1
2017-Feb-16 19:33N 31°30' E 121°25'151.5
2017-Feb-16 19:31N 31°30' E 121°24'17116.6
2017-Feb-16 19:23N 31°22' E 121°40'7365283.3
2017-Feb-16 19:23N 31°59' E 120°27'7530019.6
2017-Feb-16 19:23N 31°19' E 121°42'184738.3
2017-Feb-16 19:23N 31°30' E 121°24'0 2.5
2017-Feb-16 19:16N 31°30' E 121°25'114.2
2017-Feb-16 19:10N 31°28' E 121°25'581108.5
2017-Feb-16 19:07N 31°58' E 120°27'73125.1
2017-Feb-16 18:32N 31°22' E 121°40'18772251921.3
2017-Feb-16 18:32N 00°05' E 121°24'1914313175.9
2017-Feb-16 18:31N 31°58' E 120°27'012.7
2017-Feb-16 18:30N 31°59' E 120°27'5714581.7
2017-Feb-16 18:30N 31°30' E 121°24'013.0
2017-Feb-16 18:29N 31°30' E 121°25'0 4.2
2017-Feb-16 18:28N 31°30' E 121°25'18218.0
2017-Feb-16 18:23N 31°19' E 121°42'19495.2
2017-Feb-16 18:20N 31°30' E 121°24'242.0
2017-Feb-16 18:17N 31°28' E 121°25'58799.6
2017-Feb-16 18:13N 31°58' E 120°27'19142813.4
2017-Feb-16 17:32N 00°05' E 121°24'1885218861.1
2017-Feb-16 17:31N 31°30' E 121°24'1922896.7
2017-Feb-16 17:31N 31°19' E 121°42'31500.4
2017-Feb-16 17:31N 31°22' E 121°40'164309.0
2017-Feb-16 17:31N 31°30' E 121°25'5712832.5
2017-Feb-16 17:31N 31°59' E 120°27'0 2.0
2017-Feb-16 17:28N 31°59' E 120°27'573022.5
2017-Feb-16 17:27N 31°30' E 121°25'0 0.1
2017-Feb-16 16:33N 31°30' E 121°25'1884121126.7
2017-Feb-16 16:32N 00°05' E 121°24'18842261097.5
2017-Feb-16 16:32N 31°30' E 121°25'15037.2
2017-Feb-16 16:32N 31°28' E 121°25'2439.8
2017-Feb-16 16:31N 31°30' E 121°24'567207.3
2017-Feb-16 16:31N 31°59' E 120°27'734751.0
2017-Feb-16 16:30N 31°22' E 121°40'2054.3
2017-Feb-16 16:08N 31°32' E 121°20'2035.1
2017-Feb-16 15:33N 31°22' E 121°40'1613993.7
2017-Feb-16 15:33N 31°30' E 121°25'188496901.4
2017-Feb-16 15:32N 00°05' E 121°24'1884116953.3
2017-Feb-16 15:31N 31°30' E 121°25'5710281.3
2017-Feb-16 15:31N 31°59' E 120°27'493298.6
2017-Feb-16 15:30N 31°35' E 121°18'7349.0
2017-Feb-16 15:28N 31°30' E 121°24'562655.5
2017-Feb-16 15:27N 31°59' E 120°27'581836.2
2017-Feb-16 15:25N 31°28' E 121°25'1 1.6
2017-Feb-16 14:32N 31°30' E 121°25'1884339165.7
2017-Feb-16 14:32N 00°05' E 121°24'1884484506.9
2017-Feb-16 14:32N 31°30' E 121°25'161399.4
2017-Feb-16 14:31N 31°22' E 121°40'1526508.7
2017-Feb-16 14:31N 31°29' E 121°25'586317.4
2017-Feb-16 14:30N 31°59' E 120°27'56640.8
2017-Feb-16 14:25N 31°30' E 121°24'1618.9
2017-Feb-16 13:33N 31°21' E 121°40'151829.2
2017-Feb-16 13:33N 31°30' E 121°25'5970329.8
2017-Feb-16 13:33N 31°58' E 120°25'585596.3
2017-Feb-16 13:32N 31°30' E 121°24'1911425.0
2017-Feb-16 13:32N 31°19' E 121°42'71076.0
2017-Feb-16 13:32N 31°12' E 121°39'186775509.1
2017-Feb-16 13:30N 00°05' E 121°24'1884260864.1
2017-Feb-16 13:30N 31°29' E 121°25'0 8.6
2017-Feb-16 13:29N 31°30' E 121°25'572505.0
2017-Feb-16 13:27N 31°59' E 120°27'0 0.7
2017-Feb-16 13:20N 31°59' E 120°27'53455.5
2017-Feb-16 13:13N 31°32' E 121°20'18872834.5
2017-Feb-16 12:33N 00°05' E 121°24'1884101243.8
2017-Feb-16 12:32N 31°30' E 121°25'18771.3
2017-Feb-16 12:31N 31°19' E 121°42'7518013.1
2017-Feb-16 12:31N 31°59' E 120°27'5610092.1
2017-Feb-16 12:30N 31°30' E 121°24'163880.1
2017-Feb-16 12:30N 31°20' E 121°39'15890.8
2017-Feb-16 12:29N 31°29' E 121°25'034.4
2017-Feb-16 12:29N 31°30' E 121°25'57372.3
2017-Feb-16 12:19N 31°59' E 120°27'19142491.0
2017-Feb-16 11:33N 00°05' E 121°24'1885521882.7
2017-Feb-16 11:33N 31°30' E 121°24'16427.9
2017-Feb-16 11:31N 31°20' E 121°39'728960.9
2017-Feb-16 11:30N 31°59' E 120°27'7510007.7
2017-Feb-16 11:30N 31°19' E 121°42'18116.9
2017-Feb-16 11:21N 31°30' E 121°25'0 2.9
2017-Feb-16 11:18N 31°30' E 121°25'18842522.6
2017-Feb-16 10:33N 00°05' E 121°24'1884218798.3
2017-Feb-16 10:33N 31°30' E 121°25'151651.7
2017-Feb-16 10:32N 31°20' E 121°39'156102.5
2017-Feb-16 10:32N 31°30' E 121°25'18621.9
2017-Feb-16 10:30N 31°19' E 121°42'7524564.3
2017-Feb-16 10:30N 31°59' E 120°27'016.7
2017-Feb-16 10:30N 31°59' E 120°27'579781.0
2017-Feb-16 10:30N 31°30' E 121°25'1181.1
2017-Feb-16 10:29N 31°30' E 121°24'1 2.7
2017-Feb-16 10:17N 31°30' E 121°24'1521.2
2017-Feb-16 09:33N 31°22' E 121°39'727610.9
2017-Feb-16 09:33N 31°59' E 120°27'1914104393.3
2017-Feb-16 09:32N 00°05' E 121°24'1884121136.7
2017-Feb-16 09:31N 31°30' E 121°25'0 5.6
2017-Feb-16 09:30N 31°30' E 121°25'141.0
2017-Feb-16 09:28N 31°30' E 121°24'19655.6
2017-Feb-16 09:26N 31°19' E 121°42'36303.5
2017-Feb-16 09:19N 31°42' E 121°09'182686.3
2017-Feb-16 09:19N 31°30' E 121°24'58914.5
2017-Feb-16 09:15N 31°58' E 120°25'73103.3
2017-Feb-16 08:32N 31°22' E 121°39'41449.9
2017-Feb-16 08:32N 31°19' E 121°42'1873240865.1
2017-Feb-16 08:32N 00°05' E 121°24'1893148164.4
2017-Feb-16 08:31N 31°39' E 121°15'12870.2
2017-Feb-16 08:30N 31°30' E 121°24'115.7
2017-Feb-16 08:27N 31°30' E 121°24'147.4
2017-Feb-16 08:26N 31°30' E 121°25'047.8
2017-Feb-16 08:26N 31°30' E 121°25'0 4.2
2017-Feb-16 08:22N 31°30' E 121°25'5 6.4
2017-Feb-16 07:33N 31°33' E 121°20'5573.9
2017-Feb-16 07:33N 31°30' E 121°25'0 3.8
2017-Feb-16 07:32N 31°30' E 121°25'151627.3
2017-Feb-16 07:31N 31°22' E 121°39'301647.6
2017-Feb-16 07:30N 31°41' E 121°12'3415116.9
2017-Feb-16 07:30N 31°19' E 121°42'191564.2
2017-Feb-16 07:29N 31°30' E 121°24'1885452309.9
2017-Feb-16 07:29N 00°05' E 121°24'19145464.1
2017-Feb-16 07:08N 31°59' E 120°27'69119.9
2017-Feb-16 06:33N 31°15' E 121°30'141720.4
2017-Feb-16 06:33N 31°29' E 121°27'106133.9
2017-Feb-16 06:33N 31°36' E 121°18'2631756.6
2017-Feb-16 06:33N 31°19' E 121°42'1873149871.7
2017-Feb-16 06:32N 00°05' E 121°24'188449878.3
2017-Feb-16 06:30N 31°30' E 121°25'0 8.6
2017-Feb-16 06:29N 31°30' E 121°25'151341.5
2017-Feb-16 06:28N 31°22' E 121°39'1544.8
2017-Feb-16 06:08N 31°30' E 121°24'120.8
2017-Feb-16 06:06N 31°30' E 121°24'1 2.1
2017-Feb-16 05:33N 31°31' E 121°24'161019.1
2017-Feb-16 05:32N 31°22' E 121°39'8800.9
2017-Feb-16 05:32N 31°24' E 121°31'8835.9
2017-Feb-16 05:31N 31°30' E 121°25'1884199520.5
2017-Feb-16 05:31N 00°05' E 121°24'1884323019.8
2017-Feb-16 05:30N 31°30' E 121°25'574458.4
2017-Feb-16 05:30N 31°59' E 120°27'754032.9
2017-Feb-16 05:28N 31°19' E 121°42'754288.3
2017-Feb-16 05:27N 31°59' E 120°27'56333.6
2017-Feb-16 05:17N 31°30' E 121°24'1926.0
2017-Feb-16 04:33N 31°19' E 121°42'7530018.4
2017-Feb-16 04:33N 31°59' E 120°27'191450662.9
2017-Feb-16 04:31N 00°05' E 121°24'187756768.6
2017-Feb-16 04:29N 31°22' E 121°39'1510632.6
2017-Feb-16 04:29N 31°30' E 121°25'0 1.7
2017-Feb-16 04:25N 31°30' E 121°25'5208.7
2017-Feb-16 04:23N 31°26' E 121°30'6391.3
2017-Feb-16 04:22N 31°30' E 121°24'57268.3
2017-Feb-16 04:09N 31°58' E 120°25'5896.0
2017-Feb-16 03:33N 31°30' E 121°25'188114.0
2017-Feb-16 03:33N 31°19' E 121°42'42150.4
2017-Feb-16 03:33N 31°22' E 121°40'724195.0
2017-Feb-16 03:32N 31°58' E 120°26'1208.8
2017-Feb-16 03:32N 31°59' E 120°27'1914127595.6
2017-Feb-16 03:31N 00°05' E 121°24'188520373.8
2017-Feb-16 03:25N 31°30' E 121°24'167.8
2017-Feb-16 03:24N 31°30' E 121°25'326.4
2017-Feb-16 03:17N 31°27' E 121°27'367.2
2017-Feb-16 03:14N 31°29' E 121°25'1522.0
2017-Feb-16 02:33N 31°22' E 121°40'15452.4
2017-Feb-16 02:31N 31°30' E 121°25'18601.4
2017-Feb-16 02:30N 31°19' E 121°42'181298.5
2017-Feb-16 02:29N 31°30' E 121°25'147.1
2017-Feb-16 02:27N 31°30' E 121°24'561922.0
2017-Feb-16 02:26N 31°59' E 120°27'19148612.7
2017-Feb-16 02:12N 00°05' E 121°24'18852888.2
2017-Feb-16 01:33N 31°30' E 121°24'62424.4
2017-Feb-16 01:33N 31°34' E 121°18'41881.0
2017-Feb-16 01:33N 31°31' E 121°22'212360.9
2017-Feb-16 01:32N 31°19' E 121°42'181442.5
2017-Feb-16 01:32N 31°30' E 121°25'575410.5
2017-Feb-16 01:31N 31°59' E 120°27'574777.1
2017-Feb-16 01:30N 31°30' E 121°25'152058.5
2017-Feb-16 01:30N 31°22' E 121°40'15112.0
2017-Feb-16 01:22N 31°29' E 121°25'21153.2
2017-Feb-16 01:14N 31°12' E 121°39'710.2
2017-Feb-16 00:33N 31°19' E 121°42'281837.2
2017-Feb-16 00:32N 31°36' E 121°17'482264.0
2017-Feb-16 00:31N 31°59' E 120°27'727615.1
2017-Feb-16 00:30N 31°22' E 121°40'161275.5
2017-Feb-16 00:30N 31°29' E 121°23'14789.0
2017-Feb-16 00:30N 31°29' E 121°25'142652.7
2017-Feb-16 00:29N 31°39' E 121°13'444760.4
2017-Feb-16 00:29N 31°59' E 120°27'57205615.2
2017-Feb-16 00:29N 31°30' E 121°25'591076.0
2017-Feb-16 00:26N 31°58' E 120°25'59721.5
2017-Feb-16 00:21N 31°30' E 121°25'1518.8
2017-Feb-15 23:33N 31°22' E 121°40'302803.0
2017-Feb-15 23:33N 31°40' E 121°11'168069.2
2017-Feb-15 23:32N 31°30' E 121°25'575013.6
2017-Feb-15 23:32N 31°59' E 120°27'562372.1
2017-Feb-15 23:30N 31°29' E 121°23'196238.6
2017-Feb-15 23:30N 31°19' E 121°42'7512865.0
2017-Feb-15 23:30N 31°59' E 120°27'77278482.5
2017-Feb-15 23:30N 31°12' E 121°39'38423.3
2017-Feb-15 23:24N 31°42' E 121°11'17274.6
2017-Feb-15 23:21N 31°30' E 121°25'1721.5
2017-Feb-15 22:33N 31°42' E 121°11'171356.5
2017-Feb-15 22:32N 31°30' E 121°25'151269.5
2017-Feb-15 22:32N 31°22' E 121°39'7236967.2
2017-Feb-15 22:32N 31°59' E 120°27'574028.7
2017-Feb-15 22:31N 31°30' E 121°25'1821702.9
2017-Feb-15 22:31N 31°19' E 121°42'191347.8
2017-Feb-15 22:30N 31°30' E 121°24'1567.4
2017-Feb-15 22:30N 31°29' E 121°25'21310.7
2017-Feb-15 22:26N 31°12' E 121°39'77625.8
2017-Feb-15 22:18N 31°59' E 120°27'57979.6
2017-Feb-15 22:15N 31°30' E 121°24'1 1.0
2017-Feb-15 21:33N 31°30' E 121°23'1923000.1
2017-Feb-15 21:33N 31°19' E 121°42'188292.0
2017-Feb-15 21:33N 31°30' E 121°24'017.3
2017-Feb-15 21:32N 31°30' E 121°25'5734192.5
2017-Feb-15 21:31N 31°59' E 120°27'414746.5
2017-Feb-15 21:31N 31°42' E 121°11'172526.9
2017-Feb-15 21:31N 31°30' E 121°25'010.7
2017-Feb-15 21:28N 31°30' E 121°24'012.9
2017-Feb-15 21:26N 31°30' E 121°25'22833.5
2017-Feb-15 21:24N 31°45' E 121°06'36915.4
2017-Feb-15 21:22N 31°22' E 121°39'2935.8
2017-Feb-15 20:33N 31°40' E 121°13'13688.8
2017-Feb-15 20:32N 31°30' E 121°23'1161.6
2017-Feb-15 20:32N 31°30' E 121°24'154550.9
2017-Feb-15 20:32N 31°22' E 121°39'7219907.1
2017-Feb-15 20:31N 31°59' E 120°27'0 8.5
2017-Feb-15 20:31N 31°59' E 120°27'5734182.3
2017-Feb-15 20:31N 31°30' E 121°25'184672.5
2017-Feb-15 20:31N 31°19' E 121°42'181090.5
2017-Feb-15 20:30N 31°30' E 121°25'171411.4
2017-Feb-15 20:29N 31°42' E 121°11'17953.7
2017-Feb-15 20:28N 31°29' E 121°25'6 6.1
2017-Feb-15 19:32N 31°34' E 121°20'61377.6
2017-Feb-15 19:32N 31°30' E 121°25'034.6
2017-Feb-15 19:32N 31°30' E 121°25'5718644.0
2017-Feb-15 19:31N 31°59' E 120°27'56201447.4
2017-Feb-15 19:31N 31°30' E 121°23'1116.1
2017-Feb-15 19:31N 31°30' E 121°25'0553.0
2017-Feb-15 19:31N 31°30' E 121°24'159098.1
2017-Feb-15 19:31N 31°22' E 121°39'4431.2
2017-Feb-15 19:30N 31°19' E 121°42'35232.8
2017-Feb-15 19:21N 31°42' E 121°11'381281.5
2017-Feb-15 19:19N 31°12' E 121°39'77342.1
2017-Feb-15 19:06N 31°59' E 120°27'75125.0
2017-Feb-15 18:30N 31°19' E 121°42'42171.8
2017-Feb-15 18:30N 31°22' E 121°39'158950.2
2017-Feb-15 18:30N 31°30' E 121°25'572628.4
2017-Feb-15 18:28N 31°59' E 120°27'588731.9
2017-Feb-15 18:28N 31°28' E 121°25'294.9
2017-Feb-15 18:26N 31°30' E 121°23'123.3
2017-Feb-15 18:24N 31°30' E 121°25'0 8.6
2017-Feb-15 18:22N 31°30' E 121°25'171319.2
2017-Feb-15 18:21N 31°42' E 121°11'17209.1
2017-Feb-15 18:16N 31°30' E 121°24'221233.3
2017-Feb-15 18:15N 31°12' E 121°39'2229.8
2017-Feb-15 17:31N 31°30' E 121°24'2222.3
2017-Feb-15 17:31N 31°28' E 121°25'2110.7
2017-Feb-15 17:29N 31°30' E 121°23'5625174.8
2017-Feb-15 17:29N 31°59' E 120°27'7251744.3
2017-Feb-15 17:29N 31°22' E 121°39'371332.0
2017-Feb-15 17:27N 31°20' E 120°56'3913955.5
2017-Feb-15 17:27N 31°19' E 121°42'18492.6
2017-Feb-15 17:25N 31°30' E 121°25'012.0
2017-Feb-15 17:24N 31°30' E 121°25'222790.7
2017-Feb-15 17:23N 31°12' E 121°39'222232.2
2017-Feb-15 17:23N 31°30' E 121°25'1 1.2
2017-Feb-15 16:33N 31°30' E 121°24'161164.6
2017-Feb-15 16:32N 31°22' E 121°39'15472.2
2017-Feb-15 16:31N 31°30' E 121°25'0 9.3
2017-Feb-15 16:30N 31°30' E 121°25'1120.0
2017-Feb-15 16:29N 31°28' E 121°25'1201.5
2017-Feb-15 16:29N 31°29' E 121°25'18359.5
2017-Feb-15 16:26N 31°19' E 121°42'753376.6
2017-Feb-15 16:24N 31°59' E 120°27'572486.5
2017-Feb-15 16:23N 31°30' E 121°24'22167.2
2017-Feb-15 16:15N 31°12' E 121°39'2230.8
2017-Feb-15 15:33N 31°30' E 121°25'0129.6
2017-Feb-15 15:33N 31°29' E 121°25'1305.1
2017-Feb-15 15:33N 31°28' E 121°25'171313.7
2017-Feb-15 15:32N 31°19' E 121°42'755292.7
2017-Feb-15 15:31N 31°59' E 120°27'7217248.9
2017-Feb-15 15:31N 31°22' E 121°39'10399.1
2017-Feb-15 15:29N 31°12' E 121°39'222355.0
2017-Feb-15 15:29N 31°30' E 121°25'1 5.7
2017-Feb-15 15:17N 31°30' E 121°24'16124.7
2017-Feb-15 15:09N 31°42' E 121°11'16455.8
2017-Feb-15 15:07N 31°30' E 121°24'5797.8
2017-Feb-15 14:32N 31°59' E 120°27'4611801.8
2017-Feb-15 14:32N 31°26' E 121°05'3013570.8
2017-Feb-15 14:32N 31°22' E 121°40'10835.2
2017-Feb-15 14:31N 31°12' E 121°39'7751.0
2017-Feb-15 14:31N 31°19' E 121°42'1816115.8
2017-Feb-15 14:31N 31°29' E 121°25'038.1
2017-Feb-15 14:30N 31°30' E 121°24'2775.2
2017-Feb-15 14:30N 31°28' E 121°25'142.8
2017-Feb-15 14:28N 31°30' E 121°25'118.6
2017-Feb-15 14:24N 31°30' E 121°24'131.7
2017-Feb-15 14:22N 31°30' E 121°25'1822.0
2017-Feb-15 13:33N 31°19' E 121°42'767861.4
2017-Feb-15 13:33N 31°58' E 120°25'732872.1
2017-Feb-15 13:31N 31°22' E 121°40'151302.4
2017-Feb-15 13:30N 31°30' E 121°25'012.2
2017-Feb-15 13:30N 31°30' E 121°25'1113.6
2017-Feb-15 13:29N 31°30' E 121°24'5640372.7
2017-Feb-15 13:29N 31°59' E 120°27'584878.3
2017-Feb-15 13:28N 31°28' E 121°25'201053.8
2017-Feb-15 13:27N 31°12' E 121°39'21543.8
2017-Feb-15 13:25N 31°29' E 121°25'171452.6
2017-Feb-15 13:24N 31°42' E 121°11'1719.9
2017-Feb-15 12:33N 31°30' E 121°25'096.6
2017-Feb-15 12:33N 31°29' E 121°25'596593.2
2017-Feb-15 12:33N 31°58' E 120°25'7912878.6
2017-Feb-15 12:32N 31°12' E 121°39'222352.4
2017-Feb-15 12:32N 31°30' E 121°25'181347.7
2017-Feb-15 12:31N 31°19' E 121°42'4113.7
2017-Feb-15 12:29N 31°22' E 121°39'14367.8
2017-Feb-15 12:27N 31°28' E 121°25'1011.2
2017-Feb-15 11:33N 31°21' E 121°33'610753.7
2017-Feb-15 11:33N 31°22' E 121°39'152655.5
2017-Feb-15 11:33N 31°30' E 121°25'227064.9
2017-Feb-15 11:33N 31°12' E 121°39'7914910.1
2017-Feb-15 11:33N 31°58' E 120°25'574310.0
2017-Feb-15 11:32N 31°30' E 121°24'11207.2
2017-Feb-15 11:32N 31°30' E 121°24'18542.1
2017-Feb-15 11:30N 31°19' E 121°42'1810792.5
2017-Feb-15 11:30N 31°30' E 121°25'136.1
2017-Feb-15 11:27N 31°28' E 121°25'1175.3
2017-Feb-15 11:27N 31°29' E 121°25'1516.3
2017-Feb-15 10:33N 31°22' E 121°39'4261.0
2017-Feb-15 10:32N 31°19' E 121°42'18913.0
2017-Feb-15 10:31N 31°30' E 121°25'065.3
2017-Feb-15 10:31N 31°30' E 121°25'171603.0
2017-Feb-15 10:30N 31°42' E 121°11'162132.5
2017-Feb-15 10:30N 31°30' E 121°24'12343.3
2017-Feb-15 10:28N 31°21' E 121°33'10353.6
2017-Feb-15 10:26N 31°12' E 121°39'792230.6
2017-Feb-15 10:24N 31°58' E 120°25'591729.1
2017-Feb-15 10:22N 31°29' E 121°25'137.5
2017-Feb-15 10:20N 31°28' E 121°25'2 7.2
2017-Feb-15 10:05N 31°30' E 121°24'0 0.9
2017-Feb-15 09:33N 31°30' E 121°25'111326.8
2017-Feb-15 09:33N 31°21' E 121°33'1214729.7
2017-Feb-15 09:32N 31°30' E 121°23'152.6
2017-Feb-15 09:32N 31°30' E 121°24'18778.1
2017-Feb-15 09:30N 31°19' E 121°42'1810818.9
2017-Feb-15 09:30N 31°29' E 121°25'1720346.4
2017-Feb-15 09:30N 31°42' E 121°11'3211356.0
2017-Feb-15 09:30N 31°22' E 121°39'14100.7
2017-Feb-15 09:22N 31°28' E 121°25'1416.7
2017-Feb-15 08:33N 31°22' E 121°39'610760.5
2017-Feb-15 08:33N 31°21' E 121°33'28818.3
2017-Feb-15 08:30N 31°42' E 121°11'171595.4
2017-Feb-15 08:30N 31°30' E 121°25'296.7
2017-Feb-15 08:29N 31°28' E 121°25'2610.0
2017-Feb-15 08:29N 31°30' E 121°23'1 7.8
2017-Feb-15 08:23N 31°30' E 121°24'0 8.3
2017-Feb-15 08:21N 31°30' E 121°25'0 0.0
2017-Feb-15 07:32N 31°30' E 121°25'182173.1
2017-Feb-15 07:32N 31°19' E 121°42'73100.7
2017-Feb-15 07:32N 31°12' E 121°39'381572.5
2017-Feb-15 07:30N 31°42' E 121°11'173516.6
2017-Feb-15 07:30N 31°30' E 121°24'0222.1
2017-Feb-15 07:30N 31°30' E 121°25'113424.7
2017-Feb-15 07:30N 31°21' E 121°33'11632.6
2017-Feb-15 07:29N 31°30' E 121°25'1513338.4
2017-Feb-15 07:29N 31°22' E 121°39'14177.8
2017-Feb-15 07:24N 31°28' E 121°25'238.6
2017-Feb-15 07:20N 31°30' E 121°23'1 1.2
2017-Feb-15 06:28N 31°30' E 121°25'11759.9
2017-Feb-15 06:27N 31°21' E 121°33'53763.5
2017-Feb-15 06:27N 31°21' E 121°39'398.4
2017-Feb-15 06:25N 31°19' E 121°42'19708.9
2017-Feb-15 06:23N 31°30' E 121°23'128.2
2017-Feb-15 06:21N 31°30' E 121°25'171248.0
2017-Feb-15 06:20N 31°42' E 121°11'176737.6
2017-Feb-15 06:20N 31°30' E 121°25'011.5
2017-Feb-15 06:18N 31°30' E 121°24'2135.4
2017-Feb-15 06:18N 31°28' E 121°25'20146.0
2017-Feb-15 06:09N 31°12' E 121°39'2236.3
2017-Feb-15 05:33N 31°30' E 121°24'187342.0
2017-Feb-15 05:33N 31°19' E 121°42'182614.9
2017-Feb-15 05:32N 31°29' E 121°24'018.7
2017-Feb-15 05:32N 31°30' E 121°25'154568.1
2017-Feb-15 05:31N 31°20' E 121°39'151295.6
2017-Feb-15 05:31N 31°30' E 121°25'185.0
2017-Feb-15 05:30N 31°30' E 121°23'1318.4
2017-Feb-15 05:30N 31°30' E 121°25'0 4.5
2017-Feb-15 05:26N 31°30' E 121°24'0 0.7
2017-Feb-15 05:13N 31°30' E 121°24'12183.4
2017-Feb-15 05:09N 31°21' E 121°33'5 8.8
2017-Feb-15 04:33N 31°20' E 121°39'153406.3
2017-Feb-15 04:32N 31°29' E 121°25'039.3
2017-Feb-15 04:32N 31°30' E 121°24'195.2
2017-Feb-15 04:31N 31°30' E 121°23'182.2
2017-Feb-15 04:31N 31°30' E 121°24'025.0
2017-Feb-15 04:30N 31°30' E 121°25'033.4
2017-Feb-15 04:30N 31°30' E 121°25'18424.2
2017-Feb-15 04:27N 31°19' E 121°42'18977.8
2017-Feb-15 04:26N 31°30' E 121°24'161055.9
2017-Feb-15 04:25N 31°42' E 121°11'281086.9
2017-Feb-15 04:23N 31°21' E 121°33'1214.3
2017-Feb-15 03:33N 31°30' E 121°24'167308.9
2017-Feb-15 03:33N 31°41' E 121°10'177543.4
2017-Feb-15 03:33N 31°30' E 121°24'111182.1
2017-Feb-15 03:32N 31°21' E 121°33'128777.8
2017-Feb-15 03:32N 31°30' E 121°24'126.1
2017-Feb-15 03:30N 31°30' E 121°25'181904.9
2017-Feb-15 03:29N 31°19' E 121°42'182139.4
2017-Feb-15 03:29N 31°30' E 121°24'0752.8
2017-Feb-15 03:29N 31°30' E 121°25'1583.4
2017-Feb-15 03:18N 31°20' E 121°39'2128.2
2017-Feb-15 02:33N 31°33' E 121°19'5986.0
2017-Feb-15 02:33N 31°30' E 121°24'123691.2
2017-Feb-15 02:33N 31°22' E 121°36'126178.8
2017-Feb-15 02:33N 31°30' E 121°25'2865.2
2017-Feb-15 02:33N 31°30' E 121°23'12598.7
2017-Feb-15 02:33N 31°30' E 121°24'612866.0
2017-Feb-15 02:31N 32°02' E 120°24'7691207.0
2017-Feb-15 02:31N 31°20' E 121°39'1611614.7
2017-Feb-15 02:31N 31°30' E 121°24'12322.7
2017-Feb-15 02:29N 31°21' E 121°33'11154.5
2017-Feb-15 02:25N 31°30' E 121°25'582093.5
2017-Feb-15 02:23N 31°58' E 120°25'5869.1
2017-Feb-15 01:33N 31°30' E 121°24'0450.4
2017-Feb-15 01:33N 31°30' E 121°25'112845.0
2017-Feb-15 01:32N 31°37' E 121°15'102146.5
2017-Feb-15 01:32N 31°30' E 121°24'66622.9
2017-Feb-15 01:32N 31°34' E 121°19'512805.4
2017-Feb-15 01:31N 31°58' E 120°26'588635.3
2017-Feb-15 01:31N 31°30' E 121°24'030.4
2017-Feb-15 01:30N 31°30' E 121°25'15670.8
2017-Feb-15 01:28N 31°20' E 121°39'5293479.0
2017-Feb-15 01:19N 22°37' E 120°16'54478310.7
2017-Feb-15 01:19N 31°38' E 121°14'27123.0
2017-Feb-15 01:06N 31°17' E 121°34'71132.1
2017-Feb-15 00:33N 31°58' E 120°26'70251163.4
2017-Feb-15 00:33N 31°15' E 121°30'155062.5
2017-Feb-15 00:33N 31°30' E 121°25'172022.2
2017-Feb-15 00:33N 31°41' E 121°10'1712119.8
2017-Feb-15 00:33N 31°30' E 121°25'596196.5
2017-Feb-15 00:32N 31°58' E 120°25'582795.7
2017-Feb-15 00:31N 31°30' E 121°24'155035.3
2017-Feb-15 00:31N 31°20' E 121°39'162420.8
2017-Feb-15 00:30N 31°30' E 121°24'101854.3
2017-Feb-15 00:30N 31°37' E 121°15'411204.3
2017-Feb-15 00:28N 32°01' E 120°36'5257.1
2017-Feb-14 23:33N 31°30' E 121°25'583655.5
2017-Feb-14 23:32N 31°58' E 120°26'5816038.1
2017-Feb-14 23:32N 31°30' E 121°25'0168.1
2017-Feb-14 23:32N 31°30' E 121°24'136.0
2017-Feb-14 23:30N 31°30' E 121°24'162003.4
2017-Feb-14 23:30N 31°20' E 121°39'741214.5
2017-Feb-14 23:26N 31°58' E 120°25'79763.6
2017-Feb-14 23:20N 31°12' E 121°39'22454.0
2017-Feb-14 23:17N 31°30' E 121°24'5877.7
2017-Feb-14 22:32N 31°58' E 120°25'595405.1
2017-Feb-14 22:32N 31°30' E 121°25'222874.6
2017-Feb-14 22:31N 31°12' E 121°39'8473.2
2017-Feb-14 22:30N 31°20' E 121°39'15734.7
2017-Feb-14 22:29N 31°30' E 121°25'026.6
2017-Feb-14 22:28N 31°30' E 121°24'178.6
2017-Feb-14 22:27N 31°30' E 121°24'26131.1
2017-Feb-14 22:15N 31°46' E 120°60'4260.1
2017-Feb-14 21:33N 31°20' E 121°39'15818.0
2017-Feb-14 21:32N 31°30' E 121°25'032.5
2017-Feb-14 21:31N 31°30' E 121°24'3562139.3
2017-Feb-14 21:31N 31°52' E 120°53'351094.5
2017-Feb-14 21:29N 31°30' E 121°24'0 7.2
2017-Feb-14 21:27N 31°30' E 121°25'58915.7
2017-Feb-14 21:23N 31°58' E 120°26'57891.7
2017-Feb-14 21:19N 31°30' E 121°23'1 1.4
2017-Feb-14 20:33N 31°30' E 121°25'1293.5
2017-Feb-14 20:33N 31°30' E 121°23'183081.4
2017-Feb-14 20:32N 31°20' E 121°41'46110562.6
2017-Feb-14 20:30N 24°19' E 118°09'464334415.8
2017-Feb-14 20:30N 31°30' E 121°24'587730.2
2017-Feb-14 20:29N 31°58' E 120°25'585531.6
2017-Feb-14 20:29N 31°30' E 121°25'27274.4
2017-Feb-14 20:23N 31°47' E 121°00'272664.4
2017-Feb-14 20:22N 31°30' E 121°24'57257.4
2017-Feb-14 20:09N 31°58' E 120°26'3763.5
2017-Feb-14 19:33N 31°44' E 121°06'389077.7
2017-Feb-14 19:33N 31°20' E 121°40'172864.7
2017-Feb-14 19:33N 31°30' E 121°25'065.1
2017-Feb-14 19:33N 31°30' E 121°24'5712162.4
2017-Feb-14 19:32N 31°58' E 120°26'573850.1
2017-Feb-14 19:31N 31°30' E 121°23'127.7
2017-Feb-14 19:30N 31°30' E 121°24'012.1
2017-Feb-14 19:28N 31°30' E 121°25'1213.6
2017-Feb-14 18:33N 31°39' E 121°14'276118.5
2017-Feb-14 18:33N 31°15' E 121°29'10454.3
2017-Feb-14 18:32N 31°23' E 121°36'132111.9
2017-Feb-14 18:31N 31°30' E 121°23'1208.3
2017-Feb-14 18:31N 31°30' E 121°24'574484.1
2017-Feb-14 18:30N 31°58' E 120°26'582077.3
2017-Feb-14 18:29N 31°30' E 121°25'015.3
2017-Feb-14 18:28N 31°30' E 121°24'0 6.4
2017-Feb-14 18:25N 31°30' E 121°25'4 5.2
2017-Feb-14 17:34N 31°33' E 121°21'2406.1
2017-Feb-14 17:33N 31°34' E 121°19'63085.3
2017-Feb-14 17:33N 31°30' E 121°25'021.8
2017-Feb-14 17:32N 31°30' E 121°24'010.9
2017-Feb-14 17:30N 31°30' E 121°25'5829678.5
2017-Feb-14 17:30N 31°58' E 120°26'578162.2
2017-Feb-14 17:29N 31°30' E 121°23'12107.4
2017-Feb-14 17:23N 31°23' E 121°34'691972.7
2017-Feb-14 17:20N 31°58' E 120°25'5873.4
2017-Feb-14 16:33N 31°30' E 121°25'3377.6
2017-Feb-14 16:32N 31°28' E 121°28'619980.8
2017-Feb-14 16:32N 31°58' E 120°26'683036.2
2017-Feb-14 16:30N 31°23' E 121°34'11482.4
2017-Feb-14 16:29N 31°30' E 121°24'1 4.7
2017-Feb-14 16:21N 31°30' E 121°24'1 6.5
2017-Feb-14 16:11N 31°30' E 121°25'591560.7
2017-Feb-14 16:09N 31°58' E 120°25'66111.8
2017-Feb-14 15:33N 31°24' E 121°31'8308.5
2017-Feb-14 15:31N 31°30' E 121°24'133.1
2017-Feb-14 15:30N 31°30' E 121°24'141.9
2017-Feb-14 15:29N 31°30' E 121°25'114780.9
2017-Feb-14 15:29N 31°23' E 121°34'11399.4
2017-Feb-14 15:27N 31°30' E 121°25'583201.0
2017-Feb-14 15:26N 31°58' E 120°26'0 0.0
2017-Feb-14 14:33N 31°58' E 120°26'681921.3
2017-Feb-14 14:31N 31°23' E 121°34'725.4
2017-Feb-14 14:14N 31°16' E 121°33'162812.8
2017-Feb-14 14:14N 31°30' E 121°25'1296.2
2017-Feb-14 14:14N 31°30' E 121°24'139.5
2017-Feb-14 14:13N 31°30' E 121°24'014.6
2017-Feb-14 14:11N 31°30' E 121°25'70906.7
2017-Feb-14 14:06N 32°39' E 121°24'77139.4
2017-Feb-14 13:33N 31°23' E 121°34'123792.5
2017-Feb-14 13:33N 31°30' E 121°24'579738.8
2017-Feb-14 13:33N 31°58' E 120°26'5720687.7
2017-Feb-14 13:33N 31°30' E 121°24'22764.0
2017-Feb-14 13:33N 31°30' E 121°23'243.5
2017-Feb-14 13:30N 31°30' E 121°25'18344.6
2017-Feb-14 13:27N 31°12' E 121°30'72702.9
2017-Feb-14 13:21N 31°58' E 120°25'594388.9
2017-Feb-14 13:20N 31°30' E 121°25'2328.6
2017-Feb-14 12:32N 31°07' E 121°28'23600.7
2017-Feb-14 12:30N 31°30' E 121°25'1250.8
2017-Feb-14 12:30N 31°30' E 121°24'12177.5
2017-Feb-14 12:26N 31°23' E 121°34'692853.3
2017-Feb-14 12:24N 31°58' E 120°25'49226.3
2017-Feb-14 12:11N 31°36' E 121°16'10386.6
2017-Feb-14 12:10N 31°30' E 121°25'22275.4
2017-Feb-14 12:05N 31°12' E 121°39'2242.5
2017-Feb-14 11:33N 31°30' E 121°24'57204631.1
2017-Feb-14 11:33N 31°58' E 120°26'186.5
2017-Feb-14 11:33N 31°58' E 120°25'583077.8
2017-Feb-14 11:32N 31°30' E 121°24'141523.5
2017-Feb-14 11:31N 31°39' E 121°13'411736.2
2017-Feb-14 11:30N 31°01' E 121°28'2443300.1
2017-Feb-14 11:30N 31°24' E 121°34'92355.2
2017-Feb-14 11:29N 31°30' E 121°25'0 1.8
2017-Feb-14 11:25N 31°30' E 121°25'22237.6
2017-Feb-14 11:19N 31°12' E 121°39'79101.8
2017-Feb-14 10:33N 31°58' E 120°25'581350.1
2017-Feb-14 10:30N 31°30' E 121°24'140.4
2017-Feb-14 10:29N 31°30' E 121°24'120.1
2017-Feb-14 10:26N 31°30' E 121°25'034.0
2017-Feb-14 10:26N 31°30' E 121°25'9631.6
2017-Feb-14 10:25N 31°24' E 121°34'910.7
2017-Feb-14 09:32N 31°30' E 121°24'013.9
2017-Feb-14 09:30N 31°30' E 121°25'5811071.6
2017-Feb-14 09:30N 31°58' E 120°25'572463.1
2017-Feb-14 09:28N 31°30' E 121°24'1018315.2
2017-Feb-14 09:28N 31°24' E 121°34'101391.0
2017-Feb-14 09:28N 31°30' E 121°24'0 5.1
2017-Feb-14 09:23N 31°30' E 121°25'18212.6
2017-Feb-14 09:18N 31°13' E 121°30'1823.0
2017-Feb-14 08:32N 31°30' E 121°25'222892.9
2017-Feb-14 08:31N 31°12' E 121°39'131093.2
2017-Feb-14 08:31N 31°24' E 121°34'679642.6
2017-Feb-14 08:30N 31°58' E 120°26'115.4
2017-Feb-14 08:27N 31°58' E 120°25'7429634.3
2017-Feb-14 08:27N 31°20' E 121°39'16585.3
2017-Feb-14 08:25N 31°30' E 121°25'0516.0
2017-Feb-14 08:25N 31°30' E 121°24'53824821.7
2017-Feb-14 08:24N 22°36' E 120°16'53812652.1
2017-Feb-14 08:21N 31°30' E 121°24'1 3.2
2017-Feb-14 08:07N 31°30' E 121°23'17454.2
2017-Feb-14 08:05N 31°20' E 121°39'1630.2
2017-Feb-14 07:33N 31°30' E 121°25'201093.3
2017-Feb-14 07:32N 31°18' E 121°43'458183297.4
2017-Feb-14 07:32N 24°22' E 118°06'45931749.0
2017-Feb-14 07:31N 31°20' E 121°40'161200.5
2017-Feb-14 07:30N 31°30' E 121°24'011.0
2017-Feb-14 07:28N 31°30' E 121°25'0 8.8
2017-Feb-14 07:26N 31°30' E 121°24'128.5
2017-Feb-14 07:24N 31°30' E 121°23'23107.6
2017-Feb-14 07:12N 31°12' E 121°39'1320.9
2017-Feb-14 06:33N 31°24' E 121°33'46353715.6
2017-Feb-14 06:33N 24°19' E 118°09'461829057.5
2017-Feb-14 06:33N 31°18' E 121°44'201704.2
2017-Feb-14 06:32N 31°30' E 121°24'133526.3
2017-Feb-14 06:32N 31°39' E 121°14'291580.1
2017-Feb-14 06:31N 31°20' E 121°40'172539.2
2017-Feb-14 06:30N 31°30' E 121°23'1106.4
2017-Feb-14 06:30N 31°30' E 121°25'0 0.9
2017-Feb-14 06:24N 31°30' E 121°25'221396.6
2017-Feb-14 06:23N 31°12' E 121°39'221488.9
2017-Feb-14 06:22N 31°30' E 121°24'0 0.0
2017-Feb-14 05:33N 31°30' E 121°24'175055.8
2017-Feb-14 05:33N 31°20' E 121°40'12639.9
2017-Feb-14 05:32N 31°26' E 121°29'103237.5
2017-Feb-14 05:32N 31°33' E 121°20'42258.6
2017-Feb-14 05:32N 31°30' E 121°24'221985.3
2017-Feb-14 05:31N 31°12' E 121°39'8566.3
2017-Feb-14 05:30N 31°20' E 121°40'171385.3
2017-Feb-14 05:29N 31°30' E 121°23'1 9.7
2017-Feb-14 05:23N 31°30' E 121°25'16432.3
2017-Feb-14 05:21N 31°15' E 121°29'16131.4
2017-Feb-14 05:14N 31°30' E 121°25'58471.3
2017-Feb-14 05:06N 31°58' E 120°25'79143.0
2017-Feb-14 04:33N 31°12' E 121°39'214819.4
2017-Feb-14 04:33N 31°29' E 121°24'112.3
2017-Feb-14 04:30N 31°30' E 121°24'162159.6
2017-Feb-14 04:30N 31°20' E 121°40'16187.1
2017-Feb-14 04:25N 31°30' E 121°25'1277.4
2017-Feb-14 04:24N 31°30' E 121°23'146.4
2017-Feb-14 04:24N 31°30' E 121°24'023.3
2017-Feb-14 04:23N 31°30' E 121°25'16640.1
2017-Feb-14 04:21N 31°20' E 121°39'1620.2
2017-Feb-14 03:33N 31°30' E 121°24'0106.7
2017-Feb-14 03:33N 31°30' E 121°25'221441.1
2017-Feb-14 03:32N 31°12' E 121°39'302288.6
2017-Feb-14 03:31N 31°35' E 121°17'7424.8
2017-Feb-14 03:30N 31°30' E 121°24'1629.8
2017-Feb-14 03:30N 31°30' E 121°25'581231.2
2017-Feb-14 03:27N 31°58' E 120°25'74328.1
2017-Feb-14 03:14N 31°20' E 121°39'3 4.9
2017-Feb-14 02:33N 31°18' E 121°43'194276.1
2017-Feb-14 02:33N 31°30' E 121°25'207049.2
2017-Feb-14 02:33N 31°18' E 121°43'321807.9
2017-Feb-14 02:32N 31°38' E 121°14'1221851.5
2017-Feb-14 02:32N 31°30' E 121°24'013.6
2017-Feb-14 02:30N 31°30' E 121°25'142.8
2017-Feb-14 02:28N 31°30' E 121°24'16308.1
2017-Feb-14 02:25N 31°17' E 121°34'4564040.5
2017-Feb-14 02:18N 24°19' E 118°07'1574317.0
2017-Feb-14 02:16N 22°36' E 120°16'53414232.1
2017-Feb-14 02:14N 31°26' E 121°29'642447.3
2017-Feb-14 02:12N 31°58' E 120°25'77118.7
2017-Feb-14 01:33N 31°18' E 121°43'311666.0
2017-Feb-14 01:32N 31°38' E 121°14'5388365986.4
2017-Feb-14 01:31N 49°18' W 123°02'53849692029.1
2017-Feb-14 01:31N 31°20' E 121°39'171249.8
2017-Feb-14 01:30N 31°30' E 121°24'2227.0
2017-Feb-14 01:30N 31°29' E 121°25'1101.5
2017-Feb-14 01:30N 31°30' E 121°25'015.2
2017-Feb-14 01:29N 31°30' E 121°25'5381730.8
2017-Feb-14 01:10N 22°35' E 120°16'5208833.9
2017-Feb-14 01:07N 31°11' E 121°28'72129.5
2017-Feb-14 00:33N 31°58' E 120°25'5311228.3
2017-Feb-14 00:33N 31°33' E 121°20'6669.7
2017-Feb-14 00:33N 31°30' E 121°25'15968.7
2017-Feb-14 00:32N 31°41' E 121°13'15956.7
2017-Feb-14 00:31N 31°30' E 121°24'5388692700.3
2017-Feb-14 00:30N 49°18' W 123°02'5388646568.5
2017-Feb-14 00:30N 31°30' E 121°24'178.6
2017-Feb-14 00:29N 31°30' E 121°25'16119.0
2017-Feb-14 00:21N 31°20' E 121°40'1799.4
2017-Feb-14 00:11N 31°07' E 121°28'53978639.1
2017-Feb-13 23:33N 49°19' W 123°11'53813873990.4
2017-Feb-13 23:33N 31°30' E 121°24'12328.0
2017-Feb-13 23:31N 31°38' E 121°14'131845.5
2017-Feb-13 23:31N 31°30' E 121°25'15821.7
2017-Feb-13 23:30N 31°41' E 121°13'31871.6
2017-Feb-13 23:27N 31°20' E 121°40'16676.9
2017-Feb-13 23:26N 31°30' E 121°25'035.4
2017-Feb-13 23:25N 31°30' E 121°24'53776218.6
2017-Feb-13 22:33N 49°18' W 123°15'5377215080.2
2017-Feb-13 22:32N 31°30' E 121°25'192776.6
2017-Feb-13 22:31N 31°42' E 121°08'4383.0
2017-Feb-13 22:31N 31°41' E 121°13'151427.1
2017-Feb-13 22:30N 31°30' E 121°25'169.7
2017-Feb-13 22:29N 31°30' E 121°24'58656.8
2017-Feb-13 22:24N 31°41' E 122°30'642758.3
2017-Feb-13 22:23N 31°04' E 121°28'26548.9
2017-Feb-13 22:20N 31°30' E 121°24'1 7.8
2017-Feb-13 22:12N 31°30' E 121°23'0 0.2
2017-Feb-13 21:33N 31°30' E 121°23'53761209641.2
2017-Feb-13 21:33N 49°20' W 123°17'5375403158.9
2017-Feb-13 21:32N 31°40' E 121°12'14551.1
2017-Feb-13 21:31N 31°30' E 121°24'11275.5
2017-Feb-13 21:31N 31°30' E 121°25'014.9
2017-Feb-13 21:29N 31°30' E 121°24'0414.0
2017-Feb-13 21:29N 31°30' E 121°25'20123.0
2017-Feb-13 21:19N 31°10' E 121°28'2078.4
2017-Feb-13 21:03N 31°30' E 121°24'0 0.4
2017-Feb-13 20:32N 31°30' E 121°25'199914.1
2017-Feb-13 20:32N 31°42' E 121°08'1967962.8
2017-Feb-13 20:32N 31°30' E 121°24'014.9
2017-Feb-13 20:31N 31°30' E 121°24'138.7
2017-Feb-13 20:30N 31°30' E 121°23'115.1
2017-Feb-13 20:28N 31°30' E 121°23'20321.2
2017-Feb-13 20:24N 31°10' E 121°28'73821.9
2017-Feb-13 20:19N 31°58' E 120°25'3648.1
2017-Feb-13 19:33N 31°45' E 121°04'221391.6
2017-Feb-13 19:32N 31°30' E 121°23'127.0
2017-Feb-13 19:31N 31°30' E 121°24'585639.8
2017-Feb-13 19:30N 31°58' E 120°25'582840.0
2017-Feb-13 19:29N 31°30' E 121°25'0 8.4
2017-Feb-13 19:27N 31°30' E 121°24'0330.5
2017-Feb-13 19:27N 31°30' E 121°25'132.7
2017-Feb-13 19:25N 31°30' E 121°23'20234.9
2017-Feb-13 19:20N 31°10' E 121°28'2126.2
2017-Feb-13 18:32N 31°30' E 121°23'123.7
2017-Feb-13 18:30N 31°30' E 121°25'133.8
2017-Feb-13 18:28N 31°30' E 121°23'5720673.0
2017-Feb-13 18:28N 31°58' E 120°25'5811583.5
2017-Feb-13 18:27N 31°30' E 121°24'037.3
2017-Feb-13 18:27N 31°30' E 121°25'20274.2
2017-Feb-13 18:22N 31°10' E 121°28'442166.3
2017-Feb-13 18:21N 31°46' E 120°60'8512234.5
2017-Feb-13 18:21N 31°17' E 122°33'4798172.0
2017-Feb-13 18:17N 24°18' E 118°10'46421150.0
2017-Feb-13 18:16N 31°30' E 121°24'0 0.4
2017-Feb-13 17:33N 31°30' E 121°25'1431.5
2017-Feb-13 17:33N 31°30' E 121°23'117.0
2017-Feb-13 17:29N 31°30' E 121°25'085.5
2017-Feb-13 17:29N 31°30' E 121°24'1255.2
2017-Feb-13 17:28N 31°30' E 121°23'1 7.8
2017-Feb-13 17:23N 31°30' E 121°24'584018.5
2017-Feb-13 17:22N 31°58' E 120°25'5871.3
2017-Feb-13 16:33N 31°30' E 121°24'115.0
2017-Feb-13 16:30N 31°30' E 121°23'1153.1
2017-Feb-13 16:30N 31°30' E 121°25'0 6.3
2017-Feb-13 16:29N 31°30' E 121°25'153.8
2017-Feb-13 16:28N 31°30' E 121°23'157.1
2017-Feb-13 16:27N 31°30' E 121°24'58241.6
2017-Feb-13 16:12N 31°58' E 120°25'5889.2
2017-Feb-13 15:33N 31°30' E 121°24'581312.9
2017-Feb-13 15:31N 31°58' E 120°25'581739.8
2017-Feb-13 15:29N 31°30' E 121°24'0 8.7
2017-Feb-13 15:27N 31°30' E 121°24'185.5
2017-Feb-13 15:26N 31°30' E 121°25'017.8
2017-Feb-13 15:26N 31°30' E 121°25'1 1.3
2017-Feb-13 14:33N 31°30' E 121°24'1326.5
2017-Feb-13 14:33N 31°30' E 121°24'263911.6
2017-Feb-13 14:33N 31°04' E 121°28'391074.2
2017-Feb-13 14:31N 31°41' E 121°12'16272.2
2017-Feb-13 14:27N 31°30' E 121°25'0 2.2
2017-Feb-13 14:24N 31°30' E 121°25'186.4
2017-Feb-13 14:23N 31°30' E 121°24'0 0.3
2017-Feb-13 13:32N 31°30' E 121°24'10565.3
2017-Feb-13 13:31N 31°37' E 121°16'101150.6
2017-Feb-13 13:31N 31°30' E 121°24'190.8
2017-Feb-13 13:30N 31°30' E 121°25'021.9
2017-Feb-13 13:29N 31°30' E 121°24'0118.6
2017-Feb-13 13:29N 31°30' E 121°25'58184.2
2017-Feb-13 13:10N 31°58' E 120°25'1102978.5
2017-Feb-13 13:08N 31°02' E 122°16'5392.7
2017-Feb-13 12:33N 31°30' E 121°23'41464.4
2017-Feb-13 12:33N 31°33' E 121°20'51202.3
2017-Feb-13 12:33N 31°30' E 121°24'0292.2
2017-Feb-13 12:33N 31°30' E 121°24'504739.7
2017-Feb-13 12:32N 31°02' E 122°13'501100.0
2017-Feb-13 12:30N 31°30' E 121°24'26189.1
2017-Feb-13 12:21N 31°04' E 121°28'26294.8
2017-Feb-13 12:16N 31°30' E 121°25'1 1.4
2017-Feb-13 11:33N 31°30' E 121°24'61421.9
2017-Feb-13 11:33N 31°34' E 121°19'72712.3
2017-Feb-13 11:33N 31°30' E 121°25'171.7
2017-Feb-13 11:32N 31°30' E 121°24'052.7
2017-Feb-13 11:32N 31°30' E 121°25'160.8
2017-Feb-13 11:31N 31°30' E 121°24'26191.6
2017-Feb-13 11:23N 31°04' E 121°28'77242.5
2017-Feb-13 11:04N 31°58' E 120°25'2 4.0
2017-Feb-13 10:33N 31°59' E 120°27'7321929.4
2017-Feb-13 10:33N 31°20' E 121°39'1656395.4
2017-Feb-13 10:33N 31°30' E 121°25'046.9
2017-Feb-13 10:32N 31°30' E 121°24'3610915.5
2017-Feb-13 10:32N 31°07' E 121°57'491791.8
2017-Feb-13 10:31N 31°38' E 121°14'12122.9
2017-Feb-13 10:25N 31°30' E 121°24'019.1
2017-Feb-13 10:24N 31°30' E 121°24'878.6
2017-Feb-13 10:18N 31°25' E 121°31'1216.8
2017-Feb-13 09:33N 31°18' E 121°43'81240.4
2017-Feb-13 09:33N 31°12' E 121°49'443559.2
2017-Feb-13 09:32N 31°41' E 121°10'171156.7
2017-Feb-13 09:31N 31°30' E 121°25'1100.2
2017-Feb-13 09:31N 31°30' E 121°24'017.8
2017-Feb-13 09:30N 31°30' E 121°24'120.5
2017-Feb-13 09:28N 31°30' E 121°24'0 0.1
2017-Feb-13 08:33N 31°30' E 121°24'1914008.0
2017-Feb-13 08:33N 31°18' E 121°43'188.4
2017-Feb-13 08:33N 31°18' E 121°43'402587.7
2017-Feb-13 08:32N 31°43' E 121°07'201302.2
2017-Feb-13 08:31N 31°30' E 121°24'0331.2
2017-Feb-13 08:31N 31°30' E 121°25'133.4
2017-Feb-13 08:29N 31°30' E 121°24'034.7
2017-Feb-13 08:28N 31°30' E 121°23'1617.5
2017-Feb-13 07:33N 31°22' E 121°39'15204.1
2017-Feb-13 07:29N 31°30' E 121°24'098.9
2017-Feb-13 07:29N 31°30' E 121°25'170.8
2017-Feb-13 07:28N 31°30' E 121°24'1314.2
2017-Feb-13 06:33N 31°23' E 121°36'6927717.3
2017-Feb-13 06:33N 31°58' E 120°26'571131.3
2017-Feb-13 06:30N 31°30' E 121°24'0 5.2
2017-Feb-13 06:27N 31°30' E 121°25'176.5
2017-Feb-13 06:26N 31°30' E 121°24'0 5.7
2017-Feb-13 06:24N 31°30' E 121°23'464139309.8
2017-Feb-13 06:24N 24°19' E 118°07'4424221.6
2017-Feb-13 06:17N 31°04' E 121°28'39217.6
2017-Feb-13 06:07N 31°40' E 121°12'10769.6
2017-Feb-13 06:06N 31°47' E 121°03'332210.6
2017-Feb-13 06:05N 31°14' E 121°09'58110.4
2017-Feb-13 05:34N 31°59' E 120°27'489073.9
2017-Feb-13 05:33N 31°37' E 121°17'134319.6
2017-Feb-13 05:33N 31°45' E 121°05'3127858.5
2017-Feb-13 05:33N 31°24' E 121°31'53043395.1
2017-Feb-13 05:32N 22°38' E 120°14'51626515.3
2017-Feb-13 05:31N 31°11' E 121°09'23905.1
2017-Feb-13 05:30N 31°30' E 121°23'189.0
2017-Feb-13 05:29N 31°30' E 121°25'012.5
2017-Feb-13 05:28N 31°30' E 121°24'184399.0
2017-Feb-13 05:27N 31°43' E 121°09'0 9.1
2017-Feb-13 05:26N 31°43' E 121°09'181046.1
2017-Feb-13 05:25N 31°30' E 121°24'4642732.2
2017-Feb-13 05:15N 24°19' E 118°07'464672.6
2017-Feb-13 04:33N 31°30' E 121°22'95273.9
2017-Feb-13 04:33N 31°37' E 121°16'101770.9
2017-Feb-13 04:33N 31°31' E 121°25'102891.1
2017-Feb-13 04:33N 31°38' E 121°16'3394.9
2017-Feb-13 04:32N 31°40' E 121°13'545654512.5
2017-Feb-13 04:32N 22°37' E 120°15'53626817.6
2017-Feb-13 04:31N 31°30' E 121°24'0 9.2
2017-Feb-13 04:29N 31°30' E 121°25'126.2
2017-Feb-13 04:27N 31°30' E 121°23'4649444.7
2017-Feb-13 04:24N 24°19' E 118°07'466557.3
2017-Feb-13 03:34N 31°33' E 121°20'21795.1
2017-Feb-13 03:33N 31°32' E 121°22'53971826.9
2017-Feb-13 03:33N 22°37' E 120°15'15622461.2
2017-Feb-13 03:33N 24°19' E 118°07'468112335.2
2017-Feb-13 03:32N 31°36' E 121°18'8512.3
2017-Feb-13 03:31N 31°30' E 121°23'3381.2
2017-Feb-13 03:31N 31°32' E 121°22'112844.2
2017-Feb-13 03:31N 31°30' E 121°34'8197.9
2017-Feb-13 03:28N 31°30' E 121°25'0 0.1
2017-Feb-13 02:34N 31°30' E 121°25'1712057.5
2017-Feb-13 02:33N 31°21' E 121°41'148600.4
2017-Feb-13 02:33N 31°29' E 121°27'141067.8
2017-Feb-13 02:33N 31°37' E 121°15'152617.1
2017-Feb-13 02:32N 31°33' E 121°31'93993.9
2017-Feb-13 02:32N 31°32' E 121°21'376.4
2017-Feb-13 02:30N 31°30' E 121°24'2265.1
2017-Feb-13 02:29N 31°29' E 121°25'152032.7
2017-Feb-13 02:29N 31°20' E 121°39'5294477.9
2017-Feb-13 02:22N 22°37' E 120°17'537668.0
2017-Feb-13 01:33N 31°30' E 121°24'828908.4
2017-Feb-13 01:33N 31°25' E 121°31'156174.7
2017-Feb-13 01:33N 31°18' E 121°47'223572.2
2017-Feb-13 01:33N 31°29' E 121°25'15418.8
2017-Feb-13 01:31N 31°20' E 121°39'16975.5
2017-Feb-13 01:30N 31°30' E 121°25'113.4
2017-Feb-13 01:27N 31°30' E 121°24'0 4.8
2017-Feb-13 01:21N 31°30' E 121°24'1 1.2
2017-Feb-13 00:33N 31°30' E 121°25'16446.1
2017-Feb-13 00:31N 31°20' E 121°39'1710008.9
2017-Feb-13 00:31N 31°30' E 121°24'0231.6
2017-Feb-13 00:31N 31°30' E 121°24'9323.6
2017-Feb-13 00:29N 31°25' E 121°32'82299.9
2017-Feb-13 00:29N 31°30' E 121°24'777.8
2017-Feb-13 00:24N 31°34' E 121°30'39708.5
2017-Feb-13 00:20N 31°04' E 121°02'3240.4
2017-Feb-12 23:33N 31°28' E 121°25'2175.1
2017-Feb-12 23:33N 31°30' E 121°24'332858.9
2017-Feb-12 23:32N 31°05' E 120°59'5413295243.6
2017-Feb-12 23:31N 49°22' W 123°19'53732149230.0
2017-Feb-12 23:31N 31°30' E 121°25'128.9
2017-Feb-12 23:29N 31°30' E 121°24'0 7.3
2017-Feb-12 23:26N 31°30' E 121°24'983.2
2017-Feb-12 23:20N 31°25' E 121°32'53716402.4
2017-Feb-12 22:30N 49°25' W 123°17'53733223924.8
2017-Feb-12 22:30N 31°30' E 121°24'9961.3
2017-Feb-12 22:29N 31°25' E 121°32'8170.0
2017-Feb-12 22:26N 31°30' E 121°25'1189.1
2017-Feb-12 22:26N 31°28' E 121°25'2127.4
2017-Feb-12 22:25N 31°30' E 121°24'0 6.3
2017-Feb-12 22:21N 31°30' E 121°24'0 0.3
2017-Feb-12 21:34N 31°30' E 121°24'1138.6
2017-Feb-12 21:33N 31°30' E 121°24'224.6
2017-Feb-12 21:29N 31°28' E 121°25'247.1
2017-Feb-12 21:27N 31°30' E 121°24'27474.7
2017-Feb-12 21:23N 31°04' E 121°28'26490.0
2017-Feb-12 21:20N 31°30' E 121°25'4644480.2
2017-Feb-12 21:14N 24°19' E 118°10'5887255318.9
2017-Feb-12 21:12N 49°23' W 123°18'53738188.4
2017-Feb-12 20:33N 31°30' E 121°25'125.2
2017-Feb-12 20:32N 31°30' E 121°24'1254.3
2017-Feb-12 20:32N 31°30' E 121°24'271370.1
2017-Feb-12 20:30N 31°04' E 121°28'251321.2
2017-Feb-12 20:29N 31°28' E 121°25'2238.3
2017-Feb-12 20:29N 31°30' E 121°24'118.0
2017-Feb-12 20:26N 31°30' E 121°24'0 0.1
2017-Feb-12 19:33N 31°30' E 121°24'055.9
2017-Feb-12 19:33N 31°30' E 121°24'11798.2
2017-Feb-12 19:33N 31°28' E 121°25'157.9
2017-Feb-12 19:32N 31°30' E 121°25'130.5
2017-Feb-12 19:30N 31°30' E 121°23'0 3.3
2017-Feb-12 19:24N 31°30' E 121°24'2781.1
2017-Feb-12 19:05N 31°04' E 121°28'2546.8
2017-Feb-12 18:33N 31°28' E 121°25'019.1
2017-Feb-12 18:33N 31°28' E 121°25'21229.2
2017-Feb-12 18:33N 31°30' E 121°23'0 7.1
2017-Feb-12 18:31N 31°30' E 121°24'1120.2
2017-Feb-12 18:30N 31°30' E 121°25'0 4.4
2017-Feb-12 18:26N 31°30' E 121°24'26577.1
2017-Feb-12 18:24N 31°04' E 121°28'2528.3
2017-Feb-12 17:31N 31°28' E 121°25'2232.9
2017-Feb-12 17:31N 31°30' E 121°23'281.9
2017-Feb-12 17:29N 31°28' E 121°25'283.1
2017-Feb-12 17:27N 31°30' E 121°24'16139.2
2017-Feb-12 17:20N 31°41' E 121°11'171132.2
2017-Feb-12 17:20N 31°30' E 121°25'1 1.9
2017-Feb-12 16:33N 31°28' E 121°25'2453.3
2017-Feb-12 16:33N 31°30' E 121°24'102877.2
2017-Feb-12 16:33N 31°37' E 121°16'10778.1
2017-Feb-12 16:32N 31°30' E 121°24'140.7
2017-Feb-12 16:31N 31°30' E 121°25'145.1
2017-Feb-12 16:30N 31°30' E 121°23'222.9
2017-Feb-12 16:23N 31°28' E 121°25'1133.8
2017-Feb-12 16:05N 31°23' E 121°36'1324.6
2017-Feb-12 15:33N 31°30' E 121°24'22076.6
2017-Feb-12 15:33N 31°28' E 121°25'5525.2
2017-Feb-12 15:33N 31°33' E 121°21'3236.2
2017-Feb-12 15:32N 31°30' E 121°23'18817.7
2017-Feb-12 15:30N 31°20' E 121°41'16140.9
2017-Feb-12 15:24N 31°28' E 121°25'124.6
2017-Feb-12 15:20N 31°30' E 121°25'26129.3
2017-Feb-12 15:08N 31°04' E 121°28'1933.6
2017-Feb-12 14:33N 31°14' E 121°48'247170.1
2017-Feb-12 14:33N 31°28' E 121°25'87273.1
2017-Feb-12 14:33N 31°34' E 121°18'8481.9
2017-Feb-12 14:32N 31°30' E 121°26'2126.2
2017-Feb-12 14:31N 31°30' E 121°24'1171.7
2017-Feb-12 14:31N 31°30' E 121°25'118.2
2017-Feb-12 14:26N 31°28' E 121°25'1718.8
2017-Feb-12 13:32N 31°40' E 121°11'165612.7
2017-Feb-12 13:32N 31°30' E 121°25'333581.7
2017-Feb-12 13:31N 31°09' E 121°55'342137.1
2017-Feb-12 13:31N 31°30' E 121°24'2593.4
2017-Feb-12 13:30N 31°28' E 121°25'0463.3
2017-Feb-12 13:30N 31°28' E 121°25'2103.8
2017-Feb-12 13:29N 31°29' E 121°24'26492.7
2017-Feb-12 13:26N 31°04' E 121°28'0 0.0
2017-Feb-12 12:33N 31°04' E 121°28'276092.7
2017-Feb-12 12:33N 31°06' E 121°60'441152.7
2017-Feb-12 12:30N 31°33' E 121°20'4223.0
2017-Feb-12 12:29N 31°30' E 121°24'228.0
2017-Feb-12 12:24N 31°28' E 121°25'0 1.9
2017-Feb-12 12:20N 31°28' E 121°25'1468.7
2017-Feb-12 12:20N 31°30' E 121°25'1 1.3
2017-Feb-12 11:32N 31°30' E 121°24'2103.4
2017-Feb-12 11:30N 31°28' E 121°25'0 4.4
2017-Feb-12 11:28N 31°28' E 121°25'124.8
2017-Feb-12 11:25N 31°30' E 121°25'0 0.1
2017-Feb-12 10:33N 31°30' E 121°25'116.7
2017-Feb-12 10:30N 31°30' E 121°24'292.7
2017-Feb-12 10:28N 31°28' E 121°25'1151.0
2017-Feb-12 10:15N 31°19' E 121°34'1185.9
2017-Feb-12 10:07N 31°28' E 121°25'1 2.5
2017-Feb-12 09:33N 31°30' E 121°25'1157.1
2017-Feb-12 09:32N 31°30' E 121°24'2220.4
2017-Feb-12 09:32N 31°28' E 121°25'0 1.1
2017-Feb-12 09:25N 31°28' E 121°25'1113.2
2017-Feb-12 08:33N 31°19' E 121°34'304739.5
2017-Feb-12 08:33N 31°42' E 121°10'17403.4
2017-Feb-12 08:30N 31°30' E 121°24'175.3
2017-Feb-12 08:30N 31°30' E 121°24'113.7
2017-Feb-12 08:25N 31°30' E 121°25'26197.2
2017-Feb-12 08:17N 31°04' E 121°28'1981.3
2017-Feb-12 08:03N 31°20' E 121°40'2447.3
2017-Feb-12 07:33N 31°35' E 121°18'8337.6
2017-Feb-12 07:32N 31°30' E 121°25'0 2.1
2017-Feb-12 07:24N 31°30' E 121°24'238.5
2017-Feb-12 07:21N 31°28' E 121°25'215.5
2017-Feb-12 07:12N 31°30' E 121°23'  

Dump ship's entire track history